<?xml version="1.0" encoding="UTF-8" standalone="no" ?>
<gpx xmlns="http://www.topografix.com/GPX/1/1" xmlns:xsi="http://www.w3.org/2001/XMLSchema-instance" xsi:schemaLocation="http://www.topografix.com/GPX/1/1 http://www.topografix.com/GPX/1/1/gpx.xsd" version="1.1" creator="VisuGPX - https://www.visugpx.com">
  <metadata>
    <name>Gite de Sagnebesse - loups du Gevaudan</name>
    <desc><![CDATA[2019-06 - Gite de Sagnebesse - Loups du gevaudan

[b]album[/b] : [url]https://photos.app.goo.gl/5iZSMh7Gh66EZ4v29[/url]
[img]https://blogger.googleusercontent.com/img/b/R29vZ2xl/AVvXsEjxm-OgxszzBkcNYlqgBeavfHgQ2KNJbuHUVrQFjonUZHXdmlGuGehtC01rigDZxEmy_j28wEaNgM-hZR9yiagCB3YEFeFFOGWRKsG_e8m1l2UfxbkhQUPB6smfxw89SDvUR3U6BPMmAClURGQJ9JPCiXgiIYAS4ZYA76TM1nUYXBHCoSo4kApLu4XJkVFN/s600/aubrac.JPG[/img]
[b]Idées de randonnées dans la même région[/b]
Parcours : [url]https://www.visugpx.com/membres/24856/montagne/massif-central/[/url]
Photos : [url]https://jcvertygo.blogspot.com/p/massif-central.html[/url]]]></desc>
  </metadata>
  <trk>
    <name><![CDATA[SityTrail - Gite de Sagnebesse - loups du Gevaudan]]></name>
    <extensions>
      <line xmlns="http://www.topografix.com/GPX/gpx_style/0/2">
        <color>0000FF</color>
        <width>4</width>
      </line>
    </extensions>
    <trkseg>
      <trkpt lat="44.6221" lon="3.25422">
        <ele>1031</ele>
        <time>2019-06-02T06:40:17.521Z</time>
      </trkpt>
      <trkpt lat="44.62212" lon="3.25419">
        <ele>1031</ele>
        <time>2019-06-02T06:43:29.551Z</time>
      </trkpt>
      <trkpt lat="44.62215" lon="3.25426">
        <ele>1031</ele>
        <time>2019-06-02T06:43:34.518Z</time>
      </trkpt>
      <trkpt lat="44.62218" lon="3.2543">
        <ele>1031</ele>
        <time>2019-06-02T06:43:38.563Z</time>
      </trkpt>
      <trkpt lat="44.62222" lon="3.25434">
        <ele>1030</ele>
        <time>2019-06-02T06:43:43.533Z</time>
      </trkpt>
      <trkpt lat="44.62225" lon="3.25439">
        <ele>1030</ele>
        <time>2019-06-02T06:43:48.570Z</time>
      </trkpt>
      <trkpt lat="44.62228" lon="3.25445">
        <ele>1030</ele>
        <time>2019-06-02T06:43:53.529Z</time>
      </trkpt>
      <trkpt lat="44.6223" lon="3.25451">
        <ele>1030</ele>
        <time>2019-06-02T06:43:57.564Z</time>
      </trkpt>
      <trkpt lat="44.62231" lon="3.2546">
        <ele>1030</ele>
        <time>2019-06-02T06:44:02.556Z</time>
      </trkpt>
      <trkpt lat="44.6223" lon="3.25467">
        <ele>1030</ele>
        <time>2019-06-02T06:44:07.542Z</time>
      </trkpt>
      <trkpt lat="44.62229" lon="3.25467">
        <ele>1030</ele>
        <time>2019-06-02T06:44:12.539Z</time>
      </trkpt>
      <trkpt lat="44.62228" lon="3.2547">
        <ele>1030</ele>
        <time>2019-06-02T06:44:22.538Z</time>
      </trkpt>
      <trkpt lat="44.62224" lon="3.25477">
        <ele>1030</ele>
        <time>2019-06-02T06:44:27.538Z</time>
      </trkpt>
      <trkpt lat="44.6222" lon="3.25482">
        <ele>1030</ele>
        <time>2019-06-02T06:44:32.573Z</time>
      </trkpt>
      <trkpt lat="44.62216" lon="3.2549">
        <ele>1032</ele>
        <time>2019-06-02T06:44:37.531Z</time>
      </trkpt>
      <trkpt lat="44.62213" lon="3.25494">
        <ele>1032</ele>
        <time>2019-06-02T06:44:41.540Z</time>
      </trkpt>
      <trkpt lat="44.62209" lon="3.25499">
        <ele>1032</ele>
        <time>2019-06-02T06:44:46.541Z</time>
      </trkpt>
      <trkpt lat="44.62205" lon="3.25504">
        <ele>1030</ele>
        <time>2019-06-02T06:44:51.540Z</time>
      </trkpt>
      <trkpt lat="44.62201" lon="3.25508">
        <ele>1030</ele>
        <time>2019-06-02T06:44:56.541Z</time>
      </trkpt>
      <trkpt lat="44.62197" lon="3.25513">
        <ele>1030</ele>
        <time>2019-06-02T06:45:01.533Z</time>
      </trkpt>
      <trkpt lat="44.62194" lon="3.25518">
        <ele>1033</ele>
        <time>2019-06-02T06:45:06.541Z</time>
      </trkpt>
      <trkpt lat="44.62189" lon="3.25523">
        <ele>1033</ele>
        <time>2019-06-02T06:45:11.565Z</time>
      </trkpt>
      <trkpt lat="44.62185" lon="3.25527">
        <ele>1033</ele>
        <time>2019-06-02T06:45:16.565Z</time>
      </trkpt>
      <trkpt lat="44.6218" lon="3.25533">
        <ele>1030</ele>
        <time>2019-06-02T06:45:21.541Z</time>
      </trkpt>
      <trkpt lat="44.62175" lon="3.2554">
        <ele>1030</ele>
        <time>2019-06-02T06:45:26.535Z</time>
      </trkpt>
      <trkpt lat="44.62172" lon="3.25545">
        <ele>1030</ele>
        <time>2019-06-02T06:45:30.535Z</time>
      </trkpt>
      <trkpt lat="44.62168" lon="3.25549">
        <ele>1030</ele>
        <time>2019-06-02T06:45:34.541Z</time>
      </trkpt>
      <trkpt lat="44.62164" lon="3.25554">
        <ele>1030</ele>
        <time>2019-06-02T06:45:39.536Z</time>
      </trkpt>
      <trkpt lat="44.6216" lon="3.25559">
        <ele>1030</ele>
        <time>2019-06-02T06:45:44.540Z</time>
      </trkpt>
      <trkpt lat="44.62158" lon="3.25564">
        <ele>1030</ele>
        <time>2019-06-02T06:45:49.540Z</time>
      </trkpt>
      <trkpt lat="44.62154" lon="3.25569">
        <ele>1030</ele>
        <time>2019-06-02T06:45:54.540Z</time>
      </trkpt>
      <trkpt lat="44.62152" lon="3.25575">
        <ele>1028</ele>
        <time>2019-06-02T06:45:59.542Z</time>
      </trkpt>
      <trkpt lat="44.6215" lon="3.25582">
        <ele>1028</ele>
        <time>2019-06-02T06:46:04.518Z</time>
      </trkpt>
      <trkpt lat="44.62148" lon="3.25589">
        <ele>1028</ele>
        <time>2019-06-02T06:46:09.532Z</time>
      </trkpt>
      <trkpt lat="44.62144" lon="3.25596">
        <ele>1028</ele>
        <time>2019-06-02T06:46:14.537Z</time>
      </trkpt>
      <trkpt lat="44.62141" lon="3.25604">
        <ele>1030</ele>
        <time>2019-06-02T06:46:19.563Z</time>
      </trkpt>
      <trkpt lat="44.62139" lon="3.25612">
        <ele>1030</ele>
        <time>2019-06-02T06:46:24.538Z</time>
      </trkpt>
      <trkpt lat="44.62134" lon="3.25618">
        <ele>1030</ele>
        <time>2019-06-02T06:46:29.538Z</time>
      </trkpt>
      <trkpt lat="44.62131" lon="3.25624">
        <ele>1030</ele>
        <time>2019-06-02T06:46:33.541Z</time>
      </trkpt>
      <trkpt lat="44.62127" lon="3.25629">
        <ele>1031</ele>
        <time>2019-06-02T06:46:38.541Z</time>
      </trkpt>
      <trkpt lat="44.62125" lon="3.25633">
        <ele>1028</ele>
        <time>2019-06-02T06:46:42.548Z</time>
      </trkpt>
      <trkpt lat="44.62121" lon="3.2564">
        <ele>1028</ele>
        <time>2019-06-02T06:46:47.550Z</time>
      </trkpt>
      <trkpt lat="44.62117" lon="3.25646">
        <ele>1028</ele>
        <time>2019-06-02T06:46:52.538Z</time>
      </trkpt>
      <trkpt lat="44.62113" lon="3.25652">
        <ele>1028</ele>
        <time>2019-06-02T06:46:57.543Z</time>
      </trkpt>
      <trkpt lat="44.62109" lon="3.25657">
        <ele>1029</ele>
        <time>2019-06-02T06:47:02.543Z</time>
      </trkpt>
      <trkpt lat="44.62105" lon="3.25661">
        <ele>1029</ele>
        <time>2019-06-02T06:47:07.543Z</time>
      </trkpt>
      <trkpt lat="44.62101" lon="3.25666">
        <ele>1029</ele>
        <time>2019-06-02T06:47:12.543Z</time>
      </trkpt>
      <trkpt lat="44.62096" lon="3.25671">
        <ele>1026</ele>
        <time>2019-06-02T06:47:17.543Z</time>
      </trkpt>
      <trkpt lat="44.62091" lon="3.25675">
        <ele>1026</ele>
        <time>2019-06-02T06:47:22.540Z</time>
      </trkpt>
      <trkpt lat="44.62088" lon="3.25678">
        <ele>1026</ele>
        <time>2019-06-02T06:47:26.563Z</time>
      </trkpt>
      <trkpt lat="44.62082" lon="3.25683">
        <ele>1028</ele>
        <time>2019-06-02T06:47:31.547Z</time>
      </trkpt>
      <trkpt lat="44.62077" lon="3.25687">
        <ele>1028</ele>
        <time>2019-06-02T06:47:36.534Z</time>
      </trkpt>
      <trkpt lat="44.62073" lon="3.25691">
        <ele>1028</ele>
        <time>2019-06-02T06:47:40.563Z</time>
      </trkpt>
      <trkpt lat="44.62071" lon="3.25697">
        <ele>1028</ele>
        <time>2019-06-02T06:47:44.579Z</time>
      </trkpt>
      <trkpt lat="44.62068" lon="3.25703">
        <ele>1027</ele>
        <time>2019-06-02T06:47:49.536Z</time>
      </trkpt>
      <trkpt lat="44.62067" lon="3.25709">
        <ele>1027</ele>
        <time>2019-06-02T06:47:53.541Z</time>
      </trkpt>
      <trkpt lat="44.62065" lon="3.25717">
        <ele>1027</ele>
        <time>2019-06-02T06:47:58.540Z</time>
      </trkpt>
      <trkpt lat="44.62064" lon="3.25725">
        <ele>1027</ele>
        <time>2019-06-02T06:48:03.565Z</time>
      </trkpt>
      <trkpt lat="44.62064" lon="3.25734">
        <ele>1027</ele>
        <time>2019-06-02T06:48:08.572Z</time>
      </trkpt>
      <trkpt lat="44.62063" lon="3.25741">
        <ele>1027</ele>
        <time>2019-06-02T06:48:13.543Z</time>
      </trkpt>
      <trkpt lat="44.62062" lon="3.25746">
        <ele>1027</ele>
        <time>2019-06-02T06:48:17.554Z</time>
      </trkpt>
      <trkpt lat="44.62062" lon="3.25753">
        <ele>1027</ele>
        <time>2019-06-02T06:48:22.575Z</time>
      </trkpt>
      <trkpt lat="44.62061" lon="3.25759">
        <ele>1027</ele>
        <time>2019-06-02T06:48:32.539Z</time>
      </trkpt>
      <trkpt lat="44.62059" lon="3.25764">
        <ele>1027</ele>
        <time>2019-06-02T06:48:36.544Z</time>
      </trkpt>
      <trkpt lat="44.62058" lon="3.25765">
        <ele>1028</ele>
        <time>2019-06-02T06:48:41.536Z</time>
      </trkpt>
      <trkpt lat="44.62058" lon="3.25765">
        <ele>1028</ele>
        <time>2019-06-02T06:48:45.569Z</time>
      </trkpt>
      <trkpt lat="44.62057" lon="3.25773">
        <ele>1028</ele>
        <time>2019-06-02T06:48:50.541Z</time>
      </trkpt>
      <trkpt lat="44.62057" lon="3.25777">
        <ele>1028</ele>
        <time>2019-06-02T06:48:54.568Z</time>
      </trkpt>
      <trkpt lat="44.62056" lon="3.2578">
        <ele>1028</ele>
        <time>2019-06-02T06:48:59.538Z</time>
      </trkpt>
      <trkpt lat="44.62053" lon="3.25788">
        <ele>1028</ele>
        <time>2019-06-02T06:49:04.546Z</time>
      </trkpt>
      <trkpt lat="44.6205" lon="3.25795">
        <ele>1028</ele>
        <time>2019-06-02T06:49:09.541Z</time>
      </trkpt>
      <trkpt lat="44.62048" lon="3.25802">
        <ele>1028</ele>
        <time>2019-06-02T06:49:14.539Z</time>
      </trkpt>
      <trkpt lat="44.62046" lon="3.25809">
        <ele>1028</ele>
        <time>2019-06-02T06:49:19.538Z</time>
      </trkpt>
      <trkpt lat="44.62044" lon="3.25817">
        <ele>1028</ele>
        <time>2019-06-02T06:49:24.533Z</time>
      </trkpt>
      <trkpt lat="44.62042" lon="3.25825">
        <ele>1029</ele>
        <time>2019-06-02T06:49:29.543Z</time>
      </trkpt>
      <trkpt lat="44.6204" lon="3.2583">
        <ele>1024</ele>
        <time>2019-06-02T06:49:34.550Z</time>
      </trkpt>
      <trkpt lat="44.62036" lon="3.25835">
        <ele>1024</ele>
        <time>2019-06-02T06:49:39.540Z</time>
      </trkpt>
      <trkpt lat="44.62034" lon="3.25841">
        <ele>1024</ele>
        <time>2019-06-02T06:49:44.545Z</time>
      </trkpt>
      <trkpt lat="44.62033" lon="3.25846">
        <ele>1024</ele>
        <time>2019-06-02T06:49:49.573Z</time>
      </trkpt>
      <trkpt lat="44.62031" lon="3.25852">
        <ele>1024</ele>
        <time>2019-06-02T06:49:54.552Z</time>
      </trkpt>
      <trkpt lat="44.6203" lon="3.2586">
        <ele>1024</ele>
        <time>2019-06-02T06:49:59.542Z</time>
      </trkpt>
      <trkpt lat="44.62028" lon="3.25868">
        <ele>1024</ele>
        <time>2019-06-02T06:50:04.542Z</time>
      </trkpt>
      <trkpt lat="44.62026" lon="3.25874">
        <ele>1024</ele>
        <time>2019-06-02T06:50:09.574Z</time>
      </trkpt>
      <trkpt lat="44.62026" lon="3.25881">
        <ele>1023</ele>
        <time>2019-06-02T06:50:14.568Z</time>
      </trkpt>
      <trkpt lat="44.62025" lon="3.25888">
        <ele>1023</ele>
        <time>2019-06-02T06:50:19.542Z</time>
      </trkpt>
      <trkpt lat="44.62024" lon="3.25895">
        <ele>1023</ele>
        <time>2019-06-02T06:50:24.538Z</time>
      </trkpt>
      <trkpt lat="44.62024" lon="3.25902">
        <ele>1023</ele>
        <time>2019-06-02T06:50:29.538Z</time>
      </trkpt>
      <trkpt lat="44.62023" lon="3.25909">
        <ele>1022</ele>
        <time>2019-06-02T06:50:33.547Z</time>
      </trkpt>
      <trkpt lat="44.62024" lon="3.25916">
        <ele>1022</ele>
        <time>2019-06-02T06:50:38.540Z</time>
      </trkpt>
      <trkpt lat="44.62025" lon="3.25922">
        <ele>1022</ele>
        <time>2019-06-02T06:50:43.539Z</time>
      </trkpt>
      <trkpt lat="44.62026" lon="3.25929">
        <ele>1022</ele>
        <time>2019-06-02T06:50:48.539Z</time>
      </trkpt>
      <trkpt lat="44.62027" lon="3.25937">
        <ele>1021</ele>
        <time>2019-06-02T06:50:53.549Z</time>
      </trkpt>
      <trkpt lat="44.62027" lon="3.25946">
        <ele>1021</ele>
        <time>2019-06-02T06:50:58.540Z</time>
      </trkpt>
      <trkpt lat="44.62029" lon="3.25955">
        <ele>1021</ele>
        <time>2019-06-02T06:51:03.539Z</time>
      </trkpt>
      <trkpt lat="44.62031" lon="3.25964">
        <ele>1020</ele>
        <time>2019-06-02T06:51:08.547Z</time>
      </trkpt>
      <trkpt lat="44.62031" lon="3.2597">
        <ele>1020</ele>
        <time>2019-06-02T06:51:12.579Z</time>
      </trkpt>
      <trkpt lat="44.62033" lon="3.25978">
        <ele>1020</ele>
        <time>2019-06-02T06:51:17.534Z</time>
      </trkpt>
      <trkpt lat="44.62033" lon="3.25987">
        <ele>1018</ele>
        <time>2019-06-02T06:51:21.542Z</time>
      </trkpt>
      <trkpt lat="44.62033" lon="3.25996">
        <ele>1018</ele>
        <time>2019-06-02T06:51:26.534Z</time>
      </trkpt>
      <trkpt lat="44.62034" lon="3.26003">
        <ele>1018</ele>
        <time>2019-06-02T06:51:30.567Z</time>
      </trkpt>
      <trkpt lat="44.62033" lon="3.26012">
        <ele>1018</ele>
        <time>2019-06-02T06:51:35.543Z</time>
      </trkpt>
      <trkpt lat="44.62032" lon="3.26022">
        <ele>1018</ele>
        <time>2019-06-02T06:51:40.535Z</time>
      </trkpt>
      <trkpt lat="44.6203" lon="3.2603">
        <ele>1018</ele>
        <time>2019-06-02T06:51:44.539Z</time>
      </trkpt>
      <trkpt lat="44.62028" lon="3.26038">
        <ele>1018</ele>
        <time>2019-06-02T06:51:49.538Z</time>
      </trkpt>
      <trkpt lat="44.62026" lon="3.26045">
        <ele>1018</ele>
        <time>2019-06-02T06:51:53.572Z</time>
      </trkpt>
      <trkpt lat="44.62023" lon="3.26054">
        <ele>1018</ele>
        <time>2019-06-02T06:51:58.549Z</time>
      </trkpt>
      <trkpt lat="44.62017" lon="3.26061">
        <ele>1018</ele>
        <time>2019-06-02T06:52:03.540Z</time>
      </trkpt>
      <trkpt lat="44.62013" lon="3.26065">
        <ele>1016</ele>
        <time>2019-06-02T06:52:07.548Z</time>
      </trkpt>
      <trkpt lat="44.62011" lon="3.26069">
        <ele>1016</ele>
        <time>2019-06-02T06:52:12.558Z</time>
      </trkpt>
      <trkpt lat="44.62006" lon="3.26074">
        <ele>1017</ele>
        <time>2019-06-02T06:52:17.523Z</time>
      </trkpt>
      <trkpt lat="44.62001" lon="3.26079">
        <ele>1017</ele>
        <time>2019-06-02T06:52:22.548Z</time>
      </trkpt>
      <trkpt lat="44.61996" lon="3.26087">
        <ele>1017</ele>
        <time>2019-06-02T06:52:27.516Z</time>
      </trkpt>
      <trkpt lat="44.61994" lon="3.26091">
        <ele>1017</ele>
        <time>2019-06-02T06:52:31.536Z</time>
      </trkpt>
      <trkpt lat="44.61989" lon="3.26094">
        <ele>1017</ele>
        <time>2019-06-02T06:52:36.540Z</time>
      </trkpt>
      <trkpt lat="44.61984" lon="3.261">
        <ele>1018</ele>
        <time>2019-06-02T06:52:41.536Z</time>
      </trkpt>
      <trkpt lat="44.61979" lon="3.26106">
        <ele>1018</ele>
        <time>2019-06-02T06:52:46.544Z</time>
      </trkpt>
      <trkpt lat="44.61973" lon="3.26111">
        <ele>1018</ele>
        <time>2019-06-02T06:52:51.540Z</time>
      </trkpt>
      <trkpt lat="44.61969" lon="3.26117">
        <ele>1018</ele>
        <time>2019-06-02T06:52:56.546Z</time>
      </trkpt>
      <trkpt lat="44.61964" lon="3.26124">
        <ele>1018</ele>
        <time>2019-06-02T06:53:01.550Z</time>
      </trkpt>
      <trkpt lat="44.61959" lon="3.2613">
        <ele>1021</ele>
        <time>2019-06-02T06:53:06.536Z</time>
      </trkpt>
      <trkpt lat="44.61956" lon="3.26136">
        <ele>1019</ele>
        <time>2019-06-02T06:53:10.540Z</time>
      </trkpt>
      <trkpt lat="44.61952" lon="3.26143">
        <ele>1019</ele>
        <time>2019-06-02T06:53:15.538Z</time>
      </trkpt>
      <trkpt lat="44.61948" lon="3.26147">
        <ele>1019</ele>
        <time>2019-06-02T06:53:19.540Z</time>
      </trkpt>
      <trkpt lat="44.61946" lon="3.26152">
        <ele>1019</ele>
        <time>2019-06-02T06:53:23.566Z</time>
      </trkpt>
      <trkpt lat="44.61941" lon="3.26159">
        <ele>1020</ele>
        <time>2019-06-02T06:53:28.539Z</time>
      </trkpt>
      <trkpt lat="44.61937" lon="3.26164">
        <ele>1020</ele>
        <time>2019-06-02T06:53:32.539Z</time>
      </trkpt>
      <trkpt lat="44.61937" lon="3.26166">
        <ele>1020</ele>
        <time>2019-06-02T06:53:37.542Z</time>
      </trkpt>
      <trkpt lat="44.61936" lon="3.26171">
        <ele>1020</ele>
        <time>2019-06-02T06:53:42.539Z</time>
      </trkpt>
      <trkpt lat="44.61934" lon="3.26178">
        <ele>1020</ele>
        <time>2019-06-02T06:53:47.543Z</time>
      </trkpt>
      <trkpt lat="44.61932" lon="3.26185">
        <ele>1022</ele>
        <time>2019-06-02T06:53:52.542Z</time>
      </trkpt>
      <trkpt lat="44.6193" lon="3.26192">
        <ele>1017</ele>
        <time>2019-06-02T06:53:57.564Z</time>
      </trkpt>
      <trkpt lat="44.61926" lon="3.262">
        <ele>1017</ele>
        <time>2019-06-02T06:54:02.533Z</time>
      </trkpt>
      <trkpt lat="44.61925" lon="3.26206">
        <ele>1017</ele>
        <time>2019-06-02T06:54:06.568Z</time>
      </trkpt>
      <trkpt lat="44.61921" lon="3.26213">
        <ele>1019</ele>
        <time>2019-06-02T06:54:11.541Z</time>
      </trkpt>
      <trkpt lat="44.6192" lon="3.2622">
        <ele>1019</ele>
        <time>2019-06-02T06:54:16.574Z</time>
      </trkpt>
      <trkpt lat="44.61918" lon="3.26226">
        <ele>1019</ele>
        <time>2019-06-02T06:54:21.541Z</time>
      </trkpt>
      <trkpt lat="44.61914" lon="3.26232">
        <ele>1019</ele>
        <time>2019-06-02T06:54:25.566Z</time>
      </trkpt>
      <trkpt lat="44.61911" lon="3.2624">
        <ele>1021</ele>
        <time>2019-06-02T06:54:30.568Z</time>
      </trkpt>
      <trkpt lat="44.61907" lon="3.26246">
        <ele>1021</ele>
        <time>2019-06-02T06:54:35.566Z</time>
      </trkpt>
      <trkpt lat="44.61904" lon="3.26253">
        <ele>1021</ele>
        <time>2019-06-02T06:54:40.550Z</time>
      </trkpt>
      <trkpt lat="44.61901" lon="3.2626">
        <ele>1016</ele>
        <time>2019-06-02T06:54:45.542Z</time>
      </trkpt>
      <trkpt lat="44.61897" lon="3.26267">
        <ele>1017</ele>
        <time>2019-06-02T06:54:50.534Z</time>
      </trkpt>
      <trkpt lat="44.61897" lon="3.26274">
        <ele>1017</ele>
        <time>2019-06-02T06:54:55.566Z</time>
      </trkpt>
      <trkpt lat="44.61899" lon="3.26283">
        <ele>1017</ele>
        <time>2019-06-02T06:55:00.536Z</time>
      </trkpt>
      <trkpt lat="44.61903" lon="3.26292">
        <ele>1021</ele>
        <time>2019-06-02T06:55:05.538Z</time>
      </trkpt>
      <trkpt lat="44.61905" lon="3.26299">
        <ele>1021</ele>
        <time>2019-06-02T06:55:09.547Z</time>
      </trkpt>
      <trkpt lat="44.61907" lon="3.26305">
        <ele>1021</ele>
        <time>2019-06-02T06:55:13.589Z</time>
      </trkpt>
      <trkpt lat="44.61909" lon="3.26312">
        <ele>1021</ele>
        <time>2019-06-02T06:55:18.543Z</time>
      </trkpt>
      <trkpt lat="44.61912" lon="3.2632">
        <ele>1022</ele>
        <time>2019-06-02T06:55:23.538Z</time>
      </trkpt>
      <trkpt lat="44.61913" lon="3.26325">
        <ele>1022</ele>
        <time>2019-06-02T06:55:27.540Z</time>
      </trkpt>
      <trkpt lat="44.61914" lon="3.26333">
        <ele>1022</ele>
        <time>2019-06-02T06:55:32.539Z</time>
      </trkpt>
      <trkpt lat="44.61912" lon="3.2634">
        <ele>1022</ele>
        <time>2019-06-02T06:55:37.542Z</time>
      </trkpt>
      <trkpt lat="44.61909" lon="3.26345">
        <ele>1022</ele>
        <time>2019-06-02T06:55:41.540Z</time>
      </trkpt>
      <trkpt lat="44.61902" lon="3.26345">
        <ele>1020</ele>
        <time>2019-06-02T06:55:46.541Z</time>
      </trkpt>
      <trkpt lat="44.61897" lon="3.26343">
        <ele>1020</ele>
        <time>2019-06-02T06:55:51.539Z</time>
      </trkpt>
      <trkpt lat="44.61893" lon="3.2634">
        <ele>1020</ele>
        <time>2019-06-02T06:55:56.565Z</time>
      </trkpt>
      <trkpt lat="44.61892" lon="3.26339">
        <ele>1020</ele>
        <time>2019-06-02T06:56:01.535Z</time>
      </trkpt>
      <trkpt lat="44.61886" lon="3.26337">
        <ele>1020</ele>
        <time>2019-06-02T06:56:06.562Z</time>
      </trkpt>
      <trkpt lat="44.61881" lon="3.26336">
        <ele>1020</ele>
        <time>2019-06-02T06:56:11.543Z</time>
      </trkpt>
      <trkpt lat="44.61876" lon="3.26336">
        <ele>1020</ele>
        <time>2019-06-02T06:56:16.533Z</time>
      </trkpt>
      <trkpt lat="44.61871" lon="3.26336">
        <ele>1018</ele>
        <time>2019-06-02T06:56:20.566Z</time>
      </trkpt>
      <trkpt lat="44.61864" lon="3.26337">
        <ele>1018</ele>
        <time>2019-06-02T06:56:25.535Z</time>
      </trkpt>
      <trkpt lat="44.61858" lon="3.26338">
        <ele>1018</ele>
        <time>2019-06-02T06:56:30.541Z</time>
      </trkpt>
      <trkpt lat="44.61851" lon="3.26341">
        <ele>1018</ele>
        <time>2019-06-02T06:56:35.535Z</time>
      </trkpt>
      <trkpt lat="44.61845" lon="3.26344">
        <ele>1017</ele>
        <time>2019-06-02T06:56:40.543Z</time>
      </trkpt>
      <trkpt lat="44.6184" lon="3.26346">
        <ele>1017</ele>
        <time>2019-06-02T06:56:45.536Z</time>
      </trkpt>
      <trkpt lat="44.61834" lon="3.26349">
        <ele>1019</ele>
        <time>2019-06-02T06:56:50.541Z</time>
      </trkpt>
      <trkpt lat="44.61827" lon="3.26351">
        <ele>1019</ele>
        <time>2019-06-02T06:56:55.538Z</time>
      </trkpt>
      <trkpt lat="44.61823" lon="3.26353">
        <ele>1019</ele>
        <time>2019-06-02T06:56:59.544Z</time>
      </trkpt>
      <trkpt lat="44.61819" lon="3.26356">
        <ele>1017</ele>
        <time>2019-06-02T06:57:04.543Z</time>
      </trkpt>
      <trkpt lat="44.61814" lon="3.2636">
        <ele>1017</ele>
        <time>2019-06-02T06:57:08.548Z</time>
      </trkpt>
      <trkpt lat="44.61808" lon="3.26364">
        <ele>1017</ele>
        <time>2019-06-02T06:57:13.569Z</time>
      </trkpt>
      <trkpt lat="44.61803" lon="3.26367">
        <ele>1017</ele>
        <time>2019-06-02T06:57:18.540Z</time>
      </trkpt>
      <trkpt lat="44.61801" lon="3.2637">
        <ele>1017</ele>
        <time>2019-06-02T06:57:22.554Z</time>
      </trkpt>
      <trkpt lat="44.61796" lon="3.26372">
        <ele>1017</ele>
        <time>2019-06-02T06:57:27.542Z</time>
      </trkpt>
      <trkpt lat="44.61791" lon="3.26375">
        <ele>1014</ele>
        <time>2019-06-02T06:57:31.559Z</time>
      </trkpt>
      <trkpt lat="44.61785" lon="3.26379">
        <ele>1016</ele>
        <time>2019-06-02T06:57:36.565Z</time>
      </trkpt>
      <trkpt lat="44.6178" lon="3.26382">
        <ele>1016</ele>
        <time>2019-06-02T06:57:41.545Z</time>
      </trkpt>
      <trkpt lat="44.61774" lon="3.26386">
        <ele>1016</ele>
        <time>2019-06-02T06:57:46.535Z</time>
      </trkpt>
      <trkpt lat="44.6177" lon="3.26389">
        <ele>1016</ele>
        <time>2019-06-02T06:57:50.546Z</time>
      </trkpt>
      <trkpt lat="44.61764" lon="3.26393">
        <ele>1015</ele>
        <time>2019-06-02T06:57:55.533Z</time>
      </trkpt>
      <trkpt lat="44.61759" lon="3.26396">
        <ele>1015</ele>
        <time>2019-06-02T06:57:59.542Z</time>
      </trkpt>
      <trkpt lat="44.61755" lon="3.264">
        <ele>1015</ele>
        <time>2019-06-02T06:58:04.535Z</time>
      </trkpt>
      <trkpt lat="44.6175" lon="3.26402">
        <ele>1015</ele>
        <time>2019-06-02T06:58:08.554Z</time>
      </trkpt>
      <trkpt lat="44.61745" lon="3.26404">
        <ele>1018</ele>
        <time>2019-06-02T06:58:13.535Z</time>
      </trkpt>
      <trkpt lat="44.61738" lon="3.26406">
        <ele>1018</ele>
        <time>2019-06-02T06:58:18.536Z</time>
      </trkpt>
      <trkpt lat="44.61735" lon="3.26408">
        <ele>1017</ele>
        <time>2019-06-02T06:58:22.556Z</time>
      </trkpt>
      <trkpt lat="44.61731" lon="3.2641">
        <ele>1017</ele>
        <time>2019-06-02T06:58:27.547Z</time>
      </trkpt>
      <trkpt lat="44.61727" lon="3.26412">
        <ele>1017</ele>
        <time>2019-06-02T06:58:32.538Z</time>
      </trkpt>
      <trkpt lat="44.61722" lon="3.26415">
        <ele>1017</ele>
        <time>2019-06-02T06:58:37.540Z</time>
      </trkpt>
      <trkpt lat="44.61721" lon="3.26415">
        <ele>1017</ele>
        <time>2019-06-02T06:58:42.537Z</time>
      </trkpt>
      <trkpt lat="44.61717" lon="3.26418">
        <ele>1017</ele>
        <time>2019-06-02T06:58:52.537Z</time>
      </trkpt>
      <trkpt lat="44.61714" lon="3.2642">
        <ele>1017</ele>
        <time>2019-06-02T06:58:57.532Z</time>
      </trkpt>
      <trkpt lat="44.61702" lon="3.26428">
        <ele>1015</ele>
        <time>2019-06-02T06:59:02.538Z</time>
      </trkpt>
      <trkpt lat="44.61694" lon="3.26434">
        <ele>1018</ele>
        <time>2019-06-02T06:59:07.544Z</time>
      </trkpt>
      <trkpt lat="44.61688" lon="3.26437">
        <ele>1018</ele>
        <time>2019-06-02T06:59:11.574Z</time>
      </trkpt>
      <trkpt lat="44.61681" lon="3.26441">
        <ele>1018</ele>
        <time>2019-06-02T06:59:16.544Z</time>
      </trkpt>
      <trkpt lat="44.61674" lon="3.26446">
        <ele>1016</ele>
        <time>2019-06-02T06:59:21.544Z</time>
      </trkpt>
      <trkpt lat="44.61668" lon="3.2645">
        <ele>1016</ele>
        <time>2019-06-02T06:59:26.534Z</time>
      </trkpt>
      <trkpt lat="44.61664" lon="3.26453">
        <ele>1016</ele>
        <time>2019-06-02T06:59:31.534Z</time>
      </trkpt>
      <trkpt lat="44.6166" lon="3.26455">
        <ele>1016</ele>
        <time>2019-06-02T06:59:35.546Z</time>
      </trkpt>
      <trkpt lat="44.61653" lon="3.2646">
        <ele>1020</ele>
        <time>2019-06-02T06:59:40.535Z</time>
      </trkpt>
      <trkpt lat="44.61646" lon="3.26462">
        <ele>1017</ele>
        <time>2019-06-02T06:59:44.545Z</time>
      </trkpt>
      <trkpt lat="44.6164" lon="3.26465">
        <ele>1017</ele>
        <time>2019-06-02T06:59:49.568Z</time>
      </trkpt>
      <trkpt lat="44.61635" lon="3.26469">
        <ele>1017</ele>
        <time>2019-06-02T06:59:54.536Z</time>
      </trkpt>
      <trkpt lat="44.61632" lon="3.26471">
        <ele>1017</ele>
        <time>2019-06-02T06:59:58.543Z</time>
      </trkpt>
      <trkpt lat="44.61627" lon="3.26475">
        <ele>1017</ele>
        <time>2019-06-02T07:00:02.566Z</time>
      </trkpt>
      <trkpt lat="44.61622" lon="3.26477">
        <ele>1016</ele>
        <time>2019-06-02T07:00:07.536Z</time>
      </trkpt>
      <trkpt lat="44.61619" lon="3.26478">
        <ele>1016</ele>
        <time>2019-06-02T07:00:11.553Z</time>
      </trkpt>
      <trkpt lat="44.61613" lon="3.2648">
        <ele>1016</ele>
        <time>2019-06-02T07:00:16.565Z</time>
      </trkpt>
      <trkpt lat="44.61608" lon="3.26482">
        <ele>1016</ele>
        <time>2019-06-02T07:00:20.578Z</time>
      </trkpt>
      <trkpt lat="44.61604" lon="3.26484">
        <ele>1016</ele>
        <time>2019-06-02T07:00:25.543Z</time>
      </trkpt>
      <trkpt lat="44.61601" lon="3.26485">
        <ele>1016</ele>
        <time>2019-06-02T07:00:29.571Z</time>
      </trkpt>
      <trkpt lat="44.61596" lon="3.26489">
        <ele>1018</ele>
        <time>2019-06-02T07:00:34.554Z</time>
      </trkpt>
      <trkpt lat="44.61593" lon="3.2649">
        <ele>1018</ele>
        <time>2019-06-02T07:00:38.567Z</time>
      </trkpt>
      <trkpt lat="44.61587" lon="3.26493">
        <ele>1018</ele>
        <time>2019-06-02T07:00:43.540Z</time>
      </trkpt>
      <trkpt lat="44.61583" lon="3.26496">
        <ele>1018</ele>
        <time>2019-06-02T07:00:48.543Z</time>
      </trkpt>
      <trkpt lat="44.61578" lon="3.265">
        <ele>1018</ele>
        <time>2019-06-02T07:00:53.533Z</time>
      </trkpt>
      <trkpt lat="44.61574" lon="3.26501">
        <ele>1018</ele>
        <time>2019-06-02T07:00:57.537Z</time>
      </trkpt>
      <trkpt lat="44.61571" lon="3.26503">
        <ele>1018</ele>
        <time>2019-06-02T07:01:01.566Z</time>
      </trkpt>
      <trkpt lat="44.61565" lon="3.26507">
        <ele>1017</ele>
        <time>2019-06-02T07:01:06.540Z</time>
      </trkpt>
      <trkpt lat="44.6156" lon="3.26511">
        <ele>1017</ele>
        <time>2019-06-02T07:01:10.557Z</time>
      </trkpt>
      <trkpt lat="44.61556" lon="3.26516">
        <ele>1020</ele>
        <time>2019-06-02T07:01:15.534Z</time>
      </trkpt>
      <trkpt lat="44.6155" lon="3.26521">
        <ele>1020</ele>
        <time>2019-06-02T07:01:20.521Z</time>
      </trkpt>
      <trkpt lat="44.61547" lon="3.26525">
        <ele>1020</ele>
        <time>2019-06-02T07:01:24.539Z</time>
      </trkpt>
      <trkpt lat="44.61543" lon="3.26528">
        <ele>1020</ele>
        <time>2019-06-02T07:01:28.548Z</time>
      </trkpt>
      <trkpt lat="44.6154" lon="3.26532">
        <ele>1019</ele>
        <time>2019-06-02T07:01:33.534Z</time>
      </trkpt>
      <trkpt lat="44.61536" lon="3.26536">
        <ele>1019</ele>
        <time>2019-06-02T07:01:38.542Z</time>
      </trkpt>
      <trkpt lat="44.61533" lon="3.26538">
        <ele>1019</ele>
        <time>2019-06-02T07:01:43.576Z</time>
      </trkpt>
      <trkpt lat="44.61531" lon="3.2654">
        <ele>1019</ele>
        <time>2019-06-02T07:01:48.539Z</time>
      </trkpt>
      <trkpt lat="44.61526" lon="3.26543">
        <ele>1022</ele>
        <time>2019-06-02T07:01:52.539Z</time>
      </trkpt>
      <trkpt lat="44.61521" lon="3.26549">
        <ele>1022</ele>
        <time>2019-06-02T07:01:57.537Z</time>
      </trkpt>
      <trkpt lat="44.61517" lon="3.26553">
        <ele>1022</ele>
        <time>2019-06-02T07:02:01.549Z</time>
      </trkpt>
      <trkpt lat="44.61513" lon="3.26557">
        <ele>1022</ele>
        <time>2019-06-02T07:02:06.540Z</time>
      </trkpt>
      <trkpt lat="44.61507" lon="3.26561">
        <ele>1022</ele>
        <time>2019-06-02T07:02:11.538Z</time>
      </trkpt>
      <trkpt lat="44.61504" lon="3.26564">
        <ele>1022</ele>
        <time>2019-06-02T07:02:15.562Z</time>
      </trkpt>
      <trkpt lat="44.61498" lon="3.26568">
        <ele>1022</ele>
        <time>2019-06-02T07:02:20.543Z</time>
      </trkpt>
      <trkpt lat="44.61494" lon="3.26573">
        <ele>1023</ele>
        <time>2019-06-02T07:02:25.544Z</time>
      </trkpt>
      <trkpt lat="44.6149" lon="3.26577">
        <ele>1023</ele>
        <time>2019-06-02T07:02:30.539Z</time>
      </trkpt>
      <trkpt lat="44.61486" lon="3.26582">
        <ele>1023</ele>
        <time>2019-06-02T07:02:35.539Z</time>
      </trkpt>
      <trkpt lat="44.61483" lon="3.26586">
        <ele>1021</ele>
        <time>2019-06-02T07:02:39.548Z</time>
      </trkpt>
      <trkpt lat="44.61479" lon="3.26591">
        <ele>1021</ele>
        <time>2019-06-02T07:02:44.545Z</time>
      </trkpt>
      <trkpt lat="44.61478" lon="3.26594">
        <ele>1021</ele>
        <time>2019-06-02T07:02:48.545Z</time>
      </trkpt>
      <trkpt lat="44.61473" lon="3.26602">
        <ele>1021</ele>
        <time>2019-06-02T07:02:53.553Z</time>
      </trkpt>
      <trkpt lat="44.61467" lon="3.26608">
        <ele>1021</ele>
        <time>2019-06-02T07:02:58.563Z</time>
      </trkpt>
      <trkpt lat="44.61462" lon="3.26614">
        <ele>1021</ele>
        <time>2019-06-02T07:03:03.551Z</time>
      </trkpt>
      <trkpt lat="44.61458" lon="3.26619">
        <ele>1018</ele>
        <time>2019-06-02T07:03:08.543Z</time>
      </trkpt>
      <trkpt lat="44.61453" lon="3.26624">
        <ele>1018</ele>
        <time>2019-06-02T07:03:13.532Z</time>
      </trkpt>
      <trkpt lat="44.61448" lon="3.2663">
        <ele>1019</ele>
        <time>2019-06-02T07:03:18.539Z</time>
      </trkpt>
      <trkpt lat="44.61444" lon="3.26636">
        <ele>1019</ele>
        <time>2019-06-02T07:03:23.539Z</time>
      </trkpt>
      <trkpt lat="44.61442" lon="3.2664">
        <ele>1019</ele>
        <time>2019-06-02T07:03:27.574Z</time>
      </trkpt>
      <trkpt lat="44.61437" lon="3.26646">
        <ele>1019</ele>
        <time>2019-06-02T07:03:32.541Z</time>
      </trkpt>
      <trkpt lat="44.61433" lon="3.2665">
        <ele>1019</ele>
        <time>2019-06-02T07:03:37.539Z</time>
      </trkpt>
      <trkpt lat="44.61429" lon="3.26655">
        <ele>1018</ele>
        <time>2019-06-02T07:03:42.544Z</time>
      </trkpt>
      <trkpt lat="44.61425" lon="3.2666">
        <ele>1018</ele>
        <time>2019-06-02T07:03:47.540Z</time>
      </trkpt>
      <trkpt lat="44.61422" lon="3.26664">
        <ele>1018</ele>
        <time>2019-06-02T07:03:51.540Z</time>
      </trkpt>
      <trkpt lat="44.61418" lon="3.2667">
        <ele>1018</ele>
        <time>2019-06-02T07:03:56.544Z</time>
      </trkpt>
      <trkpt lat="44.61415" lon="3.26676">
        <ele>1018</ele>
        <time>2019-06-02T07:04:01.541Z</time>
      </trkpt>
      <trkpt lat="44.61412" lon="3.26682">
        <ele>1019</ele>
        <time>2019-06-02T07:04:06.538Z</time>
      </trkpt>
      <trkpt lat="44.6141" lon="3.26687">
        <ele>1019</ele>
        <time>2019-06-02T07:04:10.542Z</time>
      </trkpt>
      <trkpt lat="44.61406" lon="3.26692">
        <ele>1019</ele>
        <time>2019-06-02T07:04:15.538Z</time>
      </trkpt>
      <trkpt lat="44.61404" lon="3.26698">
        <ele>1019</ele>
        <time>2019-06-02T07:04:20.533Z</time>
      </trkpt>
      <trkpt lat="44.61401" lon="3.26703">
        <ele>1018</ele>
        <time>2019-06-02T07:04:25.542Z</time>
      </trkpt>
      <trkpt lat="44.61398" lon="3.26709">
        <ele>1019</ele>
        <time>2019-06-02T07:04:30.557Z</time>
      </trkpt>
      <trkpt lat="44.61397" lon="3.2671">
        <ele>1019</ele>
        <time>2019-06-02T07:04:35.533Z</time>
      </trkpt>
      <trkpt lat="44.61395" lon="3.26716">
        <ele>1019</ele>
        <time>2019-06-02T07:04:39.544Z</time>
      </trkpt>
      <trkpt lat="44.61391" lon="3.26724">
        <ele>1019</ele>
        <time>2019-06-02T07:04:43.566Z</time>
      </trkpt>
      <trkpt lat="44.61385" lon="3.26731">
        <ele>1019</ele>
        <time>2019-06-02T07:04:48.535Z</time>
      </trkpt>
      <trkpt lat="44.61382" lon="3.26738">
        <ele>1020</ele>
        <time>2019-06-02T07:04:52.546Z</time>
      </trkpt>
      <trkpt lat="44.61377" lon="3.26745">
        <ele>1020</ele>
        <time>2019-06-02T07:04:57.547Z</time>
      </trkpt>
      <trkpt lat="44.61373" lon="3.26751">
        <ele>1019</ele>
        <time>2019-06-02T07:05:02.538Z</time>
      </trkpt>
      <trkpt lat="44.61369" lon="3.26756">
        <ele>1019</ele>
        <time>2019-06-02T07:05:07.541Z</time>
      </trkpt>
      <trkpt lat="44.61367" lon="3.26761">
        <ele>1019</ele>
        <time>2019-06-02T07:05:11.544Z</time>
      </trkpt>
      <trkpt lat="44.61365" lon="3.26766">
        <ele>1021</ele>
        <time>2019-06-02T07:05:16.518Z</time>
      </trkpt>
      <trkpt lat="44.61364" lon="3.2677">
        <ele>1021</ele>
        <time>2019-06-02T07:05:20.541Z</time>
      </trkpt>
      <trkpt lat="44.61362" lon="3.26774">
        <ele>1021</ele>
        <time>2019-06-02T07:05:25.547Z</time>
      </trkpt>
      <trkpt lat="44.6136" lon="3.26778">
        <ele>1021</ele>
        <time>2019-06-02T07:05:30.544Z</time>
      </trkpt>
      <trkpt lat="44.61358" lon="3.26782">
        <ele>1021</ele>
        <time>2019-06-02T07:05:34.568Z</time>
      </trkpt>
      <trkpt lat="44.61355" lon="3.26788">
        <ele>1021</ele>
        <time>2019-06-02T07:05:39.533Z</time>
      </trkpt>
      <trkpt lat="44.61351" lon="3.26793">
        <ele>1020</ele>
        <time>2019-06-02T07:05:43.539Z</time>
      </trkpt>
      <trkpt lat="44.61346" lon="3.268">
        <ele>1020</ele>
        <time>2019-06-02T07:05:48.543Z</time>
      </trkpt>
      <trkpt lat="44.61341" lon="3.26807">
        <ele>1020</ele>
        <time>2019-06-02T07:05:53.533Z</time>
      </trkpt>
      <trkpt lat="44.61334" lon="3.26815">
        <ele>1020</ele>
        <time>2019-06-02T07:05:58.541Z</time>
      </trkpt>
      <trkpt lat="44.61331" lon="3.26821">
        <ele>1019</ele>
        <time>2019-06-02T07:06:02.546Z</time>
      </trkpt>
      <trkpt lat="44.61327" lon="3.26828">
        <ele>1019</ele>
        <time>2019-06-02T07:06:07.544Z</time>
      </trkpt>
      <trkpt lat="44.61323" lon="3.26833">
        <ele>1019</ele>
        <time>2019-06-02T07:06:12.541Z</time>
      </trkpt>
      <trkpt lat="44.61321" lon="3.26837">
        <ele>1019</ele>
        <time>2019-06-02T07:06:16.550Z</time>
      </trkpt>
      <trkpt lat="44.61318" lon="3.26843">
        <ele>1018</ele>
        <time>2019-06-02T07:06:21.538Z</time>
      </trkpt>
      <trkpt lat="44.61313" lon="3.26849">
        <ele>1018</ele>
        <time>2019-06-02T07:06:26.548Z</time>
      </trkpt>
      <trkpt lat="44.61311" lon="3.26855">
        <ele>1018</ele>
        <time>2019-06-02T07:06:31.541Z</time>
      </trkpt>
      <trkpt lat="44.61308" lon="3.26861">
        <ele>1018</ele>
        <time>2019-06-02T07:06:36.537Z</time>
      </trkpt>
      <trkpt lat="44.61304" lon="3.26866">
        <ele>1018</ele>
        <time>2019-06-02T07:06:41.543Z</time>
      </trkpt>
      <trkpt lat="44.61302" lon="3.26869">
        <ele>1018</ele>
        <time>2019-06-02T07:06:46.540Z</time>
      </trkpt>
      <trkpt lat="44.61298" lon="3.26874">
        <ele>1018</ele>
        <time>2019-06-02T07:06:51.541Z</time>
      </trkpt>
      <trkpt lat="44.61295" lon="3.26879">
        <ele>1016</ele>
        <time>2019-06-02T07:06:56.543Z</time>
      </trkpt>
      <trkpt lat="44.61293" lon="3.26885">
        <ele>1016</ele>
        <time>2019-06-02T07:07:01.545Z</time>
      </trkpt>
      <trkpt lat="44.6129" lon="3.26889">
        <ele>1016</ele>
        <time>2019-06-02T07:07:05.543Z</time>
      </trkpt>
      <trkpt lat="44.61286" lon="3.26895">
        <ele>1016</ele>
        <time>2019-06-02T07:07:10.539Z</time>
      </trkpt>
      <trkpt lat="44.61281" lon="3.26902">
        <ele>1016</ele>
        <time>2019-06-02T07:07:15.535Z</time>
      </trkpt>
      <trkpt lat="44.61278" lon="3.26907">
        <ele>1016</ele>
        <time>2019-06-02T07:07:19.563Z</time>
      </trkpt>
      <trkpt lat="44.61273" lon="3.26914">
        <ele>1016</ele>
        <time>2019-06-02T07:07:24.547Z</time>
      </trkpt>
      <trkpt lat="44.61267" lon="3.26923">
        <ele>1016</ele>
        <time>2019-06-02T07:07:29.542Z</time>
      </trkpt>
      <trkpt lat="44.61263" lon="3.26931">
        <ele>1013</ele>
        <time>2019-06-02T07:07:34.546Z</time>
      </trkpt>
      <trkpt lat="44.6126" lon="3.26935">
        <ele>1013</ele>
        <time>2019-06-02T07:07:38.565Z</time>
      </trkpt>
      <trkpt lat="44.61255" lon="3.26941">
        <ele>1013</ele>
        <time>2019-06-02T07:07:43.565Z</time>
      </trkpt>
      <trkpt lat="44.6125" lon="3.26948">
        <ele>1013</ele>
        <time>2019-06-02T07:07:48.536Z</time>
      </trkpt>
      <trkpt lat="44.61247" lon="3.26954">
        <ele>1013</ele>
        <time>2019-06-02T07:07:52.545Z</time>
      </trkpt>
      <trkpt lat="44.61245" lon="3.26959">
        <ele>1013</ele>
        <time>2019-06-02T07:07:56.588Z</time>
      </trkpt>
      <trkpt lat="44.61243" lon="3.26967">
        <ele>1013</ele>
        <time>2019-06-02T07:08:01.539Z</time>
      </trkpt>
      <trkpt lat="44.6124" lon="3.26976">
        <ele>1013</ele>
        <time>2019-06-02T07:08:06.546Z</time>
      </trkpt>
      <trkpt lat="44.61237" lon="3.26986">
        <ele>1013</ele>
        <time>2019-06-02T07:08:11.541Z</time>
      </trkpt>
      <trkpt lat="44.61234" lon="3.26994">
        <ele>1010</ele>
        <time>2019-06-02T07:08:16.537Z</time>
      </trkpt>
      <trkpt lat="44.61232" lon="3.27">
        <ele>1010</ele>
        <time>2019-06-02T07:08:20.562Z</time>
      </trkpt>
      <trkpt lat="44.61229" lon="3.27006">
        <ele>1010</ele>
        <time>2019-06-02T07:08:25.543Z</time>
      </trkpt>
      <trkpt lat="44.61229" lon="3.2701">
        <ele>1010</ele>
        <time>2019-06-02T07:08:30.538Z</time>
      </trkpt>
      <trkpt lat="44.61228" lon="3.27013">
        <ele>1010</ele>
        <time>2019-06-02T07:09:13.531Z</time>
      </trkpt>
      <trkpt lat="44.61229" lon="3.27017">
        <ele>1009</ele>
        <time>2019-06-02T07:09:18.520Z</time>
      </trkpt>
      <trkpt lat="44.61231" lon="3.27016">
        <ele>1009</ele>
        <time>2019-06-02T07:09:22.530Z</time>
      </trkpt>
      <trkpt lat="44.61229" lon="3.27019">
        <ele>1009</ele>
        <time>2019-06-02T07:09:26.563Z</time>
      </trkpt>
      <trkpt lat="44.61225" lon="3.27025">
        <ele>1009</ele>
        <time>2019-06-02T07:09:31.555Z</time>
      </trkpt>
      <trkpt lat="44.61224" lon="3.2703">
        <ele>1009</ele>
        <time>2019-06-02T07:09:36.525Z</time>
      </trkpt>
      <trkpt lat="44.61222" lon="3.27034">
        <ele>1009</ele>
        <time>2019-06-02T07:09:41.538Z</time>
      </trkpt>
      <trkpt lat="44.61219" lon="3.27039">
        <ele>1009</ele>
        <time>2019-06-02T07:09:46.541Z</time>
      </trkpt>
      <trkpt lat="44.61214" lon="3.27045">
        <ele>1009</ele>
        <time>2019-06-02T07:09:51.541Z</time>
      </trkpt>
      <trkpt lat="44.61209" lon="3.27049">
        <ele>1009</ele>
        <time>2019-06-02T07:09:56.553Z</time>
      </trkpt>
      <trkpt lat="44.61203" lon="3.27055">
        <ele>1011</ele>
        <time>2019-06-02T07:10:01.548Z</time>
      </trkpt>
      <trkpt lat="44.612" lon="3.2706">
        <ele>1011</ele>
        <time>2019-06-02T07:10:06.542Z</time>
      </trkpt>
      <trkpt lat="44.61195" lon="3.27064">
        <ele>1011</ele>
        <time>2019-06-02T07:10:11.535Z</time>
      </trkpt>
      <trkpt lat="44.61191" lon="3.27069">
        <ele>1011</ele>
        <time>2019-06-02T07:10:15.553Z</time>
      </trkpt>
      <trkpt lat="44.61188" lon="3.27073">
        <ele>1011</ele>
        <time>2019-06-02T07:10:19.572Z</time>
      </trkpt>
      <trkpt lat="44.61184" lon="3.27078">
        <ele>1011</ele>
        <time>2019-06-02T07:10:24.542Z</time>
      </trkpt>
      <trkpt lat="44.6118" lon="3.27083">
        <ele>1011</ele>
        <time>2019-06-02T07:10:29.559Z</time>
      </trkpt>
      <trkpt lat="44.61175" lon="3.27089">
        <ele>1011</ele>
        <time>2019-06-02T07:10:34.541Z</time>
      </trkpt>
      <trkpt lat="44.61171" lon="3.27094">
        <ele>1011</ele>
        <time>2019-06-02T07:10:39.550Z</time>
      </trkpt>
      <trkpt lat="44.61166" lon="3.271">
        <ele>1013</ele>
        <time>2019-06-02T07:10:44.540Z</time>
      </trkpt>
      <trkpt lat="44.61163" lon="3.27104">
        <ele>1013</ele>
        <time>2019-06-02T07:10:48.571Z</time>
      </trkpt>
      <trkpt lat="44.6116" lon="3.27109">
        <ele>1013</ele>
        <time>2019-06-02T07:10:53.540Z</time>
      </trkpt>
      <trkpt lat="44.61155" lon="3.27115">
        <ele>1013</ele>
        <time>2019-06-02T07:10:58.540Z</time>
      </trkpt>
      <trkpt lat="44.61152" lon="3.27119">
        <ele>1014</ele>
        <time>2019-06-02T07:11:03.542Z</time>
      </trkpt>
      <trkpt lat="44.61151" lon="3.2712">
        <ele>1014</ele>
        <time>2019-06-02T07:11:08.535Z</time>
      </trkpt>
      <trkpt lat="44.61148" lon="3.27122">
        <ele>1014</ele>
        <time>2019-06-02T07:11:12.548Z</time>
      </trkpt>
      <trkpt lat="44.61144" lon="3.27125">
        <ele>1014</ele>
        <time>2019-06-02T07:11:17.518Z</time>
      </trkpt>
      <trkpt lat="44.6114" lon="3.27125">
        <ele>1014</ele>
        <time>2019-06-02T07:11:21.540Z</time>
      </trkpt>
      <trkpt lat="44.61136" lon="3.27124">
        <ele>1014</ele>
        <time>2019-06-02T07:11:26.535Z</time>
      </trkpt>
      <trkpt lat="44.6113" lon="3.27123">
        <ele>1014</ele>
        <time>2019-06-02T07:11:31.544Z</time>
      </trkpt>
      <trkpt lat="44.61125" lon="3.27123">
        <ele>1014</ele>
        <time>2019-06-02T07:11:36.537Z</time>
      </trkpt>
      <trkpt lat="44.61118" lon="3.27122">
        <ele>1015</ele>
        <time>2019-06-02T07:11:41.569Z</time>
      </trkpt>
      <trkpt lat="44.61112" lon="3.27123">
        <ele>1015</ele>
        <time>2019-06-02T07:11:46.538Z</time>
      </trkpt>
      <trkpt lat="44.61107" lon="3.27124">
        <ele>1015</ele>
        <time>2019-06-02T07:11:51.540Z</time>
      </trkpt>
      <trkpt lat="44.61102" lon="3.27126">
        <ele>1017</ele>
        <time>2019-06-02T07:11:56.543Z</time>
      </trkpt>
      <trkpt lat="44.61097" lon="3.27127">
        <ele>1017</ele>
        <time>2019-06-02T07:12:01.540Z</time>
      </trkpt>
      <trkpt lat="44.61095" lon="3.27128">
        <ele>1017</ele>
        <time>2019-06-02T07:12:05.561Z</time>
      </trkpt>
      <trkpt lat="44.6109" lon="3.2713">
        <ele>1017</ele>
        <time>2019-06-02T07:12:10.534Z</time>
      </trkpt>
      <trkpt lat="44.61084" lon="3.27132">
        <ele>1017</ele>
        <time>2019-06-02T07:12:15.535Z</time>
      </trkpt>
      <trkpt lat="44.61078" lon="3.27135">
        <ele>1017</ele>
        <time>2019-06-02T07:12:20.539Z</time>
      </trkpt>
      <trkpt lat="44.61073" lon="3.27138">
        <ele>1017</ele>
        <time>2019-06-02T07:12:25.547Z</time>
      </trkpt>
      <trkpt lat="44.61071" lon="3.2714">
        <ele>1017</ele>
        <time>2019-06-02T07:12:29.543Z</time>
      </trkpt>
      <trkpt lat="44.6107" lon="3.2714">
        <ele>1017</ele>
        <time>2019-06-02T07:12:38.537Z</time>
      </trkpt>
      <trkpt lat="44.61066" lon="3.27143">
        <ele>1016</ele>
        <time>2019-06-02T07:12:42.544Z</time>
      </trkpt>
      <trkpt lat="44.61061" lon="3.27144">
        <ele>1016</ele>
        <time>2019-06-02T07:12:47.542Z</time>
      </trkpt>
      <trkpt lat="44.61054" lon="3.27148">
        <ele>1016</ele>
        <time>2019-06-02T07:12:52.543Z</time>
      </trkpt>
      <trkpt lat="44.61049" lon="3.27152">
        <ele>1016</ele>
        <time>2019-06-02T07:12:57.538Z</time>
      </trkpt>
      <trkpt lat="44.61045" lon="3.27154">
        <ele>1018</ele>
        <time>2019-06-02T07:13:01.541Z</time>
      </trkpt>
      <trkpt lat="44.61041" lon="3.27158">
        <ele>1017</ele>
        <time>2019-06-02T07:13:06.571Z</time>
      </trkpt>
      <trkpt lat="44.61038" lon="3.27162">
        <ele>1017</ele>
        <time>2019-06-02T07:13:11.566Z</time>
      </trkpt>
      <trkpt lat="44.61035" lon="3.27166">
        <ele>1017</ele>
        <time>2019-06-02T07:13:16.536Z</time>
      </trkpt>
      <trkpt lat="44.6103" lon="3.2717">
        <ele>1017</ele>
        <time>2019-06-02T07:13:21.541Z</time>
      </trkpt>
      <trkpt lat="44.61026" lon="3.27175">
        <ele>1017</ele>
        <time>2019-06-02T07:13:26.533Z</time>
      </trkpt>
      <trkpt lat="44.61023" lon="3.2718">
        <ele>1017</ele>
        <time>2019-06-02T07:13:31.538Z</time>
      </trkpt>
      <trkpt lat="44.6102" lon="3.27183">
        <ele>1019</ele>
        <time>2019-06-02T07:13:36.538Z</time>
      </trkpt>
      <trkpt lat="44.61015" lon="3.27188">
        <ele>1019</ele>
        <time>2019-06-02T07:13:40.574Z</time>
      </trkpt>
      <trkpt lat="44.6101" lon="3.27195">
        <ele>1016</ele>
        <time>2019-06-02T07:13:45.539Z</time>
      </trkpt>
      <trkpt lat="44.61005" lon="3.27203">
        <ele>1016</ele>
        <time>2019-06-02T07:13:50.540Z</time>
      </trkpt>
      <trkpt lat="44.61002" lon="3.27207">
        <ele>1016</ele>
        <time>2019-06-02T07:13:54.568Z</time>
      </trkpt>
      <trkpt lat="44.60999" lon="3.27213">
        <ele>1018</ele>
        <time>2019-06-02T07:13:59.539Z</time>
      </trkpt>
      <trkpt lat="44.60997" lon="3.27221">
        <ele>1018</ele>
        <time>2019-06-02T07:14:04.573Z</time>
      </trkpt>
      <trkpt lat="44.60994" lon="3.27229">
        <ele>1018</ele>
        <time>2019-06-02T07:14:09.551Z</time>
      </trkpt>
      <trkpt lat="44.60991" lon="3.27237">
        <ele>1021</ele>
        <time>2019-06-02T07:14:14.536Z</time>
      </trkpt>
      <trkpt lat="44.60988" lon="3.27243">
        <ele>1021</ele>
        <time>2019-06-02T07:14:18.542Z</time>
      </trkpt>
      <trkpt lat="44.60986" lon="3.27251">
        <ele>1018</ele>
        <time>2019-06-02T07:14:23.541Z</time>
      </trkpt>
      <trkpt lat="44.60983" lon="3.27257">
        <ele>1018</ele>
        <time>2019-06-02T07:14:28.544Z</time>
      </trkpt>
      <trkpt lat="44.60981" lon="3.27265">
        <ele>1019</ele>
        <time>2019-06-02T07:14:33.572Z</time>
      </trkpt>
      <trkpt lat="44.6098" lon="3.27274">
        <ele>1019</ele>
        <time>2019-06-02T07:14:38.555Z</time>
      </trkpt>
      <trkpt lat="44.60979" lon="3.27281">
        <ele>1019</ele>
        <time>2019-06-02T07:14:43.541Z</time>
      </trkpt>
      <trkpt lat="44.60977" lon="3.27289">
        <ele>1019</ele>
        <time>2019-06-02T07:14:48.541Z</time>
      </trkpt>
      <trkpt lat="44.60977" lon="3.27297">
        <ele>1020</ele>
        <time>2019-06-02T07:14:53.541Z</time>
      </trkpt>
      <trkpt lat="44.60975" lon="3.27306">
        <ele>1020</ele>
        <time>2019-06-02T07:14:58.529Z</time>
      </trkpt>
      <trkpt lat="44.60973" lon="3.27314">
        <ele>1020</ele>
        <time>2019-06-02T07:15:03.564Z</time>
      </trkpt>
      <trkpt lat="44.60971" lon="3.27321">
        <ele>1021</ele>
        <time>2019-06-02T07:15:08.517Z</time>
      </trkpt>
      <trkpt lat="44.60969" lon="3.27327">
        <ele>1021</ele>
        <time>2019-06-02T07:15:12.553Z</time>
      </trkpt>
      <trkpt lat="44.60967" lon="3.27335">
        <ele>1021</ele>
        <time>2019-06-02T07:15:17.558Z</time>
      </trkpt>
      <trkpt lat="44.60965" lon="3.27343">
        <ele>1021</ele>
        <time>2019-06-02T07:15:22.535Z</time>
      </trkpt>
      <trkpt lat="44.60963" lon="3.27349">
        <ele>1024</ele>
        <time>2019-06-02T07:15:26.568Z</time>
      </trkpt>
      <trkpt lat="44.60962" lon="3.27358">
        <ele>1024</ele>
        <time>2019-06-02T07:15:31.542Z</time>
      </trkpt>
      <trkpt lat="44.6096" lon="3.27365">
        <ele>1024</ele>
        <time>2019-06-02T07:15:36.538Z</time>
      </trkpt>
      <trkpt lat="44.60957" lon="3.27373">
        <ele>1018</ele>
        <time>2019-06-02T07:15:41.535Z</time>
      </trkpt>
      <trkpt lat="44.60956" lon="3.2738">
        <ele>1019</ele>
        <time>2019-06-02T07:15:46.567Z</time>
      </trkpt>
      <trkpt lat="44.60955" lon="3.27388">
        <ele>1019</ele>
        <time>2019-06-02T07:15:51.566Z</time>
      </trkpt>
      <trkpt lat="44.60953" lon="3.27397">
        <ele>1019</ele>
        <time>2019-06-02T07:15:56.536Z</time>
      </trkpt>
      <trkpt lat="44.60951" lon="3.27403">
        <ele>1020</ele>
        <time>2019-06-02T07:16:00.564Z</time>
      </trkpt>
      <trkpt lat="44.60949" lon="3.27411">
        <ele>1020</ele>
        <time>2019-06-02T07:16:05.540Z</time>
      </trkpt>
      <trkpt lat="44.60946" lon="3.27418">
        <ele>1020</ele>
        <time>2019-06-02T07:16:10.539Z</time>
      </trkpt>
      <trkpt lat="44.60944" lon="3.27424">
        <ele>1020</ele>
        <time>2019-06-02T07:16:14.552Z</time>
      </trkpt>
      <trkpt lat="44.6094" lon="3.27432">
        <ele>1023</ele>
        <time>2019-06-02T07:16:19.544Z</time>
      </trkpt>
      <trkpt lat="44.60939" lon="3.27437">
        <ele>1023</ele>
        <time>2019-06-02T07:16:24.545Z</time>
      </trkpt>
      <trkpt lat="44.60936" lon="3.27443">
        <ele>1023</ele>
        <time>2019-06-02T07:16:28.552Z</time>
      </trkpt>
      <trkpt lat="44.60932" lon="3.2745">
        <ele>1023</ele>
        <time>2019-06-02T07:16:33.543Z</time>
      </trkpt>
      <trkpt lat="44.60927" lon="3.27458">
        <ele>1019</ele>
        <time>2019-06-02T07:16:38.531Z</time>
      </trkpt>
      <trkpt lat="44.60924" lon="3.27464">
        <ele>1022</ele>
        <time>2019-06-02T07:16:42.550Z</time>
      </trkpt>
      <trkpt lat="44.6092" lon="3.2747">
        <ele>1022</ele>
        <time>2019-06-02T07:16:47.534Z</time>
      </trkpt>
      <trkpt lat="44.60917" lon="3.27475">
        <ele>1022</ele>
        <time>2019-06-02T07:16:51.543Z</time>
      </trkpt>
      <trkpt lat="44.60913" lon="3.2748">
        <ele>1022</ele>
        <time>2019-06-02T07:16:56.550Z</time>
      </trkpt>
      <trkpt lat="44.6091" lon="3.27485">
        <ele>1022</ele>
        <time>2019-06-02T07:17:00.568Z</time>
      </trkpt>
      <trkpt lat="44.60908" lon="3.2749">
        <ele>1025</ele>
        <time>2019-06-02T07:17:05.542Z</time>
      </trkpt>
      <trkpt lat="44.60906" lon="3.27493">
        <ele>1025</ele>
        <time>2019-06-02T07:17:09.573Z</time>
      </trkpt>
      <trkpt lat="44.60903" lon="3.27499">
        <ele>1022</ele>
        <time>2019-06-02T07:17:14.543Z</time>
      </trkpt>
      <trkpt lat="44.609" lon="3.27503">
        <ele>1022</ele>
        <time>2019-06-02T07:17:18.543Z</time>
      </trkpt>
      <trkpt lat="44.60896" lon="3.27508">
        <ele>1022</ele>
        <time>2019-06-02T07:17:23.540Z</time>
      </trkpt>
      <trkpt lat="44.60893" lon="3.27511">
        <ele>1022</ele>
        <time>2019-06-02T07:17:27.569Z</time>
      </trkpt>
      <trkpt lat="44.60886" lon="3.27518">
        <ele>1024</ele>
        <time>2019-06-02T07:17:32.543Z</time>
      </trkpt>
      <trkpt lat="44.60881" lon="3.27525">
        <ele>1024</ele>
        <time>2019-06-02T07:17:37.542Z</time>
      </trkpt>
      <trkpt lat="44.60877" lon="3.27529">
        <ele>1024</ele>
        <time>2019-06-02T07:17:42.533Z</time>
      </trkpt>
      <trkpt lat="44.60874" lon="3.27533">
        <ele>1020</ele>
        <time>2019-06-02T07:17:46.540Z</time>
      </trkpt>
      <trkpt lat="44.6087" lon="3.27537">
        <ele>1020</ele>
        <time>2019-06-02T07:17:50.551Z</time>
      </trkpt>
      <trkpt lat="44.6086" lon="3.27549">
        <ele>1023</ele>
        <time>2019-06-02T07:18:04.554Z</time>
      </trkpt>
      <trkpt lat="44.60857" lon="3.27555">
        <ele>1023</ele>
        <time>2019-06-02T07:18:09.537Z</time>
      </trkpt>
      <trkpt lat="44.60852" lon="3.27559">
        <ele>1023</ele>
        <time>2019-06-02T07:18:13.547Z</time>
      </trkpt>
      <trkpt lat="44.60846" lon="3.27565">
        <ele>1020</ele>
        <time>2019-06-02T07:18:18.541Z</time>
      </trkpt>
      <trkpt lat="44.60839" lon="3.27571">
        <ele>1025</ele>
        <time>2019-06-02T07:18:23.551Z</time>
      </trkpt>
      <trkpt lat="44.60833" lon="3.27576">
        <ele>1025</ele>
        <time>2019-06-02T07:18:28.540Z</time>
      </trkpt>
      <trkpt lat="44.60829" lon="3.2758">
        <ele>1025</ele>
        <time>2019-06-02T07:18:32.562Z</time>
      </trkpt>
      <trkpt lat="44.60825" lon="3.27586">
        <ele>1025</ele>
        <time>2019-06-02T07:18:37.544Z</time>
      </trkpt>
      <trkpt lat="44.6082" lon="3.27593">
        <ele>1025</ele>
        <time>2019-06-02T07:18:42.540Z</time>
      </trkpt>
      <trkpt lat="44.60816" lon="3.27599">
        <ele>1028</ele>
        <time>2019-06-02T07:18:47.542Z</time>
      </trkpt>
      <trkpt lat="44.60813" lon="3.27605">
        <ele>1028</ele>
        <time>2019-06-02T07:18:52.542Z</time>
      </trkpt>
      <trkpt lat="44.60808" lon="3.27609">
        <ele>1028</ele>
        <time>2019-06-02T07:18:56.558Z</time>
      </trkpt>
      <trkpt lat="44.60804" lon="3.27613">
        <ele>1028</ele>
        <time>2019-06-02T07:19:00.564Z</time>
      </trkpt>
      <trkpt lat="44.608" lon="3.27618">
        <ele>1028</ele>
        <time>2019-06-02T07:19:05.567Z</time>
      </trkpt>
      <trkpt lat="44.60797" lon="3.27622">
        <ele>1028</ele>
        <time>2019-06-02T07:19:10.536Z</time>
      </trkpt>
      <trkpt lat="44.60795" lon="3.27626">
        <ele>1033</ele>
        <time>2019-06-02T07:19:14.550Z</time>
      </trkpt>
      <trkpt lat="44.60791" lon="3.27629">
        <ele>1029</ele>
        <time>2019-06-02T07:19:18.552Z</time>
      </trkpt>
      <trkpt lat="44.60787" lon="3.27633">
        <ele>1029</ele>
        <time>2019-06-02T07:19:23.542Z</time>
      </trkpt>
      <trkpt lat="44.60785" lon="3.27636">
        <ele>1029</ele>
        <time>2019-06-02T07:19:27.541Z</time>
      </trkpt>
      <trkpt lat="44.60781" lon="3.27641">
        <ele>1029</ele>
        <time>2019-06-02T07:19:32.541Z</time>
      </trkpt>
      <trkpt lat="44.6078" lon="3.27643">
        <ele>1029</ele>
        <time>2019-06-02T07:19:36.573Z</time>
      </trkpt>
      <trkpt lat="44.60774" lon="3.27649">
        <ele>1029</ele>
        <time>2019-06-02T07:19:41.549Z</time>
      </trkpt>
      <trkpt lat="44.60767" lon="3.27653">
        <ele>1033</ele>
        <time>2019-06-02T07:19:46.542Z</time>
      </trkpt>
      <trkpt lat="44.60761" lon="3.27657">
        <ele>1027</ele>
        <time>2019-06-02T07:19:51.542Z</time>
      </trkpt>
      <trkpt lat="44.60756" lon="3.27661">
        <ele>1027</ele>
        <time>2019-06-02T07:19:56.571Z</time>
      </trkpt>
      <trkpt lat="44.60753" lon="3.27667">
        <ele>1027</ele>
        <time>2019-06-02T07:20:01.541Z</time>
      </trkpt>
      <trkpt lat="44.6075" lon="3.27674">
        <ele>1027</ele>
        <time>2019-06-02T07:20:06.566Z</time>
      </trkpt>
      <trkpt lat="44.60747" lon="3.27679">
        <ele>1027</ele>
        <time>2019-06-02T07:20:11.533Z</time>
      </trkpt>
      <trkpt lat="44.60745" lon="3.27683">
        <ele>1031</ele>
        <time>2019-06-02T07:20:15.565Z</time>
      </trkpt>
      <trkpt lat="44.60744" lon="3.27684">
        <ele>1031</ele>
        <time>2019-06-02T07:20:20.541Z</time>
      </trkpt>
      <trkpt lat="44.60742" lon="3.27692">
        <ele>1031</ele>
        <time>2019-06-02T07:20:25.564Z</time>
      </trkpt>
      <trkpt lat="44.60738" lon="3.277">
        <ele>1031</ele>
        <time>2019-06-02T07:20:30.542Z</time>
      </trkpt>
      <trkpt lat="44.60733" lon="3.27707">
        <ele>1026</ele>
        <time>2019-06-02T07:20:35.572Z</time>
      </trkpt>
      <trkpt lat="44.60729" lon="3.27714">
        <ele>1030</ele>
        <time>2019-06-02T07:20:40.540Z</time>
      </trkpt>
      <trkpt lat="44.60728" lon="3.27715">
        <ele>1030</ele>
        <time>2019-06-02T07:20:45.540Z</time>
      </trkpt>
      <trkpt lat="44.60727" lon="3.27717">
        <ele>1030</ele>
        <time>2019-06-02T07:20:54.543Z</time>
      </trkpt>
      <trkpt lat="44.60726" lon="3.27723">
        <ele>1030</ele>
        <time>2019-06-02T07:20:59.529Z</time>
      </trkpt>
      <trkpt lat="44.60723" lon="3.27728">
        <ele>1030</ele>
        <time>2019-06-02T07:21:03.543Z</time>
      </trkpt>
      <trkpt lat="44.60721" lon="3.27733">
        <ele>1030</ele>
        <time>2019-06-02T07:21:08.532Z</time>
      </trkpt>
      <trkpt lat="44.60719" lon="3.27736">
        <ele>1033</ele>
        <time>2019-06-02T07:21:18.537Z</time>
      </trkpt>
      <trkpt lat="44.60716" lon="3.27742">
        <ele>1033</ele>
        <time>2019-06-02T07:21:22.567Z</time>
      </trkpt>
      <trkpt lat="44.60712" lon="3.27748">
        <ele>1033</ele>
        <time>2019-06-02T07:21:27.552Z</time>
      </trkpt>
      <trkpt lat="44.60707" lon="3.27754">
        <ele>1027</ele>
        <time>2019-06-02T07:21:32.537Z</time>
      </trkpt>
      <trkpt lat="44.60704" lon="3.2776">
        <ele>1027</ele>
        <time>2019-06-02T07:21:37.538Z</time>
      </trkpt>
      <trkpt lat="44.60701" lon="3.27766">
        <ele>1030</ele>
        <time>2019-06-02T07:21:41.541Z</time>
      </trkpt>
      <trkpt lat="44.60699" lon="3.27773">
        <ele>1030</ele>
        <time>2019-06-02T07:21:46.540Z</time>
      </trkpt>
      <trkpt lat="44.60697" lon="3.27779">
        <ele>1030</ele>
        <time>2019-06-02T07:21:51.541Z</time>
      </trkpt>
      <trkpt lat="44.60694" lon="3.27786">
        <ele>1030</ele>
        <time>2019-06-02T07:21:56.542Z</time>
      </trkpt>
      <trkpt lat="44.60692" lon="3.27791">
        <ele>1030</ele>
        <time>2019-06-02T07:22:01.541Z</time>
      </trkpt>
      <trkpt lat="44.60689" lon="3.27796">
        <ele>1035</ele>
        <time>2019-06-02T07:22:05.554Z</time>
      </trkpt>
      <trkpt lat="44.60685" lon="3.27803">
        <ele>1035</ele>
        <time>2019-06-02T07:22:10.541Z</time>
      </trkpt>
      <trkpt lat="44.60682" lon="3.27809">
        <ele>1035</ele>
        <time>2019-06-02T07:22:15.542Z</time>
      </trkpt>
      <trkpt lat="44.6068" lon="3.27813">
        <ele>1027</ele>
        <time>2019-06-02T07:22:19.566Z</time>
      </trkpt>
      <trkpt lat="44.60677" lon="3.27819">
        <ele>1027</ele>
        <time>2019-06-02T07:22:24.538Z</time>
      </trkpt>
      <trkpt lat="44.60674" lon="3.27824">
        <ele>1032</ele>
        <time>2019-06-02T07:22:28.572Z</time>
      </trkpt>
      <trkpt lat="44.60672" lon="3.27831">
        <ele>1032</ele>
        <time>2019-06-02T07:22:33.538Z</time>
      </trkpt>
      <trkpt lat="44.6067" lon="3.27836">
        <ele>1032</ele>
        <time>2019-06-02T07:22:37.542Z</time>
      </trkpt>
      <trkpt lat="44.60668" lon="3.27842">
        <ele>1032</ele>
        <time>2019-06-02T07:22:41.567Z</time>
      </trkpt>
      <trkpt lat="44.60665" lon="3.27849">
        <ele>1036</ele>
        <time>2019-06-02T07:22:46.541Z</time>
      </trkpt>
      <trkpt lat="44.60663" lon="3.27855">
        <ele>1036</ele>
        <time>2019-06-02T07:22:50.573Z</time>
      </trkpt>
      <trkpt lat="44.6066" lon="3.27862">
        <ele>1036</ele>
        <time>2019-06-02T07:22:55.539Z</time>
      </trkpt>
      <trkpt lat="44.60658" lon="3.27869">
        <ele>1036</ele>
        <time>2019-06-02T07:23:00.544Z</time>
      </trkpt>
      <trkpt lat="44.60655" lon="3.27875">
        <ele>1040</ele>
        <time>2019-06-02T07:23:05.543Z</time>
      </trkpt>
      <trkpt lat="44.60653" lon="3.27882">
        <ele>1031</ele>
        <time>2019-06-02T07:23:10.515Z</time>
      </trkpt>
      <trkpt lat="44.60652" lon="3.27885">
        <ele>1031</ele>
        <time>2019-06-02T07:23:14.542Z</time>
      </trkpt>
      <trkpt lat="44.60652" lon="3.27887">
        <ele>1031</ele>
        <time>2019-06-02T07:23:18.579Z</time>
      </trkpt>
      <trkpt lat="44.60649" lon="3.27892">
        <ele>1031</ele>
        <time>2019-06-02T07:23:23.541Z</time>
      </trkpt>
      <trkpt lat="44.60646" lon="3.27896">
        <ele>1031</ele>
        <time>2019-06-02T07:23:28.540Z</time>
      </trkpt>
      <trkpt lat="44.60644" lon="3.27901">
        <ele>1031</ele>
        <time>2019-06-02T07:23:33.535Z</time>
      </trkpt>
      <trkpt lat="44.60642" lon="3.27908">
        <ele>1035</ele>
        <time>2019-06-02T07:23:38.535Z</time>
      </trkpt>
      <trkpt lat="44.60641" lon="3.27911">
        <ele>1035</ele>
        <time>2019-06-02T07:23:43.566Z</time>
      </trkpt>
      <trkpt lat="44.6064" lon="3.27915">
        <ele>1035</ele>
        <time>2019-06-02T07:23:48.518Z</time>
      </trkpt>
      <trkpt lat="44.60638" lon="3.27921">
        <ele>1035</ele>
        <time>2019-06-02T07:23:52.531Z</time>
      </trkpt>
      <trkpt lat="44.60636" lon="3.27928">
        <ele>1035</ele>
        <time>2019-06-02T07:23:57.542Z</time>
      </trkpt>
      <trkpt lat="44.60634" lon="3.27934">
        <ele>1039</ele>
        <time>2019-06-02T07:24:02.536Z</time>
      </trkpt>
      <trkpt lat="44.60631" lon="3.27941">
        <ele>1039</ele>
        <time>2019-06-02T07:24:07.579Z</time>
      </trkpt>
      <trkpt lat="44.60627" lon="3.27945">
        <ele>1039</ele>
        <time>2019-06-02T07:24:12.531Z</time>
      </trkpt>
      <trkpt lat="44.60624" lon="3.27952">
        <ele>1031</ele>
        <time>2019-06-02T07:24:17.545Z</time>
      </trkpt>
      <trkpt lat="44.60622" lon="3.27958">
        <ele>1031</ele>
        <time>2019-06-02T07:24:21.542Z</time>
      </trkpt>
      <trkpt lat="44.60619" lon="3.27963">
        <ele>1036</ele>
        <time>2019-06-02T07:24:26.561Z</time>
      </trkpt>
      <trkpt lat="44.60617" lon="3.27968">
        <ele>1036</ele>
        <time>2019-06-02T07:24:31.540Z</time>
      </trkpt>
      <trkpt lat="44.60614" lon="3.27971">
        <ele>1036</ele>
        <time>2019-06-02T07:24:36.545Z</time>
      </trkpt>
      <trkpt lat="44.60609" lon="3.27977">
        <ele>1036</ele>
        <time>2019-06-02T07:24:41.544Z</time>
      </trkpt>
      <trkpt lat="44.60608" lon="3.27992">
        <ele>1041</ele>
        <time>2019-06-02T07:25:23.572Z</time>
      </trkpt>
      <trkpt lat="44.6061" lon="3.27994">
        <ele>1041</ele>
        <time>2019-06-02T07:25:28.542Z</time>
      </trkpt>
      <trkpt lat="44.60606" lon="3.27998">
        <ele>1041</ele>
        <time>2019-06-02T07:25:33.544Z</time>
      </trkpt>
      <trkpt lat="44.60603" lon="3.28003">
        <ele>1041</ele>
        <time>2019-06-02T07:25:48.533Z</time>
      </trkpt>
      <trkpt lat="44.606" lon="3.28006">
        <ele>1041</ele>
        <time>2019-06-02T07:25:52.584Z</time>
      </trkpt>
      <trkpt lat="44.60597" lon="3.28011">
        <ele>1032</ele>
        <time>2019-06-02T07:25:57.545Z</time>
      </trkpt>
      <trkpt lat="44.60593" lon="3.28015">
        <ele>1038</ele>
        <time>2019-06-02T07:26:02.536Z</time>
      </trkpt>
      <trkpt lat="44.6059" lon="3.28021">
        <ele>1038</ele>
        <time>2019-06-02T07:26:07.537Z</time>
      </trkpt>
      <trkpt lat="44.60589" lon="3.28026">
        <ele>1038</ele>
        <time>2019-06-02T07:26:11.537Z</time>
      </trkpt>
      <trkpt lat="44.60588" lon="3.28031">
        <ele>1038</ele>
        <time>2019-06-02T07:26:15.543Z</time>
      </trkpt>
      <trkpt lat="44.60585" lon="3.28037">
        <ele>1038</ele>
        <time>2019-06-02T07:26:20.572Z</time>
      </trkpt>
      <trkpt lat="44.60584" lon="3.28038">
        <ele>1038</ele>
        <time>2019-06-02T07:26:25.540Z</time>
      </trkpt>
      <trkpt lat="44.60581" lon="3.2804">
        <ele>1038</ele>
        <time>2019-06-02T07:26:35.551Z</time>
      </trkpt>
      <trkpt lat="44.60576" lon="3.28046">
        <ele>1042</ele>
        <time>2019-06-02T07:26:40.540Z</time>
      </trkpt>
      <trkpt lat="44.60573" lon="3.28048">
        <ele>1042</ele>
        <time>2019-06-02T07:26:45.550Z</time>
      </trkpt>
      <trkpt lat="44.60571" lon="3.28051">
        <ele>1042</ele>
        <time>2019-06-02T07:26:50.546Z</time>
      </trkpt>
      <trkpt lat="44.60571" lon="3.28054">
        <ele>1042</ele>
        <time>2019-06-02T07:26:55.547Z</time>
      </trkpt>
      <trkpt lat="44.60567" lon="3.28061">
        <ele>1037</ele>
        <time>2019-06-02T07:27:00.538Z</time>
      </trkpt>
      <trkpt lat="44.60565" lon="3.28066">
        <ele>1037</ele>
        <time>2019-06-02T07:27:04.543Z</time>
      </trkpt>
      <trkpt lat="44.60561" lon="3.2807">
        <ele>1041</ele>
        <time>2019-06-02T07:27:08.566Z</time>
      </trkpt>
      <trkpt lat="44.60557" lon="3.28076">
        <ele>1041</ele>
        <time>2019-06-02T07:27:13.537Z</time>
      </trkpt>
      <trkpt lat="44.60553" lon="3.28081">
        <ele>1041</ele>
        <time>2019-06-02T07:27:18.568Z</time>
      </trkpt>
      <trkpt lat="44.60548" lon="3.28086">
        <ele>1041</ele>
        <time>2019-06-02T07:27:23.541Z</time>
      </trkpt>
      <trkpt lat="44.60544" lon="3.28091">
        <ele>1041</ele>
        <time>2019-06-02T07:27:27.573Z</time>
      </trkpt>
      <trkpt lat="44.60543" lon="3.28095">
        <ele>1041</ele>
        <time>2019-06-02T07:27:32.542Z</time>
      </trkpt>
      <trkpt lat="44.60542" lon="3.28098">
        <ele>1045</ele>
        <time>2019-06-02T07:27:36.541Z</time>
      </trkpt>
      <trkpt lat="44.6054" lon="3.28104">
        <ele>1038</ele>
        <time>2019-06-02T07:27:41.539Z</time>
      </trkpt>
      <trkpt lat="44.60536" lon="3.28111">
        <ele>1038</ele>
        <time>2019-06-02T07:27:46.564Z</time>
      </trkpt>
      <trkpt lat="44.60534" lon="3.28116">
        <ele>1038</ele>
        <time>2019-06-02T07:27:51.566Z</time>
      </trkpt>
      <trkpt lat="44.60529" lon="3.28123">
        <ele>1038</ele>
        <time>2019-06-02T07:27:56.534Z</time>
      </trkpt>
      <trkpt lat="44.60526" lon="3.28129">
        <ele>1043</ele>
        <time>2019-06-02T07:28:16.563Z</time>
      </trkpt>
      <trkpt lat="44.60522" lon="3.28137">
        <ele>1043</ele>
        <time>2019-06-02T07:28:21.536Z</time>
      </trkpt>
      <trkpt lat="44.60517" lon="3.28146">
        <ele>1043</ele>
        <time>2019-06-02T07:28:26.542Z</time>
      </trkpt>
      <trkpt lat="44.60513" lon="3.28154">
        <ele>1043</ele>
        <time>2019-06-02T07:28:31.535Z</time>
      </trkpt>
      <trkpt lat="44.60509" lon="3.2816">
        <ele>1043</ele>
        <time>2019-06-02T07:28:36.535Z</time>
      </trkpt>
      <trkpt lat="44.60508" lon="3.28165">
        <ele>1043</ele>
        <time>2019-06-02T07:28:40.549Z</time>
      </trkpt>
      <trkpt lat="44.60508" lon="3.28165">
        <ele>1043</ele>
        <time>2019-06-02T07:28:45.536Z</time>
      </trkpt>
      <trkpt lat="44.60509" lon="3.28166">
        <ele>1043</ele>
        <time>2019-06-02T07:29:13.540Z</time>
      </trkpt>
      <trkpt lat="44.60506" lon="3.28172">
        <ele>1043</ele>
        <time>2019-06-02T07:29:18.544Z</time>
      </trkpt>
      <trkpt lat="44.60502" lon="3.28177">
        <ele>1043</ele>
        <time>2019-06-02T07:29:23.543Z</time>
      </trkpt>
      <trkpt lat="44.60498" lon="3.28182">
        <ele>1047</ele>
        <time>2019-06-02T07:29:28.539Z</time>
      </trkpt>
      <trkpt lat="44.60496" lon="3.28187">
        <ele>1047</ele>
        <time>2019-06-02T07:29:33.539Z</time>
      </trkpt>
      <trkpt lat="44.60496" lon="3.28188">
        <ele>1047</ele>
        <time>2019-06-02T07:29:38.543Z</time>
      </trkpt>
      <trkpt lat="44.60494" lon="3.28193">
        <ele>1047</ele>
        <time>2019-06-02T07:29:42.553Z</time>
      </trkpt>
      <trkpt lat="44.60491" lon="3.28201">
        <ele>1047</ele>
        <time>2019-06-02T07:29:47.553Z</time>
      </trkpt>
      <trkpt lat="44.60488" lon="3.28208">
        <ele>1047</ele>
        <time>2019-06-02T07:29:52.551Z</time>
      </trkpt>
      <trkpt lat="44.60484" lon="3.28215">
        <ele>1045</ele>
        <time>2019-06-02T07:29:57.534Z</time>
      </trkpt>
      <trkpt lat="44.60481" lon="3.28218">
        <ele>1045</ele>
        <time>2019-06-02T07:30:01.545Z</time>
      </trkpt>
      <trkpt lat="44.60477" lon="3.28223">
        <ele>1045</ele>
        <time>2019-06-02T07:30:06.536Z</time>
      </trkpt>
      <trkpt lat="44.60474" lon="3.28227">
        <ele>1045</ele>
        <time>2019-06-02T07:30:10.543Z</time>
      </trkpt>
      <trkpt lat="44.60471" lon="3.28235">
        <ele>1045</ele>
        <time>2019-06-02T07:30:15.539Z</time>
      </trkpt>
      <trkpt lat="44.6047" lon="3.28239">
        <ele>1049</ele>
        <time>2019-06-02T07:30:20.539Z</time>
      </trkpt>
      <trkpt lat="44.6047" lon="3.28244">
        <ele>1049</ele>
        <time>2019-06-02T07:30:24.577Z</time>
      </trkpt>
      <trkpt lat="44.60469" lon="3.2825">
        <ele>1049</ele>
        <time>2019-06-02T07:30:29.551Z</time>
      </trkpt>
      <trkpt lat="44.60466" lon="3.28257">
        <ele>1049</ele>
        <time>2019-06-02T07:30:34.549Z</time>
      </trkpt>
      <trkpt lat="44.60466" lon="3.2826">
        <ele>1049</ele>
        <time>2019-06-02T07:30:39.536Z</time>
      </trkpt>
      <trkpt lat="44.60465" lon="3.28264">
        <ele>1052</ele>
        <time>2019-06-02T07:30:44.535Z</time>
      </trkpt>
      <trkpt lat="44.60464" lon="3.28272">
        <ele>1052</ele>
        <time>2019-06-02T07:30:49.536Z</time>
      </trkpt>
      <trkpt lat="44.60462" lon="3.28281">
        <ele>1052</ele>
        <time>2019-06-02T07:30:54.544Z</time>
      </trkpt>
      <trkpt lat="44.6046" lon="3.28292">
        <ele>1052</ele>
        <time>2019-06-02T07:30:59.538Z</time>
      </trkpt>
      <trkpt lat="44.60458" lon="3.283">
        <ele>1048</ele>
        <time>2019-06-02T07:31:04.537Z</time>
      </trkpt>
      <trkpt lat="44.60456" lon="3.28307">
        <ele>1048</ele>
        <time>2019-06-02T07:31:09.570Z</time>
      </trkpt>
      <trkpt lat="44.60454" lon="3.28316">
        <ele>1048</ele>
        <time>2019-06-02T07:31:14.543Z</time>
      </trkpt>
      <trkpt lat="44.60452" lon="3.28323">
        <ele>1050</ele>
        <time>2019-06-02T07:31:19.542Z</time>
      </trkpt>
      <trkpt lat="44.60451" lon="3.28328">
        <ele>1050</ele>
        <time>2019-06-02T07:31:23.543Z</time>
      </trkpt>
      <trkpt lat="44.60448" lon="3.28335">
        <ele>1050</ele>
        <time>2019-06-02T07:31:28.542Z</time>
      </trkpt>
      <trkpt lat="44.60445" lon="3.28342">
        <ele>1050</ele>
        <time>2019-06-02T07:31:33.540Z</time>
      </trkpt>
      <trkpt lat="44.60442" lon="3.28346">
        <ele>1050</ele>
        <time>2019-06-02T07:31:38.542Z</time>
      </trkpt>
      <trkpt lat="44.6044" lon="3.28349">
        <ele>1051</ele>
        <time>2019-06-02T07:31:42.548Z</time>
      </trkpt>
      <trkpt lat="44.60438" lon="3.28352">
        <ele>1051</ele>
        <time>2019-06-02T07:31:46.544Z</time>
      </trkpt>
      <trkpt lat="44.60437" lon="3.28353">
        <ele>1051</ele>
        <time>2019-06-02T07:31:51.566Z</time>
      </trkpt>
      <trkpt lat="44.60433" lon="3.28359">
        <ele>1051</ele>
        <time>2019-06-02T07:31:56.536Z</time>
      </trkpt>
      <trkpt lat="44.60431" lon="3.28362">
        <ele>1051</ele>
        <time>2019-06-02T07:32:00.568Z</time>
      </trkpt>
      <trkpt lat="44.6043" lon="3.28367">
        <ele>1047</ele>
        <time>2019-06-02T07:32:05.538Z</time>
      </trkpt>
      <trkpt lat="44.60427" lon="3.28374">
        <ele>1047</ele>
        <time>2019-06-02T07:32:10.569Z</time>
      </trkpt>
      <trkpt lat="44.60426" lon="3.28383">
        <ele>1047</ele>
        <time>2019-06-02T07:32:15.543Z</time>
      </trkpt>
      <trkpt lat="44.60426" lon="3.28392">
        <ele>1047</ele>
        <time>2019-06-02T07:32:20.566Z</time>
      </trkpt>
      <trkpt lat="44.60425" lon="3.284">
        <ele>1047</ele>
        <time>2019-06-02T07:32:25.542Z</time>
      </trkpt>
      <trkpt lat="44.60426" lon="3.28408">
        <ele>1048</ele>
        <time>2019-06-02T07:32:30.534Z</time>
      </trkpt>
      <trkpt lat="44.60425" lon="3.28414">
        <ele>1048</ele>
        <time>2019-06-02T07:32:34.543Z</time>
      </trkpt>
      <trkpt lat="44.60426" lon="3.28421">
        <ele>1048</ele>
        <time>2019-06-02T07:32:39.541Z</time>
      </trkpt>
      <trkpt lat="44.60428" lon="3.28427">
        <ele>1048</ele>
        <time>2019-06-02T07:32:43.564Z</time>
      </trkpt>
      <trkpt lat="44.60432" lon="3.28433">
        <ele>1054</ele>
        <time>2019-06-02T07:32:48.551Z</time>
      </trkpt>
      <trkpt lat="44.60436" lon="3.28438">
        <ele>1054</ele>
        <time>2019-06-02T07:32:52.573Z</time>
      </trkpt>
      <trkpt lat="44.6044" lon="3.28444">
        <ele>1054</ele>
        <time>2019-06-02T07:32:57.542Z</time>
      </trkpt>
      <trkpt lat="44.60443" lon="3.28449">
        <ele>1054</ele>
        <time>2019-06-02T07:33:02.548Z</time>
      </trkpt>
      <trkpt lat="44.60447" lon="3.28453">
        <ele>1054</ele>
        <time>2019-06-02T07:33:07.542Z</time>
      </trkpt>
      <trkpt lat="44.6045" lon="3.28458">
        <ele>1054</ele>
        <time>2019-06-02T07:33:12.540Z</time>
      </trkpt>
      <trkpt lat="44.60453" lon="3.28463">
        <ele>1055</ele>
        <time>2019-06-02T07:33:16.547Z</time>
      </trkpt>
      <trkpt lat="44.60456" lon="3.28467">
        <ele>1055</ele>
        <time>2019-06-02T07:33:21.542Z</time>
      </trkpt>
      <trkpt lat="44.60458" lon="3.28472">
        <ele>1058</ele>
        <time>2019-06-02T07:33:25.565Z</time>
      </trkpt>
      <trkpt lat="44.60462" lon="3.28477">
        <ele>1058</ele>
        <time>2019-06-02T07:33:30.535Z</time>
      </trkpt>
      <trkpt lat="44.60466" lon="3.28481">
        <ele>1058</ele>
        <time>2019-06-02T07:33:34.576Z</time>
      </trkpt>
      <trkpt lat="44.60469" lon="3.28483">
        <ele>1058</ele>
        <time>2019-06-02T07:33:38.580Z</time>
      </trkpt>
      <trkpt lat="44.60472" lon="3.28488">
        <ele>1057</ele>
        <time>2019-06-02T07:33:43.543Z</time>
      </trkpt>
      <trkpt lat="44.60476" lon="3.28491">
        <ele>1057</ele>
        <time>2019-06-02T07:33:48.538Z</time>
      </trkpt>
      <trkpt lat="44.60476" lon="3.28491">
        <ele>1057</ele>
        <time>2019-06-02T07:33:52.544Z</time>
      </trkpt>
      <trkpt lat="44.60477" lon="3.2849">
        <ele>1057</ele>
        <time>2019-06-02T07:34:20.543Z</time>
      </trkpt>
      <trkpt lat="44.60483" lon="3.28491">
        <ele>1057</ele>
        <time>2019-06-02T07:34:25.560Z</time>
      </trkpt>
      <trkpt lat="44.60488" lon="3.28493">
        <ele>1060</ele>
        <time>2019-06-02T07:34:30.550Z</time>
      </trkpt>
      <trkpt lat="44.60492" lon="3.28494">
        <ele>1060</ele>
        <time>2019-06-02T07:34:35.554Z</time>
      </trkpt>
      <trkpt lat="44.60494" lon="3.28494">
        <ele>1060</ele>
        <time>2019-06-02T07:34:40.534Z</time>
      </trkpt>
      <trkpt lat="44.60496" lon="3.28494">
        <ele>1060</ele>
        <time>2019-06-02T07:34:44.551Z</time>
      </trkpt>
      <trkpt lat="44.60502" lon="3.28492">
        <ele>1060</ele>
        <time>2019-06-02T07:34:49.543Z</time>
      </trkpt>
      <trkpt lat="44.60506" lon="3.2849">
        <ele>1060</ele>
        <time>2019-06-02T07:34:54.579Z</time>
      </trkpt>
      <trkpt lat="44.60511" lon="3.28489">
        <ele>1060</ele>
        <time>2019-06-02T07:34:59.543Z</time>
      </trkpt>
      <trkpt lat="44.60513" lon="3.28492">
        <ele>1060</ele>
        <time>2019-06-02T07:35:03.568Z</time>
      </trkpt>
      <trkpt lat="44.60517" lon="3.28494">
        <ele>1064</ele>
        <time>2019-06-02T07:35:08.536Z</time>
      </trkpt>
      <trkpt lat="44.6052" lon="3.28495">
        <ele>1064</ele>
        <time>2019-06-02T07:35:12.584Z</time>
      </trkpt>
      <trkpt lat="44.60524" lon="3.28498">
        <ele>1064</ele>
        <time>2019-06-02T07:35:17.542Z</time>
      </trkpt>
      <trkpt lat="44.60528" lon="3.285">
        <ele>1064</ele>
        <time>2019-06-02T07:35:22.551Z</time>
      </trkpt>
      <trkpt lat="44.60526" lon="3.28503">
        <ele>1064</ele>
        <time>2019-06-02T07:35:27.546Z</time>
      </trkpt>
      <trkpt lat="44.60525" lon="3.28506">
        <ele>1064</ele>
        <time>2019-06-02T07:35:32.544Z</time>
      </trkpt>
      <trkpt lat="44.60524" lon="3.28508">
        <ele>1064</ele>
        <time>2019-06-02T07:35:36.552Z</time>
      </trkpt>
      <trkpt lat="44.60523" lon="3.28511">
        <ele>1064</ele>
        <time>2019-06-02T07:35:41.549Z</time>
      </trkpt>
      <trkpt lat="44.60521" lon="3.28516">
        <ele>1059</ele>
        <time>2019-06-02T07:35:46.537Z</time>
      </trkpt>
      <trkpt lat="44.60519" lon="3.28521">
        <ele>1059</ele>
        <time>2019-06-02T07:35:51.541Z</time>
      </trkpt>
      <trkpt lat="44.60519" lon="3.28524">
        <ele>1059</ele>
        <time>2019-06-02T07:35:55.550Z</time>
      </trkpt>
      <trkpt lat="44.60517" lon="3.28527">
        <ele>1059</ele>
        <time>2019-06-02T07:36:00.542Z</time>
      </trkpt>
      <trkpt lat="44.60517" lon="3.28529">
        <ele>1059</ele>
        <time>2019-06-02T07:36:23.542Z</time>
      </trkpt>
      <trkpt lat="44.60516" lon="3.28536">
        <ele>1059</ele>
        <time>2019-06-02T07:42:57.539Z</time>
      </trkpt>
      <trkpt lat="44.60518" lon="3.28532">
        <ele>1059</ele>
        <time>2019-06-02T07:43:02.538Z</time>
      </trkpt>
      <trkpt lat="44.60519" lon="3.2853">
        <ele>1059</ele>
        <time>2019-06-02T07:43:07.544Z</time>
      </trkpt>
      <trkpt lat="44.60521" lon="3.28527">
        <ele>1059</ele>
        <time>2019-06-02T07:43:31.555Z</time>
      </trkpt>
      <trkpt lat="44.60523" lon="3.28522">
        <ele>1059</ele>
        <time>2019-06-02T07:43:36.542Z</time>
      </trkpt>
      <trkpt lat="44.60525" lon="3.28516">
        <ele>1059</ele>
        <time>2019-06-02T07:44:01.540Z</time>
      </trkpt>
      <trkpt lat="44.60524" lon="3.28516">
        <ele>1059</ele>
        <time>2019-06-02T07:44:06.538Z</time>
      </trkpt>
      <trkpt lat="44.60524" lon="3.28515">
        <ele>1059</ele>
        <time>2019-06-02T07:44:11.521Z</time>
      </trkpt>
      <trkpt lat="44.60526" lon="3.2851">
        <ele>1064</ele>
        <time>2019-06-02T07:46:10.520Z</time>
      </trkpt>
      <trkpt lat="44.60525" lon="3.28503">
        <ele>1064</ele>
        <time>2019-06-02T07:46:15.517Z</time>
      </trkpt>
      <trkpt lat="44.60522" lon="3.28501">
        <ele>1064</ele>
        <time>2019-06-02T07:46:19.545Z</time>
      </trkpt>
      <trkpt lat="44.60518" lon="3.28497">
        <ele>1064</ele>
        <time>2019-06-02T07:46:24.545Z</time>
      </trkpt>
      <trkpt lat="44.60515" lon="3.28495">
        <ele>1064</ele>
        <time>2019-06-02T07:46:29.543Z</time>
      </trkpt>
      <trkpt lat="44.60513" lon="3.28492">
        <ele>1060</ele>
        <time>2019-06-02T07:46:33.564Z</time>
      </trkpt>
      <trkpt lat="44.60509" lon="3.28489">
        <ele>1060</ele>
        <time>2019-06-02T07:46:38.535Z</time>
      </trkpt>
      <trkpt lat="44.60506" lon="3.2849">
        <ele>1060</ele>
        <time>2019-06-02T07:46:47.555Z</time>
      </trkpt>
      <trkpt lat="44.60502" lon="3.28492">
        <ele>1060</ele>
        <time>2019-06-02T07:46:52.540Z</time>
      </trkpt>
      <trkpt lat="44.60502" lon="3.28492">
        <ele>1060</ele>
        <time>2019-06-02T07:46:57.541Z</time>
      </trkpt>
      <trkpt lat="44.60497" lon="3.28493">
        <ele>1060</ele>
        <time>2019-06-02T07:47:02.539Z</time>
      </trkpt>
      <trkpt lat="44.60494" lon="3.28493">
        <ele>1060</ele>
        <time>2019-06-02T07:47:07.539Z</time>
      </trkpt>
      <trkpt lat="44.60493" lon="3.28494">
        <ele>1060</ele>
        <time>2019-06-02T07:47:26.556Z</time>
      </trkpt>
      <trkpt lat="44.60489" lon="3.28494">
        <ele>1060</ele>
        <time>2019-06-02T07:47:31.545Z</time>
      </trkpt>
      <trkpt lat="44.60485" lon="3.28493">
        <ele>1057</ele>
        <time>2019-06-02T07:47:36.534Z</time>
      </trkpt>
      <trkpt lat="44.60475" lon="3.28485">
        <ele>1058</ele>
        <time>2019-06-02T07:48:00.552Z</time>
      </trkpt>
      <trkpt lat="44.60476" lon="3.28483">
        <ele>1058</ele>
        <time>2019-06-02T07:48:05.545Z</time>
      </trkpt>
      <trkpt lat="44.60474" lon="3.2848">
        <ele>1058</ele>
        <time>2019-06-02T07:48:10.546Z</time>
      </trkpt>
      <trkpt lat="44.60471" lon="3.28478">
        <ele>1058</ele>
        <time>2019-06-02T07:48:15.543Z</time>
      </trkpt>
      <trkpt lat="44.60467" lon="3.28474">
        <ele>1058</ele>
        <time>2019-06-02T07:48:20.537Z</time>
      </trkpt>
      <trkpt lat="44.60464" lon="3.2847">
        <ele>1058</ele>
        <time>2019-06-02T07:48:24.547Z</time>
      </trkpt>
      <trkpt lat="44.60461" lon="3.28466">
        <ele>1058</ele>
        <time>2019-06-02T07:48:29.543Z</time>
      </trkpt>
      <trkpt lat="44.60458" lon="3.28461">
        <ele>1058</ele>
        <time>2019-06-02T07:48:34.540Z</time>
      </trkpt>
      <trkpt lat="44.60456" lon="3.28458">
        <ele>1054</ele>
        <time>2019-06-02T07:48:39.542Z</time>
      </trkpt>
      <trkpt lat="44.60454" lon="3.28453">
        <ele>1054</ele>
        <time>2019-06-02T07:48:44.545Z</time>
      </trkpt>
      <trkpt lat="44.60452" lon="3.28449">
        <ele>1054</ele>
        <time>2019-06-02T07:48:49.540Z</time>
      </trkpt>
      <trkpt lat="44.6045" lon="3.28447">
        <ele>1054</ele>
        <time>2019-06-02T07:48:54.546Z</time>
      </trkpt>
      <trkpt lat="44.60448" lon="3.28443">
        <ele>1054</ele>
        <time>2019-06-02T07:48:58.568Z</time>
      </trkpt>
      <trkpt lat="44.60447" lon="3.2844">
        <ele>1054</ele>
        <time>2019-06-02T07:49:03.533Z</time>
      </trkpt>
      <trkpt lat="44.60446" lon="3.28437">
        <ele>1054</ele>
        <time>2019-06-02T07:49:07.541Z</time>
      </trkpt>
      <trkpt lat="44.60443" lon="3.2843">
        <ele>1053</ele>
        <time>2019-06-02T07:49:12.544Z</time>
      </trkpt>
      <trkpt lat="44.6044" lon="3.28425">
        <ele>1053</ele>
        <time>2019-06-02T07:49:17.561Z</time>
      </trkpt>
      <trkpt lat="44.60438" lon="3.2842">
        <ele>1053</ele>
        <time>2019-06-02T07:49:22.536Z</time>
      </trkpt>
      <trkpt lat="44.60436" lon="3.28417">
        <ele>1053</ele>
        <time>2019-06-02T07:49:26.542Z</time>
      </trkpt>
      <trkpt lat="44.60436" lon="3.28409">
        <ele>1053</ele>
        <time>2019-06-02T07:49:31.516Z</time>
      </trkpt>
      <trkpt lat="44.60435" lon="3.28404">
        <ele>1053</ele>
        <time>2019-06-02T07:49:35.557Z</time>
      </trkpt>
      <trkpt lat="44.60434" lon="3.28398">
        <ele>1051</ele>
        <time>2019-06-02T07:49:40.537Z</time>
      </trkpt>
      <trkpt lat="44.60434" lon="3.28394">
        <ele>1051</ele>
        <time>2019-06-02T07:49:45.546Z</time>
      </trkpt>
      <trkpt lat="44.60435" lon="3.28387">
        <ele>1051</ele>
        <time>2019-06-02T07:49:50.566Z</time>
      </trkpt>
      <trkpt lat="44.60435" lon="3.28381">
        <ele>1051</ele>
        <time>2019-06-02T07:49:55.543Z</time>
      </trkpt>
      <trkpt lat="44.60434" lon="3.28377">
        <ele>1051</ele>
        <time>2019-06-02T07:49:59.544Z</time>
      </trkpt>
      <trkpt lat="44.60433" lon="3.28377">
        <ele>1051</ele>
        <time>2019-06-02T07:50:04.541Z</time>
      </trkpt>
      <trkpt lat="44.60428" lon="3.28377">
        <ele>1047</ele>
        <time>2019-06-02T07:50:08.550Z</time>
      </trkpt>
      <trkpt lat="44.60424" lon="3.28378">
        <ele>1047</ele>
        <time>2019-06-02T07:50:13.553Z</time>
      </trkpt>
      <trkpt lat="44.60419" lon="3.28379">
        <ele>1047</ele>
        <time>2019-06-02T07:50:18.541Z</time>
      </trkpt>
      <trkpt lat="44.60418" lon="3.28379">
        <ele>1047</ele>
        <time>2019-06-02T07:50:23.540Z</time>
      </trkpt>
      <trkpt lat="44.60412" lon="3.28382">
        <ele>1047</ele>
        <time>2019-06-02T07:50:50.565Z</time>
      </trkpt>
      <trkpt lat="44.60411" lon="3.28383">
        <ele>1047</ele>
        <time>2019-06-02T07:51:29.545Z</time>
      </trkpt>
      <trkpt lat="44.60403" lon="3.28385">
        <ele>1047</ele>
        <time>2019-06-02T07:51:33.566Z</time>
      </trkpt>
      <trkpt lat="44.60397" lon="3.28387">
        <ele>1043</ele>
        <time>2019-06-02T07:51:38.543Z</time>
      </trkpt>
      <trkpt lat="44.60392" lon="3.28393">
        <ele>1043</ele>
        <time>2019-06-02T07:51:43.543Z</time>
      </trkpt>
      <trkpt lat="44.60388" lon="3.284">
        <ele>1043</ele>
        <time>2019-06-02T07:51:48.546Z</time>
      </trkpt>
      <trkpt lat="44.60385" lon="3.28403">
        <ele>1045</ele>
        <time>2019-06-02T07:51:53.537Z</time>
      </trkpt>
      <trkpt lat="44.60383" lon="3.28406">
        <ele>1045</ele>
        <time>2019-06-02T07:51:57.541Z</time>
      </trkpt>
      <trkpt lat="44.6038" lon="3.2841">
        <ele>1045</ele>
        <time>2019-06-02T07:52:02.540Z</time>
      </trkpt>
      <trkpt lat="44.60377" lon="3.28413">
        <ele>1045</ele>
        <time>2019-06-02T07:52:06.547Z</time>
      </trkpt>
      <trkpt lat="44.60374" lon="3.28416">
        <ele>1041</ele>
        <time>2019-06-02T07:52:11.539Z</time>
      </trkpt>
      <trkpt lat="44.60372" lon="3.28419">
        <ele>1041</ele>
        <time>2019-06-02T07:53:09.540Z</time>
      </trkpt>
      <trkpt lat="44.60371" lon="3.28421">
        <ele>1041</ele>
        <time>2019-06-02T07:53:14.546Z</time>
      </trkpt>
      <trkpt lat="44.6037" lon="3.28422">
        <ele>1041</ele>
        <time>2019-06-02T07:53:19.544Z</time>
      </trkpt>
      <trkpt lat="44.60369" lon="3.28426">
        <ele>1041</ele>
        <time>2019-06-02T07:53:23.541Z</time>
      </trkpt>
      <trkpt lat="44.60367" lon="3.2843">
        <ele>1041</ele>
        <time>2019-06-02T07:53:28.570Z</time>
      </trkpt>
      <trkpt lat="44.60365" lon="3.28436">
        <ele>1044</ele>
        <time>2019-06-02T07:53:33.546Z</time>
      </trkpt>
      <trkpt lat="44.60363" lon="3.28438">
        <ele>1044</ele>
        <time>2019-06-02T07:53:38.543Z</time>
      </trkpt>
      <trkpt lat="44.6036" lon="3.28443">
        <ele>1044</ele>
        <time>2019-06-02T07:53:47.544Z</time>
      </trkpt>
      <trkpt lat="44.60356" lon="3.28449">
        <ele>1044</ele>
        <time>2019-06-02T07:53:52.538Z</time>
      </trkpt>
      <trkpt lat="44.6035" lon="3.28456">
        <ele>1044</ele>
        <time>2019-06-02T07:53:57.545Z</time>
      </trkpt>
      <trkpt lat="44.60345" lon="3.28461">
        <ele>1043</ele>
        <time>2019-06-02T07:54:02.556Z</time>
      </trkpt>
      <trkpt lat="44.60342" lon="3.28464">
        <ele>1043</ele>
        <time>2019-06-02T07:54:06.567Z</time>
      </trkpt>
      <trkpt lat="44.60338" lon="3.28466">
        <ele>1043</ele>
        <time>2019-06-02T07:54:11.546Z</time>
      </trkpt>
      <trkpt lat="44.60337" lon="3.28466">
        <ele>1043</ele>
        <time>2019-06-02T07:54:16.534Z</time>
      </trkpt>
      <trkpt lat="44.60335" lon="3.2847">
        <ele>1043</ele>
        <time>2019-06-02T07:54:20.551Z</time>
      </trkpt>
      <trkpt lat="44.60333" lon="3.28472">
        <ele>1043</ele>
        <time>2019-06-02T07:54:24.567Z</time>
      </trkpt>
      <trkpt lat="44.60329" lon="3.28476">
        <ele>1043</ele>
        <time>2019-06-02T07:54:29.530Z</time>
      </trkpt>
      <trkpt lat="44.60328" lon="3.28478">
        <ele>1043</ele>
        <time>2019-06-02T07:54:34.537Z</time>
      </trkpt>
      <trkpt lat="44.60324" lon="3.28483">
        <ele>1043</ele>
        <time>2019-06-02T07:54:38.544Z</time>
      </trkpt>
      <trkpt lat="44.60321" lon="3.28487">
        <ele>1043</ele>
        <time>2019-06-02T07:54:43.547Z</time>
      </trkpt>
      <trkpt lat="44.60317" lon="3.28489">
        <ele>1039</ele>
        <time>2019-06-02T07:54:48.581Z</time>
      </trkpt>
      <trkpt lat="44.60312" lon="3.28495">
        <ele>1039</ele>
        <time>2019-06-02T07:54:53.554Z</time>
      </trkpt>
      <trkpt lat="44.6031" lon="3.28499">
        <ele>1039</ele>
        <time>2019-06-02T07:54:57.563Z</time>
      </trkpt>
      <trkpt lat="44.60307" lon="3.28504">
        <ele>1039</ele>
        <time>2019-06-02T07:55:02.538Z</time>
      </trkpt>
      <trkpt lat="44.60302" lon="3.28509">
        <ele>1039</ele>
        <time>2019-06-02T07:55:07.540Z</time>
      </trkpt>
      <trkpt lat="44.603" lon="3.28512">
        <ele>1039</ele>
        <time>2019-06-02T07:55:11.562Z</time>
      </trkpt>
      <trkpt lat="44.60297" lon="3.28516">
        <ele>1039</ele>
        <time>2019-06-02T07:55:16.561Z</time>
      </trkpt>
      <trkpt lat="44.60293" lon="3.28518">
        <ele>1039</ele>
        <time>2019-06-02T07:55:21.543Z</time>
      </trkpt>
      <trkpt lat="44.60289" lon="3.28522">
        <ele>1035</ele>
        <time>2019-06-02T07:55:26.563Z</time>
      </trkpt>
      <trkpt lat="44.60288" lon="3.28523">
        <ele>1035</ele>
        <time>2019-06-02T07:55:31.557Z</time>
      </trkpt>
      <trkpt lat="44.60285" lon="3.28526">
        <ele>1035</ele>
        <time>2019-06-02T07:55:36.544Z</time>
      </trkpt>
      <trkpt lat="44.60281" lon="3.28529">
        <ele>1035</ele>
        <time>2019-06-02T07:55:40.544Z</time>
      </trkpt>
      <trkpt lat="44.60279" lon="3.28531">
        <ele>1035</ele>
        <time>2019-06-02T07:55:44.551Z</time>
      </trkpt>
      <trkpt lat="44.60275" lon="3.28535">
        <ele>1035</ele>
        <time>2019-06-02T07:55:49.534Z</time>
      </trkpt>
      <trkpt lat="44.60272" lon="3.28538">
        <ele>1035</ele>
        <time>2019-06-02T07:55:54.535Z</time>
      </trkpt>
      <trkpt lat="44.6027" lon="3.2854">
        <ele>1035</ele>
        <time>2019-06-02T07:55:59.540Z</time>
      </trkpt>
      <trkpt lat="44.60268" lon="3.28542">
        <ele>1034</ele>
        <time>2019-06-02T07:56:03.549Z</time>
      </trkpt>
      <trkpt lat="44.60264" lon="3.28543">
        <ele>1034</ele>
        <time>2019-06-02T07:56:08.550Z</time>
      </trkpt>
      <trkpt lat="44.60261" lon="3.28545">
        <ele>1031</ele>
        <time>2019-06-02T07:56:13.559Z</time>
      </trkpt>
      <trkpt lat="44.60257" lon="3.28547">
        <ele>1031</ele>
        <time>2019-06-02T07:56:18.547Z</time>
      </trkpt>
      <trkpt lat="44.60253" lon="3.28549">
        <ele>1031</ele>
        <time>2019-06-02T07:56:22.578Z</time>
      </trkpt>
      <trkpt lat="44.60249" lon="3.28552">
        <ele>1031</ele>
        <time>2019-06-02T07:56:27.538Z</time>
      </trkpt>
      <trkpt lat="44.60247" lon="3.28554">
        <ele>1031</ele>
        <time>2019-06-02T07:56:32.548Z</time>
      </trkpt>
      <trkpt lat="44.60243" lon="3.28558">
        <ele>1031</ele>
        <time>2019-06-02T07:56:37.543Z</time>
      </trkpt>
      <trkpt lat="44.6024" lon="3.2856">
        <ele>1031</ele>
        <time>2019-06-02T07:56:41.546Z</time>
      </trkpt>
      <trkpt lat="44.60235" lon="3.28562">
        <ele>1028</ele>
        <time>2019-06-02T07:56:46.552Z</time>
      </trkpt>
      <trkpt lat="44.60233" lon="3.28563">
        <ele>1028</ele>
        <time>2019-06-02T07:56:50.549Z</time>
      </trkpt>
      <trkpt lat="44.60228" lon="3.28565">
        <ele>1028</ele>
        <time>2019-06-02T07:56:55.535Z</time>
      </trkpt>
      <trkpt lat="44.60225" lon="3.28567">
        <ele>1028</ele>
        <time>2019-06-02T07:56:59.566Z</time>
      </trkpt>
      <trkpt lat="44.60221" lon="3.2857">
        <ele>1024</ele>
        <time>2019-06-02T07:57:04.567Z</time>
      </trkpt>
      <trkpt lat="44.6022" lon="3.2857">
        <ele>1024</ele>
        <time>2019-06-02T07:57:09.550Z</time>
      </trkpt>
      <trkpt lat="44.60218" lon="3.28571">
        <ele>1024</ele>
        <time>2019-06-02T07:57:14.537Z</time>
      </trkpt>
      <trkpt lat="44.60215" lon="3.28571">
        <ele>1024</ele>
        <time>2019-06-02T07:57:18.555Z</time>
      </trkpt>
      <trkpt lat="44.6021" lon="3.28574">
        <ele>1024</ele>
        <time>2019-06-02T07:57:23.534Z</time>
      </trkpt>
      <trkpt lat="44.60207" lon="3.28573">
        <ele>1022</ele>
        <time>2019-06-02T07:57:27.549Z</time>
      </trkpt>
      <trkpt lat="44.60203" lon="3.28574">
        <ele>1022</ele>
        <time>2019-06-02T07:57:32.549Z</time>
      </trkpt>
      <trkpt lat="44.60198" lon="3.28575">
        <ele>1022</ele>
        <time>2019-06-02T07:57:37.535Z</time>
      </trkpt>
      <trkpt lat="44.60198" lon="3.28574">
        <ele>1022</ele>
        <time>2019-06-02T07:57:47.540Z</time>
      </trkpt>
      <trkpt lat="44.60195" lon="3.28574">
        <ele>1022</ele>
        <time>2019-06-02T07:57:51.554Z</time>
      </trkpt>
      <trkpt lat="44.6019" lon="3.28572">
        <ele>1022</ele>
        <time>2019-06-02T07:57:56.540Z</time>
      </trkpt>
      <trkpt lat="44.60189" lon="3.28572">
        <ele>1022</ele>
        <time>2019-06-02T07:58:01.543Z</time>
      </trkpt>
      <trkpt lat="44.60185" lon="3.28569">
        <ele>1027</ele>
        <time>2019-06-02T07:58:10.541Z</time>
      </trkpt>
      <trkpt lat="44.6018" lon="3.28568">
        <ele>1026</ele>
        <time>2019-06-02T07:58:15.542Z</time>
      </trkpt>
      <trkpt lat="44.60175" lon="3.28566">
        <ele>1026</ele>
        <time>2019-06-02T07:58:20.591Z</time>
      </trkpt>
      <trkpt lat="44.6017" lon="3.28567">
        <ele>1026</ele>
        <time>2019-06-02T07:58:25.547Z</time>
      </trkpt>
      <trkpt lat="44.60167" lon="3.28568">
        <ele>1026</ele>
        <time>2019-06-02T07:58:29.546Z</time>
      </trkpt>
      <trkpt lat="44.60165" lon="3.28567">
        <ele>1026</ele>
        <time>2019-06-02T07:58:39.563Z</time>
      </trkpt>
      <trkpt lat="44.6016" lon="3.28564">
        <ele>1026</ele>
        <time>2019-06-02T07:58:44.549Z</time>
      </trkpt>
      <trkpt lat="44.60156" lon="3.28563">
        <ele>1026</ele>
        <time>2019-06-02T07:58:49.542Z</time>
      </trkpt>
      <trkpt lat="44.60151" lon="3.28562">
        <ele>1023</ele>
        <time>2019-06-02T07:58:54.561Z</time>
      </trkpt>
      <trkpt lat="44.60146" lon="3.28562">
        <ele>1023</ele>
        <time>2019-06-02T07:58:59.568Z</time>
      </trkpt>
      <trkpt lat="44.60141" lon="3.28561">
        <ele>1023</ele>
        <time>2019-06-02T07:59:04.537Z</time>
      </trkpt>
      <trkpt lat="44.60135" lon="3.28558">
        <ele>1023</ele>
        <time>2019-06-02T07:59:08.559Z</time>
      </trkpt>
      <trkpt lat="44.60132" lon="3.28553">
        <ele>1023</ele>
        <time>2019-06-02T07:59:13.537Z</time>
      </trkpt>
      <trkpt lat="44.60129" lon="3.28548">
        <ele>1023</ele>
        <time>2019-06-02T07:59:18.538Z</time>
      </trkpt>
      <trkpt lat="44.60128" lon="3.28546">
        <ele>1023</ele>
        <time>2019-06-02T07:59:23.548Z</time>
      </trkpt>
      <trkpt lat="44.60126" lon="3.28543">
        <ele>1023</ele>
        <time>2019-06-02T07:59:28.539Z</time>
      </trkpt>
      <trkpt lat="44.60124" lon="3.28543">
        <ele>1018</ele>
        <time>2019-06-02T07:59:42.549Z</time>
      </trkpt>
      <trkpt lat="44.60121" lon="3.28541">
        <ele>1019</ele>
        <time>2019-06-02T07:59:46.549Z</time>
      </trkpt>
      <trkpt lat="44.6012" lon="3.28539">
        <ele>1019</ele>
        <time>2019-06-02T07:59:51.542Z</time>
      </trkpt>
      <trkpt lat="44.60119" lon="3.28537">
        <ele>1019</ele>
        <time>2019-06-02T07:59:56.547Z</time>
      </trkpt>
      <trkpt lat="44.60115" lon="3.28534">
        <ele>1019</ele>
        <time>2019-06-02T08:00:00.540Z</time>
      </trkpt>
      <trkpt lat="44.60113" lon="3.28527">
        <ele>1019</ele>
        <time>2019-06-02T08:00:04.562Z</time>
      </trkpt>
      <trkpt lat="44.60113" lon="3.28521">
        <ele>1019</ele>
        <time>2019-06-02T08:00:42.537Z</time>
      </trkpt>
      <trkpt lat="44.60109" lon="3.28523">
        <ele>1019</ele>
        <time>2019-06-02T08:00:52.537Z</time>
      </trkpt>
      <trkpt lat="44.60105" lon="3.28522">
        <ele>1019</ele>
        <time>2019-06-02T08:00:57.551Z</time>
      </trkpt>
      <trkpt lat="44.60101" lon="3.28521">
        <ele>1019</ele>
        <time>2019-06-02T08:01:02.566Z</time>
      </trkpt>
      <trkpt lat="44.60096" lon="3.28519">
        <ele>1014</ele>
        <time>2019-06-02T08:01:07.576Z</time>
      </trkpt>
      <trkpt lat="44.60092" lon="3.28518">
        <ele>1014</ele>
        <time>2019-06-02T08:01:12.541Z</time>
      </trkpt>
      <trkpt lat="44.60087" lon="3.28521">
        <ele>1014</ele>
        <time>2019-06-02T08:01:17.539Z</time>
      </trkpt>
      <trkpt lat="44.60086" lon="3.2852">
        <ele>1014</ele>
        <time>2019-06-02T08:01:30.567Z</time>
      </trkpt>
      <trkpt lat="44.60081" lon="3.28518">
        <ele>1014</ele>
        <time>2019-06-02T08:01:40.544Z</time>
      </trkpt>
      <trkpt lat="44.60076" lon="3.28516">
        <ele>1014</ele>
        <time>2019-06-02T08:01:45.545Z</time>
      </trkpt>
      <trkpt lat="44.60074" lon="3.28515">
        <ele>1014</ele>
        <time>2019-06-02T08:01:49.547Z</time>
      </trkpt>
      <trkpt lat="44.60074" lon="3.28514">
        <ele>1014</ele>
        <time>2019-06-02T08:01:54.536Z</time>
      </trkpt>
      <trkpt lat="44.60068" lon="3.2851">
        <ele>1008</ele>
        <time>2019-06-02T08:02:41.534Z</time>
      </trkpt>
      <trkpt lat="44.60055" lon="3.28505">
        <ele>1008</ele>
        <time>2019-06-02T08:03:10.540Z</time>
      </trkpt>
      <trkpt lat="44.6005" lon="3.28504">
        <ele>1008</ele>
        <time>2019-06-02T08:03:15.539Z</time>
      </trkpt>
      <trkpt lat="44.60046" lon="3.28504">
        <ele>1008</ele>
        <time>2019-06-02T08:03:20.545Z</time>
      </trkpt>
      <trkpt lat="44.60043" lon="3.285">
        <ele>1008</ele>
        <time>2019-06-02T08:03:25.547Z</time>
      </trkpt>
      <trkpt lat="44.60042" lon="3.28499">
        <ele>1008</ele>
        <time>2019-06-02T08:03:30.541Z</time>
      </trkpt>
      <trkpt lat="44.6004" lon="3.28497">
        <ele>1003</ele>
        <time>2019-06-02T08:03:34.549Z</time>
      </trkpt>
      <trkpt lat="44.60038" lon="3.28494">
        <ele>1003</ele>
        <time>2019-06-02T08:03:39.541Z</time>
      </trkpt>
      <trkpt lat="44.60037" lon="3.28493">
        <ele>1003</ele>
        <time>2019-06-02T08:03:43.562Z</time>
      </trkpt>
      <trkpt lat="44.60035" lon="3.28491">
        <ele>1003</ele>
        <time>2019-06-02T08:03:57.546Z</time>
      </trkpt>
      <trkpt lat="44.60033" lon="3.28488">
        <ele>1003</ele>
        <time>2019-06-02T08:04:07.544Z</time>
      </trkpt>
      <trkpt lat="44.6003" lon="3.28483">
        <ele>1000</ele>
        <time>2019-06-02T08:04:12.534Z</time>
      </trkpt>
      <trkpt lat="44.60029" lon="3.28485">
        <ele>1000</ele>
        <time>2019-06-02T08:12:46.528Z</time>
      </trkpt>
      <trkpt lat="44.6003" lon="3.28487">
        <ele>1003</ele>
        <time>2019-06-02T08:12:51.533Z</time>
      </trkpt>
      <trkpt lat="44.60032" lon="3.2849">
        <ele>1003</ele>
        <time>2019-06-02T08:12:56.534Z</time>
      </trkpt>
      <trkpt lat="44.60034" lon="3.28492">
        <ele>1003</ele>
        <time>2019-06-02T08:13:00.550Z</time>
      </trkpt>
      <trkpt lat="44.60037" lon="3.28494">
        <ele>1003</ele>
        <time>2019-06-02T08:13:05.534Z</time>
      </trkpt>
      <trkpt lat="44.60037" lon="3.28495">
        <ele>1003</ele>
        <time>2019-06-02T08:13:10.542Z</time>
      </trkpt>
      <trkpt lat="44.6004" lon="3.28498">
        <ele>1003</ele>
        <time>2019-06-02T08:13:15.547Z</time>
      </trkpt>
      <trkpt lat="44.60044" lon="3.28501">
        <ele>1008</ele>
        <time>2019-06-02T08:13:20.540Z</time>
      </trkpt>
      <trkpt lat="44.60048" lon="3.28503">
        <ele>1008</ele>
        <time>2019-06-02T08:13:25.539Z</time>
      </trkpt>
      <trkpt lat="44.60049" lon="3.28504">
        <ele>1008</ele>
        <time>2019-06-02T08:13:30.517Z</time>
      </trkpt>
      <trkpt lat="44.6005" lon="3.28504">
        <ele>1008</ele>
        <time>2019-06-02T08:14:07.535Z</time>
      </trkpt>
      <trkpt lat="44.6005" lon="3.28505">
        <ele>1008</ele>
        <time>2019-06-02T08:14:11.543Z</time>
      </trkpt>
      <trkpt lat="44.60055" lon="3.2851">
        <ele>1008</ele>
        <time>2019-06-02T08:14:20.549Z</time>
      </trkpt>
      <trkpt lat="44.60057" lon="3.28513">
        <ele>1008</ele>
        <time>2019-06-02T08:14:38.542Z</time>
      </trkpt>
      <trkpt lat="44.60059" lon="3.28514">
        <ele>1009</ele>
        <time>2019-06-02T08:14:43.541Z</time>
      </trkpt>
      <trkpt lat="44.60062" lon="3.28515">
        <ele>1009</ele>
        <time>2019-06-02T08:14:48.546Z</time>
      </trkpt>
      <trkpt lat="44.60068" lon="3.28519">
        <ele>1009</ele>
        <time>2019-06-02T08:14:57.565Z</time>
      </trkpt>
      <trkpt lat="44.60072" lon="3.28522">
        <ele>1014</ele>
        <time>2019-06-02T08:15:02.566Z</time>
      </trkpt>
      <trkpt lat="44.60075" lon="3.28525">
        <ele>1014</ele>
        <time>2019-06-02T08:15:07.536Z</time>
      </trkpt>
      <trkpt lat="44.60077" lon="3.28526">
        <ele>1014</ele>
        <time>2019-06-02T08:15:11.553Z</time>
      </trkpt>
      <trkpt lat="44.60084" lon="3.28522">
        <ele>1014</ele>
        <time>2019-06-02T08:15:31.568Z</time>
      </trkpt>
      <trkpt lat="44.60091" lon="3.28523">
        <ele>1014</ele>
        <time>2019-06-02T08:15:36.536Z</time>
      </trkpt>
      <trkpt lat="44.60096" lon="3.28524">
        <ele>1014</ele>
        <time>2019-06-02T08:15:40.557Z</time>
      </trkpt>
      <trkpt lat="44.601" lon="3.28528">
        <ele>1019</ele>
        <time>2019-06-02T08:15:45.540Z</time>
      </trkpt>
      <trkpt lat="44.60106" lon="3.28533">
        <ele>1019</ele>
        <time>2019-06-02T08:15:50.542Z</time>
      </trkpt>
      <trkpt lat="44.6011" lon="3.28539">
        <ele>1019</ele>
        <time>2019-06-02T08:15:54.581Z</time>
      </trkpt>
      <trkpt lat="44.60116" lon="3.28545">
        <ele>1018</ele>
        <time>2019-06-02T08:15:59.544Z</time>
      </trkpt>
      <trkpt lat="44.60119" lon="3.28552">
        <ele>1018</ele>
        <time>2019-06-02T08:16:04.547Z</time>
      </trkpt>
      <trkpt lat="44.60122" lon="3.28554">
        <ele>1018</ele>
        <time>2019-06-02T08:16:09.540Z</time>
      </trkpt>
      <trkpt lat="44.60129" lon="3.28559">
        <ele>1023</ele>
        <time>2019-06-02T08:16:14.546Z</time>
      </trkpt>
      <trkpt lat="44.60136" lon="3.28562">
        <ele>1023</ele>
        <time>2019-06-02T08:16:19.536Z</time>
      </trkpt>
      <trkpt lat="44.60143" lon="3.28565">
        <ele>1023</ele>
        <time>2019-06-02T08:16:23.538Z</time>
      </trkpt>
      <trkpt lat="44.60145" lon="3.28568">
        <ele>1023</ele>
        <time>2019-06-02T08:16:28.536Z</time>
      </trkpt>
      <trkpt lat="44.6015" lon="3.2857">
        <ele>1019</ele>
        <time>2019-06-02T08:16:32.540Z</time>
      </trkpt>
      <trkpt lat="44.60157" lon="3.28573">
        <ele>1022</ele>
        <time>2019-06-02T08:16:37.541Z</time>
      </trkpt>
      <trkpt lat="44.60163" lon="3.28574">
        <ele>1022</ele>
        <time>2019-06-02T08:16:42.519Z</time>
      </trkpt>
      <trkpt lat="44.60169" lon="3.28575">
        <ele>1022</ele>
        <time>2019-06-02T08:16:46.543Z</time>
      </trkpt>
      <trkpt lat="44.60175" lon="3.28576">
        <ele>1022</ele>
        <time>2019-06-02T08:16:50.551Z</time>
      </trkpt>
      <trkpt lat="44.60181" lon="3.28576">
        <ele>1022</ele>
        <time>2019-06-02T08:16:55.540Z</time>
      </trkpt>
      <trkpt lat="44.60187" lon="3.28577">
        <ele>1022</ele>
        <time>2019-06-02T08:17:00.543Z</time>
      </trkpt>
      <trkpt lat="44.60193" lon="3.28578">
        <ele>1022</ele>
        <time>2019-06-02T08:17:05.542Z</time>
      </trkpt>
      <trkpt lat="44.60197" lon="3.28579">
        <ele>1022</ele>
        <time>2019-06-02T08:17:10.540Z</time>
      </trkpt>
      <trkpt lat="44.60202" lon="3.2858">
        <ele>1022</ele>
        <time>2019-06-02T08:17:15.540Z</time>
      </trkpt>
      <trkpt lat="44.60208" lon="3.28578">
        <ele>1022</ele>
        <time>2019-06-02T08:17:20.549Z</time>
      </trkpt>
      <trkpt lat="44.60215" lon="3.28576">
        <ele>1024</ele>
        <time>2019-06-02T08:17:25.552Z</time>
      </trkpt>
      <trkpt lat="44.60221" lon="3.28573">
        <ele>1024</ele>
        <time>2019-06-02T08:17:30.561Z</time>
      </trkpt>
      <trkpt lat="44.60226" lon="3.28567">
        <ele>1028</ele>
        <time>2019-06-02T08:17:35.565Z</time>
      </trkpt>
      <trkpt lat="44.60232" lon="3.28562">
        <ele>1028</ele>
        <time>2019-06-02T08:17:40.539Z</time>
      </trkpt>
      <trkpt lat="44.60238" lon="3.28559">
        <ele>1031</ele>
        <time>2019-06-02T08:17:45.536Z</time>
      </trkpt>
      <trkpt lat="44.60244" lon="3.28557">
        <ele>1031</ele>
        <time>2019-06-02T08:17:49.539Z</time>
      </trkpt>
      <trkpt lat="44.60248" lon="3.28553">
        <ele>1031</ele>
        <time>2019-06-02T08:17:54.545Z</time>
      </trkpt>
      <trkpt lat="44.60253" lon="3.2855">
        <ele>1031</ele>
        <time>2019-06-02T08:17:59.540Z</time>
      </trkpt>
      <trkpt lat="44.60257" lon="3.28547">
        <ele>1031</ele>
        <time>2019-06-02T08:18:04.539Z</time>
      </trkpt>
      <trkpt lat="44.60261" lon="3.28545">
        <ele>1031</ele>
        <time>2019-06-02T08:18:08.566Z</time>
      </trkpt>
      <trkpt lat="44.60265" lon="3.28542">
        <ele>1034</ele>
        <time>2019-06-02T08:18:13.540Z</time>
      </trkpt>
      <trkpt lat="44.6027" lon="3.2854">
        <ele>1035</ele>
        <time>2019-06-02T08:18:18.570Z</time>
      </trkpt>
      <trkpt lat="44.60275" lon="3.28537">
        <ele>1035</ele>
        <time>2019-06-02T08:18:23.530Z</time>
      </trkpt>
      <trkpt lat="44.60279" lon="3.28534">
        <ele>1035</ele>
        <time>2019-06-02T08:18:27.540Z</time>
      </trkpt>
      <trkpt lat="44.60283" lon="3.28532">
        <ele>1035</ele>
        <time>2019-06-02T08:18:31.564Z</time>
      </trkpt>
      <trkpt lat="44.60287" lon="3.28531">
        <ele>1035</ele>
        <time>2019-06-02T08:18:35.532Z</time>
      </trkpt>
      <trkpt lat="44.60291" lon="3.2853">
        <ele>1035</ele>
        <time>2019-06-02T08:18:40.566Z</time>
      </trkpt>
      <trkpt lat="44.60293" lon="3.28527">
        <ele>1039</ele>
        <time>2019-06-02T08:18:45.543Z</time>
      </trkpt>
      <trkpt lat="44.60297" lon="3.28524">
        <ele>1039</ele>
        <time>2019-06-02T08:18:50.540Z</time>
      </trkpt>
      <trkpt lat="44.60301" lon="3.28519">
        <ele>1039</ele>
        <time>2019-06-02T08:18:55.540Z</time>
      </trkpt>
      <trkpt lat="44.60305" lon="3.28515">
        <ele>1039</ele>
        <time>2019-06-02T08:19:00.538Z</time>
      </trkpt>
      <trkpt lat="44.60307" lon="3.28513">
        <ele>1039</ele>
        <time>2019-06-02T08:19:04.578Z</time>
      </trkpt>
      <trkpt lat="44.60308" lon="3.28513">
        <ele>1039</ele>
        <time>2019-06-02T08:19:19.535Z</time>
      </trkpt>
      <trkpt lat="44.60309" lon="3.28512">
        <ele>1039</ele>
        <time>2019-06-02T08:19:28.547Z</time>
      </trkpt>
      <trkpt lat="44.60312" lon="3.28507">
        <ele>1039</ele>
        <time>2019-06-02T08:19:33.541Z</time>
      </trkpt>
      <trkpt lat="44.60315" lon="3.28503">
        <ele>1039</ele>
        <time>2019-06-02T08:19:38.551Z</time>
      </trkpt>
      <trkpt lat="44.60318" lon="3.28499">
        <ele>1039</ele>
        <time>2019-06-02T08:19:43.540Z</time>
      </trkpt>
      <trkpt lat="44.60322" lon="3.28495">
        <ele>1043</ele>
        <time>2019-06-02T08:19:48.600Z</time>
      </trkpt>
      <trkpt lat="44.60326" lon="3.28492">
        <ele>1043</ele>
        <time>2019-06-02T08:19:53.575Z</time>
      </trkpt>
      <trkpt lat="44.60327" lon="3.28491">
        <ele>1043</ele>
        <time>2019-06-02T08:19:58.547Z</time>
      </trkpt>
      <trkpt lat="44.60328" lon="3.2849">
        <ele>1043</ele>
        <time>2019-06-02T08:20:22.567Z</time>
      </trkpt>
      <trkpt lat="44.60332" lon="3.28484">
        <ele>1043</ele>
        <time>2019-06-02T08:20:27.536Z</time>
      </trkpt>
      <trkpt lat="44.60335" lon="3.2848">
        <ele>1043</ele>
        <time>2019-06-02T08:20:31.549Z</time>
      </trkpt>
      <trkpt lat="44.60337" lon="3.28478">
        <ele>1043</ele>
        <time>2019-06-02T08:20:36.541Z</time>
      </trkpt>
      <trkpt lat="44.60338" lon="3.28477">
        <ele>1043</ele>
        <time>2019-06-02T08:20:41.538Z</time>
      </trkpt>
      <trkpt lat="44.60341" lon="3.28475">
        <ele>1043</ele>
        <time>2019-06-02T08:20:45.533Z</time>
      </trkpt>
      <trkpt lat="44.60344" lon="3.28472">
        <ele>1043</ele>
        <time>2019-06-02T08:20:50.536Z</time>
      </trkpt>
      <trkpt lat="44.60348" lon="3.28466">
        <ele>1046</ele>
        <time>2019-06-02T08:20:55.538Z</time>
      </trkpt>
      <trkpt lat="44.60351" lon="3.28461">
        <ele>1046</ele>
        <time>2019-06-02T08:21:00.536Z</time>
      </trkpt>
      <trkpt lat="44.60353" lon="3.28457">
        <ele>1044</ele>
        <time>2019-06-02T08:21:05.543Z</time>
      </trkpt>
      <trkpt lat="44.60356" lon="3.28452">
        <ele>1044</ele>
        <time>2019-06-02T08:21:10.529Z</time>
      </trkpt>
      <trkpt lat="44.60357" lon="3.28449">
        <ele>1044</ele>
        <time>2019-06-02T08:21:14.547Z</time>
      </trkpt>
      <trkpt lat="44.6036" lon="3.28444">
        <ele>1044</ele>
        <time>2019-06-02T08:21:19.534Z</time>
      </trkpt>
      <trkpt lat="44.60364" lon="3.2844">
        <ele>1044</ele>
        <time>2019-06-02T08:21:24.569Z</time>
      </trkpt>
      <trkpt lat="44.60369" lon="3.28436">
        <ele>1044</ele>
        <time>2019-06-02T08:21:29.550Z</time>
      </trkpt>
      <trkpt lat="44.60374" lon="3.2843">
        <ele>1041</ele>
        <time>2019-06-02T08:21:34.548Z</time>
      </trkpt>
      <trkpt lat="44.60377" lon="3.28427">
        <ele>1045</ele>
        <time>2019-06-02T08:21:39.527Z</time>
      </trkpt>
      <trkpt lat="44.6038" lon="3.28422">
        <ele>1045</ele>
        <time>2019-06-02T08:21:43.550Z</time>
      </trkpt>
      <trkpt lat="44.60385" lon="3.28415">
        <ele>1045</ele>
        <time>2019-06-02T08:21:48.515Z</time>
      </trkpt>
      <trkpt lat="44.60387" lon="3.28411">
        <ele>1045</ele>
        <time>2019-06-02T08:21:52.533Z</time>
      </trkpt>
      <trkpt lat="44.6039" lon="3.28408">
        <ele>1045</ele>
        <time>2019-06-02T08:21:57.541Z</time>
      </trkpt>
      <trkpt lat="44.60392" lon="3.28403">
        <ele>1045</ele>
        <time>2019-06-02T08:22:02.534Z</time>
      </trkpt>
      <trkpt lat="44.60396" lon="3.28399">
        <ele>1043</ele>
        <time>2019-06-02T08:22:07.535Z</time>
      </trkpt>
      <trkpt lat="44.604" lon="3.28395">
        <ele>1043</ele>
        <time>2019-06-02T08:22:11.543Z</time>
      </trkpt>
      <trkpt lat="44.60403" lon="3.28391">
        <ele>1047</ele>
        <time>2019-06-02T08:22:16.532Z</time>
      </trkpt>
      <trkpt lat="44.60407" lon="3.2839">
        <ele>1047</ele>
        <time>2019-06-02T08:22:21.538Z</time>
      </trkpt>
      <trkpt lat="44.60411" lon="3.28388">
        <ele>1047</ele>
        <time>2019-06-02T08:22:26.571Z</time>
      </trkpt>
      <trkpt lat="44.60415" lon="3.28387">
        <ele>1047</ele>
        <time>2019-06-02T08:22:31.551Z</time>
      </trkpt>
      <trkpt lat="44.60421" lon="3.28385">
        <ele>1047</ele>
        <time>2019-06-02T08:22:36.540Z</time>
      </trkpt>
      <trkpt lat="44.60427" lon="3.28382">
        <ele>1047</ele>
        <time>2019-06-02T08:22:40.541Z</time>
      </trkpt>
      <trkpt lat="44.60429" lon="3.28382">
        <ele>1047</ele>
        <time>2019-06-02T08:22:45.537Z</time>
      </trkpt>
      <trkpt lat="44.60431" lon="3.28378">
        <ele>1051</ele>
        <time>2019-06-02T08:23:14.538Z</time>
      </trkpt>
      <trkpt lat="44.60434" lon="3.28374">
        <ele>1051</ele>
        <time>2019-06-02T08:23:19.538Z</time>
      </trkpt>
      <trkpt lat="44.60437" lon="3.2837">
        <ele>1051</ele>
        <time>2019-06-02T08:23:24.516Z</time>
      </trkpt>
      <trkpt lat="44.6044" lon="3.28364">
        <ele>1051</ele>
        <time>2019-06-02T08:23:28.539Z</time>
      </trkpt>
      <trkpt lat="44.60445" lon="3.28358">
        <ele>1051</ele>
        <time>2019-06-02T08:23:33.542Z</time>
      </trkpt>
      <trkpt lat="44.60447" lon="3.28353">
        <ele>1051</ele>
        <time>2019-06-02T08:23:37.542Z</time>
      </trkpt>
      <trkpt lat="44.60449" lon="3.28344">
        <ele>1050</ele>
        <time>2019-06-02T08:23:42.545Z</time>
      </trkpt>
      <trkpt lat="44.60452" lon="3.2834">
        <ele>1050</ele>
        <time>2019-06-02T08:23:47.540Z</time>
      </trkpt>
      <trkpt lat="44.60455" lon="3.28335">
        <ele>1050</ele>
        <time>2019-06-02T08:23:52.565Z</time>
      </trkpt>
      <trkpt lat="44.60459" lon="3.2833">
        <ele>1056</ele>
        <time>2019-06-02T08:23:57.536Z</time>
      </trkpt>
      <trkpt lat="44.6046" lon="3.28325">
        <ele>1056</ele>
        <time>2019-06-02T08:24:06.540Z</time>
      </trkpt>
      <trkpt lat="44.60462" lon="3.2832">
        <ele>1056</ele>
        <time>2019-06-02T08:24:11.538Z</time>
      </trkpt>
      <trkpt lat="44.60463" lon="3.28316">
        <ele>1054</ele>
        <time>2019-06-02T08:24:16.540Z</time>
      </trkpt>
      <trkpt lat="44.60465" lon="3.2831">
        <ele>1054</ele>
        <time>2019-06-02T08:24:21.566Z</time>
      </trkpt>
      <trkpt lat="44.60466" lon="3.28301">
        <ele>1054</ele>
        <time>2019-06-02T08:24:26.539Z</time>
      </trkpt>
      <trkpt lat="44.60468" lon="3.28294">
        <ele>1054</ele>
        <time>2019-06-02T08:24:30.547Z</time>
      </trkpt>
      <trkpt lat="44.6047" lon="3.28285">
        <ele>1052</ele>
        <time>2019-06-02T08:24:35.539Z</time>
      </trkpt>
      <trkpt lat="44.60471" lon="3.28277">
        <ele>1052</ele>
        <time>2019-06-02T08:24:40.542Z</time>
      </trkpt>
      <trkpt lat="44.60473" lon="3.28272">
        <ele>1052</ele>
        <time>2019-06-02T08:24:44.562Z</time>
      </trkpt>
      <trkpt lat="44.60474" lon="3.28267">
        <ele>1052</ele>
        <time>2019-06-02T08:24:49.540Z</time>
      </trkpt>
      <trkpt lat="44.60476" lon="3.28261">
        <ele>1049</ele>
        <time>2019-06-02T08:24:54.567Z</time>
      </trkpt>
      <trkpt lat="44.60476" lon="3.28259">
        <ele>1049</ele>
        <time>2019-06-02T08:25:08.541Z</time>
      </trkpt>
      <trkpt lat="44.60477" lon="3.28257">
        <ele>1049</ele>
        <time>2019-06-02T08:25:13.540Z</time>
      </trkpt>
      <trkpt lat="44.60477" lon="3.28254">
        <ele>1049</ele>
        <time>2019-06-02T08:25:17.570Z</time>
      </trkpt>
      <trkpt lat="44.60479" lon="3.28249">
        <ele>1049</ele>
        <time>2019-06-02T08:25:22.539Z</time>
      </trkpt>
      <trkpt lat="44.6048" lon="3.28243">
        <ele>1049</ele>
        <time>2019-06-02T08:25:26.563Z</time>
      </trkpt>
      <trkpt lat="44.60482" lon="3.28237">
        <ele>1049</ele>
        <time>2019-06-02T08:25:31.540Z</time>
      </trkpt>
      <trkpt lat="44.60484" lon="3.28233">
        <ele>1045</ele>
        <time>2019-06-02T08:25:36.541Z</time>
      </trkpt>
      <trkpt lat="44.60486" lon="3.28227">
        <ele>1050</ele>
        <time>2019-06-02T08:25:41.532Z</time>
      </trkpt>
      <trkpt lat="44.60489" lon="3.28222">
        <ele>1050</ele>
        <time>2019-06-02T08:25:45.540Z</time>
      </trkpt>
      <trkpt lat="44.60492" lon="3.28216">
        <ele>1050</ele>
        <time>2019-06-02T08:25:50.542Z</time>
      </trkpt>
      <trkpt lat="44.60495" lon="3.28209">
        <ele>1050</ele>
        <time>2019-06-02T08:25:55.538Z</time>
      </trkpt>
      <trkpt lat="44.60498" lon="3.28203">
        <ele>1047</ele>
        <time>2019-06-02T08:26:00.539Z</time>
      </trkpt>
      <trkpt lat="44.60502" lon="3.28198">
        <ele>1047</ele>
        <time>2019-06-02T08:26:05.567Z</time>
      </trkpt>
      <trkpt lat="44.60505" lon="3.28193">
        <ele>1047</ele>
        <time>2019-06-02T08:26:10.539Z</time>
      </trkpt>
      <trkpt lat="44.60508" lon="3.28188">
        <ele>1047</ele>
        <time>2019-06-02T08:26:14.550Z</time>
      </trkpt>
      <trkpt lat="44.6051" lon="3.28184">
        <ele>1047</ele>
        <time>2019-06-02T08:26:19.517Z</time>
      </trkpt>
      <trkpt lat="44.60513" lon="3.28179">
        <ele>1043</ele>
        <time>2019-06-02T08:26:23.571Z</time>
      </trkpt>
      <trkpt lat="44.60516" lon="3.28173">
        <ele>1047</ele>
        <time>2019-06-02T08:26:28.542Z</time>
      </trkpt>
      <trkpt lat="44.6052" lon="3.28165">
        <ele>1047</ele>
        <time>2019-06-02T08:26:33.563Z</time>
      </trkpt>
      <trkpt lat="44.60524" lon="3.28159">
        <ele>1047</ele>
        <time>2019-06-02T08:26:38.542Z</time>
      </trkpt>
      <trkpt lat="44.60526" lon="3.28151">
        <ele>1043</ele>
        <time>2019-06-02T08:26:43.536Z</time>
      </trkpt>
      <trkpt lat="44.60528" lon="3.28145">
        <ele>1043</ele>
        <time>2019-06-02T08:26:48.536Z</time>
      </trkpt>
      <trkpt lat="44.60531" lon="3.28139">
        <ele>1043</ele>
        <time>2019-06-02T08:26:52.540Z</time>
      </trkpt>
      <trkpt lat="44.60534" lon="3.28133">
        <ele>1043</ele>
        <time>2019-06-02T08:26:57.539Z</time>
      </trkpt>
      <trkpt lat="44.60537" lon="3.28126">
        <ele>1043</ele>
        <time>2019-06-02T08:27:02.573Z</time>
      </trkpt>
      <trkpt lat="44.60541" lon="3.28119">
        <ele>1038</ele>
        <time>2019-06-02T08:27:07.539Z</time>
      </trkpt>
      <trkpt lat="44.60544" lon="3.28111">
        <ele>1045</ele>
        <time>2019-06-02T08:27:12.538Z</time>
      </trkpt>
      <trkpt lat="44.60546" lon="3.28104">
        <ele>1045</ele>
        <time>2019-06-02T08:27:17.538Z</time>
      </trkpt>
      <trkpt lat="44.6055" lon="3.28098">
        <ele>1045</ele>
        <time>2019-06-02T08:27:22.543Z</time>
      </trkpt>
      <trkpt lat="44.60554" lon="3.28093">
        <ele>1041</ele>
        <time>2019-06-02T08:27:27.563Z</time>
      </trkpt>
      <trkpt lat="44.60557" lon="3.28089">
        <ele>1041</ele>
        <time>2019-06-02T08:27:32.559Z</time>
      </trkpt>
      <trkpt lat="44.6056" lon="3.28084">
        <ele>1041</ele>
        <time>2019-06-02T08:27:37.535Z</time>
      </trkpt>
      <trkpt lat="44.60562" lon="3.28079">
        <ele>1041</ele>
        <time>2019-06-02T08:27:42.539Z</time>
      </trkpt>
      <trkpt lat="44.60565" lon="3.28074">
        <ele>1041</ele>
        <time>2019-06-02T08:27:46.564Z</time>
      </trkpt>
      <trkpt lat="44.60568" lon="3.28067">
        <ele>1037</ele>
        <time>2019-06-02T08:27:51.540Z</time>
      </trkpt>
      <trkpt lat="44.60572" lon="3.2806">
        <ele>1042</ele>
        <time>2019-06-02T08:27:56.542Z</time>
      </trkpt>
      <trkpt lat="44.60575" lon="3.28054">
        <ele>1042</ele>
        <time>2019-06-02T08:28:01.540Z</time>
      </trkpt>
      <trkpt lat="44.60579" lon="3.28049">
        <ele>1042</ele>
        <time>2019-06-02T08:28:06.528Z</time>
      </trkpt>
      <trkpt lat="44.60583" lon="3.28045">
        <ele>1042</ele>
        <time>2019-06-02T08:28:10.536Z</time>
      </trkpt>
      <trkpt lat="44.60586" lon="3.2804">
        <ele>1038</ele>
        <time>2019-06-02T08:28:15.541Z</time>
      </trkpt>
      <trkpt lat="44.60589" lon="3.28036">
        <ele>1038</ele>
        <time>2019-06-02T08:28:19.567Z</time>
      </trkpt>
      <trkpt lat="44.60592" lon="3.28031">
        <ele>1038</ele>
        <time>2019-06-02T08:28:24.566Z</time>
      </trkpt>
      <trkpt lat="44.60595" lon="3.28025">
        <ele>1038</ele>
        <time>2019-06-02T08:28:29.532Z</time>
      </trkpt>
      <trkpt lat="44.60598" lon="3.28021">
        <ele>1043</ele>
        <time>2019-06-02T08:28:33.565Z</time>
      </trkpt>
      <trkpt lat="44.606" lon="3.28016">
        <ele>1043</ele>
        <time>2019-06-02T08:28:38.536Z</time>
      </trkpt>
      <trkpt lat="44.60603" lon="3.2801">
        <ele>1041</ele>
        <time>2019-06-02T08:28:43.536Z</time>
      </trkpt>
      <trkpt lat="44.60607" lon="3.28006">
        <ele>1041</ele>
        <time>2019-06-02T08:28:47.539Z</time>
      </trkpt>
      <trkpt lat="44.6061" lon="3.28">
        <ele>1041</ele>
        <time>2019-06-02T08:28:52.540Z</time>
      </trkpt>
      <trkpt lat="44.60612" lon="3.27993">
        <ele>1041</ele>
        <time>2019-06-02T08:28:57.532Z</time>
      </trkpt>
      <trkpt lat="44.60614" lon="3.27989">
        <ele>1041</ele>
        <time>2019-06-02T08:29:01.565Z</time>
      </trkpt>
      <trkpt lat="44.60616" lon="3.27983">
        <ele>1036</ele>
        <time>2019-06-02T08:29:06.534Z</time>
      </trkpt>
      <trkpt lat="44.60619" lon="3.2798">
        <ele>1036</ele>
        <time>2019-06-02T08:29:10.541Z</time>
      </trkpt>
      <trkpt lat="44.60623" lon="3.27974">
        <ele>1036</ele>
        <time>2019-06-02T08:29:15.566Z</time>
      </trkpt>
      <trkpt lat="44.60626" lon="3.27968">
        <ele>1043</ele>
        <time>2019-06-02T08:29:20.538Z</time>
      </trkpt>
      <trkpt lat="44.60628" lon="3.27962">
        <ele>1043</ele>
        <time>2019-06-02T08:29:25.538Z</time>
      </trkpt>
      <trkpt lat="44.6063" lon="3.27954">
        <ele>1039</ele>
        <time>2019-06-02T08:29:30.538Z</time>
      </trkpt>
      <trkpt lat="44.60633" lon="3.27949">
        <ele>1039</ele>
        <time>2019-06-02T08:29:34.541Z</time>
      </trkpt>
      <trkpt lat="44.60635" lon="3.27943">
        <ele>1039</ele>
        <time>2019-06-02T08:29:39.572Z</time>
      </trkpt>
      <trkpt lat="44.60638" lon="3.27938">
        <ele>1039</ele>
        <time>2019-06-02T08:29:44.540Z</time>
      </trkpt>
      <trkpt lat="44.6064" lon="3.27932">
        <ele>1039</ele>
        <time>2019-06-02T08:29:49.538Z</time>
      </trkpt>
      <trkpt lat="44.60642" lon="3.27928">
        <ele>1035</ele>
        <time>2019-06-02T08:29:53.564Z</time>
      </trkpt>
      <trkpt lat="44.60642" lon="3.27925">
        <ele>1035</ele>
        <time>2019-06-02T08:29:58.535Z</time>
      </trkpt>
      <trkpt lat="44.60644" lon="3.27921">
        <ele>1035</ele>
        <time>2019-06-02T08:30:07.537Z</time>
      </trkpt>
      <trkpt lat="44.60646" lon="3.27916">
        <ele>1035</ele>
        <time>2019-06-02T08:30:11.542Z</time>
      </trkpt>
      <trkpt lat="44.60647" lon="3.27911">
        <ele>1035</ele>
        <time>2019-06-02T08:30:15.566Z</time>
      </trkpt>
      <trkpt lat="44.60649" lon="3.27906">
        <ele>1035</ele>
        <time>2019-06-02T08:30:19.572Z</time>
      </trkpt>
      <trkpt lat="44.60651" lon="3.27901">
        <ele>1031</ele>
        <time>2019-06-02T08:30:24.543Z</time>
      </trkpt>
      <trkpt lat="44.60654" lon="3.27896">
        <ele>1040</ele>
        <time>2019-06-02T08:30:29.542Z</time>
      </trkpt>
      <trkpt lat="44.60656" lon="3.2789">
        <ele>1040</ele>
        <time>2019-06-02T08:30:34.539Z</time>
      </trkpt>
      <trkpt lat="44.60658" lon="3.27883">
        <ele>1040</ele>
        <time>2019-06-02T08:30:39.537Z</time>
      </trkpt>
      <trkpt lat="44.6066" lon="3.27876">
        <ele>1040</ele>
        <time>2019-06-02T08:30:44.566Z</time>
      </trkpt>
      <trkpt lat="44.60661" lon="3.27869">
        <ele>1036</ele>
        <time>2019-06-02T08:30:49.537Z</time>
      </trkpt>
      <trkpt lat="44.60663" lon="3.27864">
        <ele>1036</ele>
        <time>2019-06-02T08:30:53.541Z</time>
      </trkpt>
      <trkpt lat="44.60665" lon="3.27858">
        <ele>1036</ele>
        <time>2019-06-02T08:30:58.541Z</time>
      </trkpt>
      <trkpt lat="44.60668" lon="3.27852">
        <ele>1036</ele>
        <time>2019-06-02T08:31:02.566Z</time>
      </trkpt>
      <trkpt lat="44.6067" lon="3.27847">
        <ele>1032</ele>
        <time>2019-06-02T08:31:07.533Z</time>
      </trkpt>
      <trkpt lat="44.60672" lon="3.27841">
        <ele>1032</ele>
        <time>2019-06-02T08:31:12.535Z</time>
      </trkpt>
      <trkpt lat="44.60676" lon="3.27836">
        <ele>1032</ele>
        <time>2019-06-02T08:31:17.540Z</time>
      </trkpt>
      <trkpt lat="44.60679" lon="3.2783">
        <ele>1032</ele>
        <time>2019-06-02T08:31:22.570Z</time>
      </trkpt>
      <trkpt lat="44.60682" lon="3.27822">
        <ele>1040</ele>
        <time>2019-06-02T08:31:27.537Z</time>
      </trkpt>
      <trkpt lat="44.60684" lon="3.27817">
        <ele>1035</ele>
        <time>2019-06-02T08:31:31.571Z</time>
      </trkpt>
      <trkpt lat="44.60686" lon="3.2781">
        <ele>1035</ele>
        <time>2019-06-02T08:31:36.539Z</time>
      </trkpt>
      <trkpt lat="44.60689" lon="3.27806">
        <ele>1035</ele>
        <time>2019-06-02T08:31:40.543Z</time>
      </trkpt>
      <trkpt lat="44.60691" lon="3.27802">
        <ele>1035</ele>
        <time>2019-06-02T08:31:44.566Z</time>
      </trkpt>
      <trkpt lat="44.60695" lon="3.27797">
        <ele>1035</ele>
        <time>2019-06-02T08:31:49.542Z</time>
      </trkpt>
      <trkpt lat="44.60698" lon="3.27792">
        <ele>1035</ele>
        <time>2019-06-02T08:31:53.566Z</time>
      </trkpt>
      <trkpt lat="44.60701" lon="3.27788">
        <ele>1030</ele>
        <time>2019-06-02T08:31:58.533Z</time>
      </trkpt>
      <trkpt lat="44.60704" lon="3.27782">
        <ele>1030</ele>
        <time>2019-06-02T08:32:03.540Z</time>
      </trkpt>
      <trkpt lat="44.60707" lon="3.27777">
        <ele>1030</ele>
        <time>2019-06-02T08:32:08.537Z</time>
      </trkpt>
      <trkpt lat="44.6071" lon="3.27773">
        <ele>1038</ele>
        <time>2019-06-02T08:32:12.541Z</time>
      </trkpt>
      <trkpt lat="44.60712" lon="3.27767">
        <ele>1038</ele>
        <time>2019-06-02T08:32:17.571Z</time>
      </trkpt>
      <trkpt lat="44.60716" lon="3.2776">
        <ele>1033</ele>
        <time>2019-06-02T08:32:22.569Z</time>
      </trkpt>
      <trkpt lat="44.60718" lon="3.27753">
        <ele>1033</ele>
        <time>2019-06-02T08:32:27.540Z</time>
      </trkpt>
      <trkpt lat="44.60721" lon="3.27747">
        <ele>1033</ele>
        <time>2019-06-02T08:32:32.539Z</time>
      </trkpt>
      <trkpt lat="44.60724" lon="3.27741">
        <ele>1033</ele>
        <time>2019-06-02T08:32:36.550Z</time>
      </trkpt>
      <trkpt lat="44.60727" lon="3.27735">
        <ele>1030</ele>
        <time>2019-06-02T08:32:41.540Z</time>
      </trkpt>
      <trkpt lat="44.6073" lon="3.27729">
        <ele>1030</ele>
        <time>2019-06-02T08:32:46.535Z</time>
      </trkpt>
      <trkpt lat="44.60733" lon="3.27723">
        <ele>1030</ele>
        <time>2019-06-02T08:32:51.538Z</time>
      </trkpt>
      <trkpt lat="44.60735" lon="3.27717">
        <ele>1030</ele>
        <time>2019-06-02T08:32:55.565Z</time>
      </trkpt>
      <trkpt lat="44.60738" lon="3.27711">
        <ele>1035</ele>
        <time>2019-06-02T08:33:00.539Z</time>
      </trkpt>
      <trkpt lat="44.6074" lon="3.27706">
        <ele>1031</ele>
        <time>2019-06-02T08:33:05.541Z</time>
      </trkpt>
      <trkpt lat="44.60743" lon="3.277">
        <ele>1031</ele>
        <time>2019-06-02T08:33:10.536Z</time>
      </trkpt>
      <trkpt lat="44.60746" lon="3.27695">
        <ele>1031</ele>
        <time>2019-06-02T08:33:15.538Z</time>
      </trkpt>
      <trkpt lat="44.6075" lon="3.27689">
        <ele>1031</ele>
        <time>2019-06-02T08:33:20.538Z</time>
      </trkpt>
      <trkpt lat="44.60752" lon="3.27683">
        <ele>1031</ele>
        <time>2019-06-02T08:33:25.543Z</time>
      </trkpt>
      <trkpt lat="44.60755" lon="3.27679">
        <ele>1027</ele>
        <time>2019-06-02T08:33:30.539Z</time>
      </trkpt>
      <trkpt lat="44.60759" lon="3.27677">
        <ele>1027</ele>
        <time>2019-06-02T08:33:35.541Z</time>
      </trkpt>
      <trkpt lat="44.60763" lon="3.27674">
        <ele>1027</ele>
        <time>2019-06-02T08:33:39.567Z</time>
      </trkpt>
      <trkpt lat="44.60767" lon="3.27671">
        <ele>1033</ele>
        <time>2019-06-02T08:33:44.561Z</time>
      </trkpt>
      <trkpt lat="44.60771" lon="3.27673">
        <ele>1033</ele>
        <time>2019-06-02T08:33:49.541Z</time>
      </trkpt>
      <trkpt lat="44.60773" lon="3.27669">
        <ele>1033</ele>
        <time>2019-06-02T08:33:54.536Z</time>
      </trkpt>
      <trkpt lat="44.60775" lon="3.27665">
        <ele>1033</ele>
        <time>2019-06-02T08:33:58.539Z</time>
      </trkpt>
      <trkpt lat="44.60779" lon="3.27659">
        <ele>1033</ele>
        <time>2019-06-02T08:34:03.540Z</time>
      </trkpt>
      <trkpt lat="44.60783" lon="3.27653">
        <ele>1029</ele>
        <time>2019-06-02T08:34:08.541Z</time>
      </trkpt>
      <trkpt lat="44.60789" lon="3.27648">
        <ele>1029</ele>
        <time>2019-06-02T08:34:13.516Z</time>
      </trkpt>
      <trkpt lat="44.60792" lon="3.27643">
        <ele>1033</ele>
        <time>2019-06-02T08:34:17.539Z</time>
      </trkpt>
      <trkpt lat="44.60795" lon="3.27638">
        <ele>1033</ele>
        <time>2019-06-02T08:34:22.567Z</time>
      </trkpt>
      <trkpt lat="44.60798" lon="3.27633">
        <ele>1033</ele>
        <time>2019-06-02T08:34:27.539Z</time>
      </trkpt>
      <trkpt lat="44.60802" lon="3.27628">
        <ele>1033</ele>
        <time>2019-06-02T08:34:32.532Z</time>
      </trkpt>
      <trkpt lat="44.60805" lon="3.27623">
        <ele>1028</ele>
        <time>2019-06-02T08:34:37.533Z</time>
      </trkpt>
      <trkpt lat="44.60807" lon="3.27617">
        <ele>1028</ele>
        <time>2019-06-02T08:34:41.539Z</time>
      </trkpt>
      <trkpt lat="44.60809" lon="3.27613">
        <ele>1028</ele>
        <time>2019-06-02T08:34:45.571Z</time>
      </trkpt>
      <trkpt lat="44.60814" lon="3.27608">
        <ele>1028</ele>
        <time>2019-06-02T08:34:50.541Z</time>
      </trkpt>
      <trkpt lat="44.60818" lon="3.27602">
        <ele>1028</ele>
        <time>2019-06-02T08:34:55.540Z</time>
      </trkpt>
      <trkpt lat="44.60821" lon="3.27598">
        <ele>1031</ele>
        <time>2019-06-02T08:35:00.538Z</time>
      </trkpt>
      <trkpt lat="44.60825" lon="3.27594">
        <ele>1025</ele>
        <time>2019-06-02T08:35:05.564Z</time>
      </trkpt>
      <trkpt lat="44.6083" lon="3.2759">
        <ele>1025</ele>
        <time>2019-06-02T08:35:10.534Z</time>
      </trkpt>
      <trkpt lat="44.60833" lon="3.27587">
        <ele>1025</ele>
        <time>2019-06-02T08:35:14.547Z</time>
      </trkpt>
      <trkpt lat="44.60837" lon="3.27581">
        <ele>1025</ele>
        <time>2019-06-02T08:35:19.539Z</time>
      </trkpt>
      <trkpt lat="44.60842" lon="3.27578">
        <ele>1025</ele>
        <time>2019-06-02T08:35:24.540Z</time>
      </trkpt>
      <trkpt lat="44.60847" lon="3.27576">
        <ele>1025</ele>
        <time>2019-06-02T08:35:29.540Z</time>
      </trkpt>
      <trkpt lat="44.60852" lon="3.27572">
        <ele>1029</ele>
        <time>2019-06-02T08:35:34.540Z</time>
      </trkpt>
      <trkpt lat="44.60856" lon="3.27567">
        <ele>1023</ele>
        <time>2019-06-02T08:35:39.571Z</time>
      </trkpt>
      <trkpt lat="44.6086" lon="3.27561">
        <ele>1023</ele>
        <time>2019-06-02T08:35:44.540Z</time>
      </trkpt>
      <trkpt lat="44.60863" lon="3.27558">
        <ele>1023</ele>
        <time>2019-06-02T08:35:48.549Z</time>
      </trkpt>
      <trkpt lat="44.60868" lon="3.27555">
        <ele>1023</ele>
        <time>2019-06-02T08:35:53.532Z</time>
      </trkpt>
      <trkpt lat="44.60872" lon="3.27551">
        <ele>1023</ele>
        <time>2019-06-02T08:35:57.572Z</time>
      </trkpt>
      <trkpt lat="44.60876" lon="3.27546">
        <ele>1028</ele>
        <time>2019-06-02T08:36:02.533Z</time>
      </trkpt>
      <trkpt lat="44.60881" lon="3.27539">
        <ele>1024</ele>
        <time>2019-06-02T08:36:07.541Z</time>
      </trkpt>
      <trkpt lat="44.60885" lon="3.27533">
        <ele>1024</ele>
        <time>2019-06-02T08:36:12.530Z</time>
      </trkpt>
      <trkpt lat="44.60889" lon="3.27526">
        <ele>1024</ele>
        <time>2019-06-02T08:36:17.545Z</time>
      </trkpt>
      <trkpt lat="44.60892" lon="3.27521">
        <ele>1024</ele>
        <time>2019-06-02T08:36:22.542Z</time>
      </trkpt>
      <trkpt lat="44.60895" lon="3.27517">
        <ele>1024</ele>
        <time>2019-06-02T08:36:26.575Z</time>
      </trkpt>
      <trkpt lat="44.60898" lon="3.27512">
        <ele>1022</ele>
        <time>2019-06-02T08:36:31.540Z</time>
      </trkpt>
      <trkpt lat="44.60902" lon="3.27508">
        <ele>1022</ele>
        <time>2019-06-02T08:36:35.536Z</time>
      </trkpt>
      <trkpt lat="44.60907" lon="3.27502">
        <ele>1025</ele>
        <time>2019-06-02T08:36:40.535Z</time>
      </trkpt>
      <trkpt lat="44.60911" lon="3.27497">
        <ele>1025</ele>
        <time>2019-06-02T08:36:45.544Z</time>
      </trkpt>
      <trkpt lat="44.60915" lon="3.27491">
        <ele>1025</ele>
        <time>2019-06-02T08:36:50.566Z</time>
      </trkpt>
      <trkpt lat="44.60919" lon="3.27486">
        <ele>1025</ele>
        <time>2019-06-02T08:36:55.537Z</time>
      </trkpt>
      <trkpt lat="44.60923" lon="3.2748">
        <ele>1022</ele>
        <time>2019-06-02T08:37:00.546Z</time>
      </trkpt>
      <trkpt lat="44.60926" lon="3.27475">
        <ele>1022</ele>
        <time>2019-06-02T08:37:05.538Z</time>
      </trkpt>
      <trkpt lat="44.60929" lon="3.27469">
        <ele>1022</ele>
        <time>2019-06-02T08:37:10.552Z</time>
      </trkpt>
      <trkpt lat="44.60932" lon="3.27463">
        <ele>1026</ele>
        <time>2019-06-02T08:37:15.540Z</time>
      </trkpt>
      <trkpt lat="44.60935" lon="3.27458">
        <ele>1023</ele>
        <time>2019-06-02T08:37:19.574Z</time>
      </trkpt>
      <trkpt lat="44.60937" lon="3.27451">
        <ele>1023</ele>
        <time>2019-06-02T08:37:24.550Z</time>
      </trkpt>
      <trkpt lat="44.6094" lon="3.27445">
        <ele>1023</ele>
        <time>2019-06-02T08:37:29.544Z</time>
      </trkpt>
      <trkpt lat="44.60943" lon="3.27439">
        <ele>1023</ele>
        <time>2019-06-02T08:37:34.551Z</time>
      </trkpt>
      <trkpt lat="44.60946" lon="3.27432">
        <ele>1023</ele>
        <time>2019-06-02T08:37:39.537Z</time>
      </trkpt>
      <trkpt lat="44.60948" lon="3.27426">
        <ele>1020</ele>
        <time>2019-06-02T08:37:44.568Z</time>
      </trkpt>
      <trkpt lat="44.60951" lon="3.27418">
        <ele>1020</ele>
        <time>2019-06-02T08:37:49.531Z</time>
      </trkpt>
      <trkpt lat="44.60952" lon="3.27413">
        <ele>1020</ele>
        <time>2019-06-02T08:37:53.530Z</time>
      </trkpt>
      <trkpt lat="44.60953" lon="3.27406">
        <ele>1020</ele>
        <time>2019-06-02T08:37:58.571Z</time>
      </trkpt>
      <trkpt lat="44.60955" lon="3.27398">
        <ele>1019</ele>
        <time>2019-06-02T08:38:03.535Z</time>
      </trkpt>
      <trkpt lat="44.60956" lon="3.27392">
        <ele>1019</ele>
        <time>2019-06-02T08:38:07.578Z</time>
      </trkpt>
      <trkpt lat="44.60958" lon="3.27385">
        <ele>1019</ele>
        <time>2019-06-02T08:38:12.543Z</time>
      </trkpt>
      <trkpt lat="44.60959" lon="3.27379">
        <ele>1025</ele>
        <time>2019-06-02T08:38:16.565Z</time>
      </trkpt>
      <trkpt lat="44.60961" lon="3.27373">
        <ele>1024</ele>
        <time>2019-06-02T08:38:21.564Z</time>
      </trkpt>
      <trkpt lat="44.60963" lon="3.27366">
        <ele>1024</ele>
        <time>2019-06-02T08:38:26.565Z</time>
      </trkpt>
      <trkpt lat="44.60965" lon="3.27359">
        <ele>1024</ele>
        <time>2019-06-02T08:38:31.537Z</time>
      </trkpt>
      <trkpt lat="44.60967" lon="3.27353">
        <ele>1024</ele>
        <time>2019-06-02T08:38:35.562Z</time>
      </trkpt>
      <trkpt lat="44.60969" lon="3.27345">
        <ele>1021</ele>
        <time>2019-06-02T08:38:40.532Z</time>
      </trkpt>
      <trkpt lat="44.60971" lon="3.27337">
        <ele>1021</ele>
        <time>2019-06-02T08:38:45.540Z</time>
      </trkpt>
      <trkpt lat="44.60973" lon="3.2733">
        <ele>1021</ele>
        <time>2019-06-02T08:38:50.565Z</time>
      </trkpt>
      <trkpt lat="44.60974" lon="3.27323">
        <ele>1021</ele>
        <time>2019-06-02T08:38:55.541Z</time>
      </trkpt>
      <trkpt lat="44.60975" lon="3.27316">
        <ele>1020</ele>
        <time>2019-06-02T08:39:00.545Z</time>
      </trkpt>
      <trkpt lat="44.60974" lon="3.27315">
        <ele>1020</ele>
        <time>2019-06-02T08:39:05.540Z</time>
      </trkpt>
      <trkpt lat="44.60975" lon="3.27313">
        <ele>1020</ele>
        <time>2019-06-02T08:39:10.539Z</time>
      </trkpt>
      <trkpt lat="44.60976" lon="3.27305">
        <ele>1020</ele>
        <time>2019-06-02T08:39:15.543Z</time>
      </trkpt>
      <trkpt lat="44.60976" lon="3.27299">
        <ele>1020</ele>
        <time>2019-06-02T08:39:19.564Z</time>
      </trkpt>
      <trkpt lat="44.60978" lon="3.27292">
        <ele>1020</ele>
        <time>2019-06-02T08:39:24.536Z</time>
      </trkpt>
      <trkpt lat="44.60979" lon="3.27286">
        <ele>1019</ele>
        <time>2019-06-02T08:39:28.547Z</time>
      </trkpt>
      <trkpt lat="44.6098" lon="3.27278">
        <ele>1019</ele>
        <time>2019-06-02T08:39:33.552Z</time>
      </trkpt>
      <trkpt lat="44.60981" lon="3.2727">
        <ele>1019</ele>
        <time>2019-06-02T08:39:38.537Z</time>
      </trkpt>
      <trkpt lat="44.60982" lon="3.27262">
        <ele>1018</ele>
        <time>2019-06-02T08:39:43.540Z</time>
      </trkpt>
      <trkpt lat="44.60984" lon="3.27256">
        <ele>1018</ele>
        <time>2019-06-02T08:39:47.560Z</time>
      </trkpt>
      <trkpt lat="44.60987" lon="3.27248">
        <ele>1021</ele>
        <time>2019-06-02T08:39:52.568Z</time>
      </trkpt>
      <trkpt lat="44.6099" lon="3.27242">
        <ele>1021</ele>
        <time>2019-06-02T08:39:57.538Z</time>
      </trkpt>
      <trkpt lat="44.60991" lon="3.27236">
        <ele>1018</ele>
        <time>2019-06-02T08:40:01.566Z</time>
      </trkpt>
      <trkpt lat="44.60994" lon="3.27228">
        <ele>1018</ele>
        <time>2019-06-02T08:40:06.533Z</time>
      </trkpt>
      <trkpt lat="44.60996" lon="3.27223">
        <ele>1018</ele>
        <time>2019-06-02T08:40:10.539Z</time>
      </trkpt>
      <trkpt lat="44.61" lon="3.27217">
        <ele>1018</ele>
        <time>2019-06-02T08:40:15.553Z</time>
      </trkpt>
      <trkpt lat="44.61003" lon="3.2721">
        <ele>1018</ele>
        <time>2019-06-02T08:40:20.545Z</time>
      </trkpt>
      <trkpt lat="44.61007" lon="3.27203">
        <ele>1016</ele>
        <time>2019-06-02T08:40:25.562Z</time>
      </trkpt>
      <trkpt lat="44.6101" lon="3.27197">
        <ele>1016</ele>
        <time>2019-06-02T08:40:30.535Z</time>
      </trkpt>
      <trkpt lat="44.61015" lon="3.27191">
        <ele>1019</ele>
        <time>2019-06-02T08:40:35.542Z</time>
      </trkpt>
      <trkpt lat="44.61019" lon="3.27186">
        <ele>1019</ele>
        <time>2019-06-02T08:40:39.573Z</time>
      </trkpt>
      <trkpt lat="44.61023" lon="3.27181">
        <ele>1017</ele>
        <time>2019-06-02T08:40:44.565Z</time>
      </trkpt>
      <trkpt lat="44.61027" lon="3.27175">
        <ele>1017</ele>
        <time>2019-06-02T08:40:49.535Z</time>
      </trkpt>
      <trkpt lat="44.61031" lon="3.27172">
        <ele>1017</ele>
        <time>2019-06-02T08:40:53.551Z</time>
      </trkpt>
      <trkpt lat="44.61036" lon="3.27167">
        <ele>1017</ele>
        <time>2019-06-02T08:40:58.550Z</time>
      </trkpt>
      <trkpt lat="44.6104" lon="3.27163">
        <ele>1017</ele>
        <time>2019-06-02T08:41:03.534Z</time>
      </trkpt>
      <trkpt lat="44.61045" lon="3.27158">
        <ele>1018</ele>
        <time>2019-06-02T08:41:08.551Z</time>
      </trkpt>
      <trkpt lat="44.61049" lon="3.27155">
        <ele>1018</ele>
        <time>2019-06-02T08:41:13.570Z</time>
      </trkpt>
      <trkpt lat="44.61054" lon="3.27151">
        <ele>1016</ele>
        <time>2019-06-02T08:41:18.565Z</time>
      </trkpt>
      <trkpt lat="44.61059" lon="3.27147">
        <ele>1016</ele>
        <time>2019-06-02T08:41:23.538Z</time>
      </trkpt>
      <trkpt lat="44.61066" lon="3.27144">
        <ele>1016</ele>
        <time>2019-06-02T08:41:28.563Z</time>
      </trkpt>
      <trkpt lat="44.61072" lon="3.27141">
        <ele>1017</ele>
        <time>2019-06-02T08:41:33.546Z</time>
      </trkpt>
      <trkpt lat="44.61079" lon="3.27138">
        <ele>1017</ele>
        <time>2019-06-02T08:41:38.534Z</time>
      </trkpt>
      <trkpt lat="44.61084" lon="3.27135">
        <ele>1017</ele>
        <time>2019-06-02T08:41:42.540Z</time>
      </trkpt>
      <trkpt lat="44.6109" lon="3.27133">
        <ele>1017</ele>
        <time>2019-06-02T08:41:47.541Z</time>
      </trkpt>
      <trkpt lat="44.61096" lon="3.27131">
        <ele>1017</ele>
        <time>2019-06-02T08:41:52.538Z</time>
      </trkpt>
      <trkpt lat="44.61102" lon="3.27131">
        <ele>1017</ele>
        <time>2019-06-02T08:41:57.540Z</time>
      </trkpt>
      <trkpt lat="44.61107" lon="3.27131">
        <ele>1017</ele>
        <time>2019-06-02T08:42:02.537Z</time>
      </trkpt>
      <trkpt lat="44.61113" lon="3.27131">
        <ele>1017</ele>
        <time>2019-06-02T08:42:07.551Z</time>
      </trkpt>
      <trkpt lat="44.61118" lon="3.27131">
        <ele>1017</ele>
        <time>2019-06-02T08:42:12.540Z</time>
      </trkpt>
      <trkpt lat="44.61122" lon="3.27131">
        <ele>1017</ele>
        <time>2019-06-02T08:42:16.539Z</time>
      </trkpt>
      <trkpt lat="44.61127" lon="3.27132">
        <ele>1016</ele>
        <time>2019-06-02T08:42:20.569Z</time>
      </trkpt>
      <trkpt lat="44.61132" lon="3.27133">
        <ele>1016</ele>
        <time>2019-06-02T08:42:25.541Z</time>
      </trkpt>
      <trkpt lat="44.61133" lon="3.27134">
        <ele>1016</ele>
        <time>2019-06-02T08:42:30.534Z</time>
      </trkpt>
      <trkpt lat="44.61137" lon="3.27135">
        <ele>1016</ele>
        <time>2019-06-02T08:42:39.537Z</time>
      </trkpt>
      <trkpt lat="44.61143" lon="3.27134">
        <ele>1016</ele>
        <time>2019-06-02T08:42:44.538Z</time>
      </trkpt>
      <trkpt lat="44.61149" lon="3.27134">
        <ele>1016</ele>
        <time>2019-06-02T08:42:49.539Z</time>
      </trkpt>
      <trkpt lat="44.61153" lon="3.27133">
        <ele>1015</ele>
        <time>2019-06-02T08:42:53.555Z</time>
      </trkpt>
      <trkpt lat="44.61158" lon="3.27127">
        <ele>1015</ele>
        <time>2019-06-02T08:42:58.541Z</time>
      </trkpt>
      <trkpt lat="44.61162" lon="3.2712">
        <ele>1013</ele>
        <time>2019-06-02T08:43:03.542Z</time>
      </trkpt>
      <trkpt lat="44.61167" lon="3.27113">
        <ele>1013</ele>
        <time>2019-06-02T08:43:08.532Z</time>
      </trkpt>
      <trkpt lat="44.61172" lon="3.27105">
        <ele>1013</ele>
        <time>2019-06-02T08:43:13.534Z</time>
      </trkpt>
      <trkpt lat="44.61175" lon="3.27101">
        <ele>1013</ele>
        <time>2019-06-02T08:43:17.571Z</time>
      </trkpt>
      <trkpt lat="44.61178" lon="3.27097">
        <ele>1011</ele>
        <time>2019-06-02T08:43:21.568Z</time>
      </trkpt>
      <trkpt lat="44.61182" lon="3.27093">
        <ele>1011</ele>
        <time>2019-06-02T08:43:26.544Z</time>
      </trkpt>
      <trkpt lat="44.61185" lon="3.2709">
        <ele>1011</ele>
        <time>2019-06-02T08:43:30.570Z</time>
      </trkpt>
      <trkpt lat="44.61188" lon="3.27087">
        <ele>1011</ele>
        <time>2019-06-02T08:43:35.539Z</time>
      </trkpt>
      <trkpt lat="44.61191" lon="3.27083">
        <ele>1011</ele>
        <time>2019-06-02T08:43:39.541Z</time>
      </trkpt>
      <trkpt lat="44.61195" lon="3.27076">
        <ele>1011</ele>
        <time>2019-06-02T08:43:44.540Z</time>
      </trkpt>
      <trkpt lat="44.612" lon="3.27069">
        <ele>1011</ele>
        <time>2019-06-02T08:43:49.540Z</time>
      </trkpt>
      <trkpt lat="44.61204" lon="3.27063">
        <ele>1011</ele>
        <time>2019-06-02T08:43:54.538Z</time>
      </trkpt>
      <trkpt lat="44.61209" lon="3.27057">
        <ele>1009</ele>
        <time>2019-06-02T08:43:59.534Z</time>
      </trkpt>
      <trkpt lat="44.61212" lon="3.27053">
        <ele>1009</ele>
        <time>2019-06-02T08:44:03.540Z</time>
      </trkpt>
      <trkpt lat="44.61216" lon="3.27048">
        <ele>1009</ele>
        <time>2019-06-02T08:44:08.550Z</time>
      </trkpt>
      <trkpt lat="44.61221" lon="3.27041">
        <ele>1009</ele>
        <time>2019-06-02T08:44:13.565Z</time>
      </trkpt>
      <trkpt lat="44.61226" lon="3.27033">
        <ele>1009</ele>
        <time>2019-06-02T08:44:18.561Z</time>
      </trkpt>
      <trkpt lat="44.6123" lon="3.27025">
        <ele>1009</ele>
        <time>2019-06-02T08:44:23.524Z</time>
      </trkpt>
      <trkpt lat="44.61233" lon="3.2702">
        <ele>1009</ele>
        <time>2019-06-02T08:44:27.535Z</time>
      </trkpt>
      <trkpt lat="44.61235" lon="3.27014">
        <ele>1010</ele>
        <time>2019-06-02T08:44:31.567Z</time>
      </trkpt>
      <trkpt lat="44.61238" lon="3.27007">
        <ele>1012</ele>
        <time>2019-06-02T08:44:36.579Z</time>
      </trkpt>
      <trkpt lat="44.61241" lon="3.27">
        <ele>1012</ele>
        <time>2019-06-02T08:44:41.538Z</time>
      </trkpt>
      <trkpt lat="44.61243" lon="3.26996">
        <ele>1012</ele>
        <time>2019-06-02T08:44:45.542Z</time>
      </trkpt>
      <trkpt lat="44.61245" lon="3.26989">
        <ele>1012</ele>
        <time>2019-06-02T08:44:50.567Z</time>
      </trkpt>
      <trkpt lat="44.61246" lon="3.26982">
        <ele>1013</ele>
        <time>2019-06-02T08:44:55.529Z</time>
      </trkpt>
      <trkpt lat="44.61248" lon="3.26974">
        <ele>1013</ele>
        <time>2019-06-02T08:45:00.541Z</time>
      </trkpt>
      <trkpt lat="44.6125" lon="3.26966">
        <ele>1013</ele>
        <time>2019-06-02T08:45:05.545Z</time>
      </trkpt>
      <trkpt lat="44.61252" lon="3.26959">
        <ele>1013</ele>
        <time>2019-06-02T08:45:10.542Z</time>
      </trkpt>
      <trkpt lat="44.61255" lon="3.26952">
        <ele>1013</ele>
        <time>2019-06-02T08:45:15.518Z</time>
      </trkpt>
      <trkpt lat="44.61257" lon="3.26947">
        <ele>1013</ele>
        <time>2019-06-02T08:45:19.552Z</time>
      </trkpt>
      <trkpt lat="44.6126" lon="3.26943">
        <ele>1013</ele>
        <time>2019-06-02T08:45:24.533Z</time>
      </trkpt>
      <trkpt lat="44.61266" lon="3.26938">
        <ele>1015</ele>
        <time>2019-06-02T08:45:29.519Z</time>
      </trkpt>
      <trkpt lat="44.61269" lon="3.26934">
        <ele>1015</ele>
        <time>2019-06-02T08:45:33.539Z</time>
      </trkpt>
      <trkpt lat="44.61274" lon="3.2693">
        <ele>1016</ele>
        <time>2019-06-02T08:45:38.541Z</time>
      </trkpt>
      <trkpt lat="44.61278" lon="3.26924">
        <ele>1016</ele>
        <time>2019-06-02T08:45:43.542Z</time>
      </trkpt>
      <trkpt lat="44.61283" lon="3.26918">
        <ele>1016</ele>
        <time>2019-06-02T08:45:48.541Z</time>
      </trkpt>
      <trkpt lat="44.61288" lon="3.26912">
        <ele>1016</ele>
        <time>2019-06-02T08:45:53.548Z</time>
      </trkpt>
      <trkpt lat="44.61293" lon="3.26907">
        <ele>1016</ele>
        <time>2019-06-02T08:45:58.533Z</time>
      </trkpt>
      <trkpt lat="44.61297" lon="3.269">
        <ele>1016</ele>
        <time>2019-06-02T08:46:02.548Z</time>
      </trkpt>
      <trkpt lat="44.613" lon="3.26895">
        <ele>1016</ele>
        <time>2019-06-02T08:46:06.564Z</time>
      </trkpt>
      <trkpt lat="44.61304" lon="3.26889">
        <ele>1016</ele>
        <time>2019-06-02T08:46:11.536Z</time>
      </trkpt>
      <trkpt lat="44.61307" lon="3.26882">
        <ele>1016</ele>
        <time>2019-06-02T08:46:15.540Z</time>
      </trkpt>
      <trkpt lat="44.6131" lon="3.26873">
        <ele>1018</ele>
        <time>2019-06-02T08:46:20.538Z</time>
      </trkpt>
      <trkpt lat="44.61313" lon="3.26868">
        <ele>1018</ele>
        <time>2019-06-02T08:46:24.549Z</time>
      </trkpt>
      <trkpt lat="44.61315" lon="3.26864">
        <ele>1018</ele>
        <time>2019-06-02T08:46:28.567Z</time>
      </trkpt>
      <trkpt lat="44.61318" lon="3.26857">
        <ele>1018</ele>
        <time>2019-06-02T08:46:33.540Z</time>
      </trkpt>
      <trkpt lat="44.61321" lon="3.26851">
        <ele>1016</ele>
        <time>2019-06-02T08:46:38.541Z</time>
      </trkpt>
      <trkpt lat="44.61325" lon="3.26845">
        <ele>1019</ele>
        <time>2019-06-02T08:46:43.532Z</time>
      </trkpt>
      <trkpt lat="44.61328" lon="3.26841">
        <ele>1019</ele>
        <time>2019-06-02T08:46:47.544Z</time>
      </trkpt>
      <trkpt lat="44.6133" lon="3.26835">
        <ele>1019</ele>
        <time>2019-06-02T08:46:51.521Z</time>
      </trkpt>
      <trkpt lat="44.61333" lon="3.26828">
        <ele>1019</ele>
        <time>2019-06-02T08:46:56.561Z</time>
      </trkpt>
      <trkpt lat="44.61335" lon="3.26821">
        <ele>1019</ele>
        <time>2019-06-02T08:47:01.561Z</time>
      </trkpt>
      <trkpt lat="44.6134" lon="3.26815">
        <ele>1020</ele>
        <time>2019-06-02T08:47:06.567Z</time>
      </trkpt>
      <trkpt lat="44.61345" lon="3.2681">
        <ele>1020</ele>
        <time>2019-06-02T08:47:10.575Z</time>
      </trkpt>
      <trkpt lat="44.61349" lon="3.26804">
        <ele>1020</ele>
        <time>2019-06-02T08:47:15.535Z</time>
      </trkpt>
      <trkpt lat="44.61351" lon="3.26799">
        <ele>1020</ele>
        <time>2019-06-02T08:47:19.538Z</time>
      </trkpt>
      <trkpt lat="44.61354" lon="3.26793">
        <ele>1020</ele>
        <time>2019-06-02T08:47:24.535Z</time>
      </trkpt>
      <trkpt lat="44.61357" lon="3.26788">
        <ele>1021</ele>
        <time>2019-06-02T08:47:28.540Z</time>
      </trkpt>
      <trkpt lat="44.61361" lon="3.26782">
        <ele>1021</ele>
        <time>2019-06-02T08:47:32.569Z</time>
      </trkpt>
      <trkpt lat="44.61365" lon="3.26775">
        <ele>1021</ele>
        <time>2019-06-02T08:47:37.538Z</time>
      </trkpt>
      <trkpt lat="44.61367" lon="3.2677">
        <ele>1021</ele>
        <time>2019-06-02T08:47:41.564Z</time>
      </trkpt>
      <trkpt lat="44.61372" lon="3.26764">
        <ele>1019</ele>
        <time>2019-06-02T08:47:46.545Z</time>
      </trkpt>
      <trkpt lat="44.61376" lon="3.26757">
        <ele>1020</ele>
        <time>2019-06-02T08:47:51.548Z</time>
      </trkpt>
      <trkpt lat="44.6138" lon="3.2675">
        <ele>1020</ele>
        <time>2019-06-02T08:47:56.542Z</time>
      </trkpt>
      <trkpt lat="44.61384" lon="3.26744">
        <ele>1020</ele>
        <time>2019-06-02T08:48:01.581Z</time>
      </trkpt>
      <trkpt lat="44.61387" lon="3.26738">
        <ele>1020</ele>
        <time>2019-06-02T08:48:06.571Z</time>
      </trkpt>
      <trkpt lat="44.6139" lon="3.26731">
        <ele>1019</ele>
        <time>2019-06-02T08:48:11.534Z</time>
      </trkpt>
      <trkpt lat="44.61392" lon="3.26728">
        <ele>1019</ele>
        <time>2019-06-02T08:48:15.546Z</time>
      </trkpt>
      <trkpt lat="44.61395" lon="3.26722">
        <ele>1019</ele>
        <time>2019-06-02T08:48:20.544Z</time>
      </trkpt>
      <trkpt lat="44.61398" lon="3.26716">
        <ele>1019</ele>
        <time>2019-06-02T08:48:25.540Z</time>
      </trkpt>
      <trkpt lat="44.61402" lon="3.26709">
        <ele>1019</ele>
        <time>2019-06-02T08:48:30.542Z</time>
      </trkpt>
      <trkpt lat="44.61407" lon="3.26703">
        <ele>1019</ele>
        <time>2019-06-02T08:48:35.547Z</time>
      </trkpt>
      <trkpt lat="44.61411" lon="3.26698">
        <ele>1019</ele>
        <time>2019-06-02T08:48:40.540Z</time>
      </trkpt>
      <trkpt lat="44.61414" lon="3.26692">
        <ele>1019</ele>
        <time>2019-06-02T08:48:45.542Z</time>
      </trkpt>
      <trkpt lat="44.61417" lon="3.26687">
        <ele>1019</ele>
        <time>2019-06-02T08:48:50.539Z</time>
      </trkpt>
      <trkpt lat="44.6142" lon="3.26683">
        <ele>1019</ele>
        <time>2019-06-02T08:48:54.566Z</time>
      </trkpt>
      <trkpt lat="44.61423" lon="3.2668">
        <ele>1018</ele>
        <time>2019-06-02T08:48:59.539Z</time>
      </trkpt>
      <trkpt lat="44.61425" lon="3.26676">
        <ele>1018</ele>
        <time>2019-06-02T08:49:04.536Z</time>
      </trkpt>
      <trkpt lat="44.61428" lon="3.26671">
        <ele>1018</ele>
        <time>2019-06-02T08:49:08.539Z</time>
      </trkpt>
      <trkpt lat="44.61431" lon="3.26665">
        <ele>1019</ele>
        <time>2019-06-02T08:49:13.538Z</time>
      </trkpt>
      <trkpt lat="44.61435" lon="3.2666">
        <ele>1019</ele>
        <time>2019-06-02T08:49:18.537Z</time>
      </trkpt>
      <trkpt lat="44.61437" lon="3.26655">
        <ele>1019</ele>
        <time>2019-06-02T08:49:22.541Z</time>
      </trkpt>
      <trkpt lat="44.61441" lon="3.26649">
        <ele>1019</ele>
        <time>2019-06-02T08:49:27.541Z</time>
      </trkpt>
      <trkpt lat="44.61445" lon="3.26643">
        <ele>1019</ele>
        <time>2019-06-02T08:49:32.558Z</time>
      </trkpt>
      <trkpt lat="44.61449" lon="3.26638">
        <ele>1019</ele>
        <time>2019-06-02T08:49:37.543Z</time>
      </trkpt>
      <trkpt lat="44.61449" lon="3.26635">
        <ele>1019</ele>
        <time>2019-06-02T08:49:42.540Z</time>
      </trkpt>
      <trkpt lat="44.6145" lon="3.26634">
        <ele>1019</ele>
        <time>2019-06-02T08:49:47.543Z</time>
      </trkpt>
      <trkpt lat="44.61453" lon="3.26631">
        <ele>1019</ele>
        <time>2019-06-02T08:49:51.557Z</time>
      </trkpt>
      <trkpt lat="44.61457" lon="3.26625">
        <ele>1019</ele>
        <time>2019-06-02T08:49:56.547Z</time>
      </trkpt>
      <trkpt lat="44.61461" lon="3.2662">
        <ele>1021</ele>
        <time>2019-06-02T08:50:01.535Z</time>
      </trkpt>
      <trkpt lat="44.61464" lon="3.26615">
        <ele>1021</ele>
        <time>2019-06-02T08:50:05.541Z</time>
      </trkpt>
      <trkpt lat="44.61467" lon="3.2661">
        <ele>1021</ele>
        <time>2019-06-02T08:50:10.535Z</time>
      </trkpt>
      <trkpt lat="44.61471" lon="3.26606">
        <ele>1021</ele>
        <time>2019-06-02T08:50:14.544Z</time>
      </trkpt>
      <trkpt lat="44.61476" lon="3.26602">
        <ele>1021</ele>
        <time>2019-06-02T08:50:19.565Z</time>
      </trkpt>
      <trkpt lat="44.6148" lon="3.26598">
        <ele>1021</ele>
        <time>2019-06-02T08:50:24.537Z</time>
      </trkpt>
      <trkpt lat="44.61481" lon="3.26597">
        <ele>1021</ele>
        <time>2019-06-02T08:50:29.537Z</time>
      </trkpt>
      <trkpt lat="44.61481" lon="3.26597">
        <ele>1021</ele>
        <time>2019-06-02T08:50:46.541Z</time>
      </trkpt>
      <trkpt lat="44.61485" lon="3.26596">
        <ele>1021</ele>
        <time>2019-06-02T08:50:50.552Z</time>
      </trkpt>
      <trkpt lat="44.61489" lon="3.26591">
        <ele>1023</ele>
        <time>2019-06-02T08:50:55.539Z</time>
      </trkpt>
      <trkpt lat="44.61493" lon="3.26585">
        <ele>1023</ele>
        <time>2019-06-02T08:51:00.541Z</time>
      </trkpt>
      <trkpt lat="44.61496" lon="3.2658">
        <ele>1023</ele>
        <time>2019-06-02T08:51:05.542Z</time>
      </trkpt>
      <trkpt lat="44.61499" lon="3.26575">
        <ele>1023</ele>
        <time>2019-06-02T08:51:10.547Z</time>
      </trkpt>
      <trkpt lat="44.61504" lon="3.2657">
        <ele>1023</ele>
        <time>2019-06-02T08:51:15.573Z</time>
      </trkpt>
      <trkpt lat="44.61508" lon="3.26566">
        <ele>1022</ele>
        <time>2019-06-02T08:51:20.569Z</time>
      </trkpt>
      <trkpt lat="44.61512" lon="3.26562">
        <ele>1022</ele>
        <time>2019-06-02T08:51:25.548Z</time>
      </trkpt>
      <trkpt lat="44.61517" lon="3.26559">
        <ele>1022</ele>
        <time>2019-06-02T08:51:30.566Z</time>
      </trkpt>
      <trkpt lat="44.61521" lon="3.26556">
        <ele>1022</ele>
        <time>2019-06-02T08:51:35.536Z</time>
      </trkpt>
      <trkpt lat="44.61526" lon="3.26553">
        <ele>1022</ele>
        <time>2019-06-02T08:51:40.542Z</time>
      </trkpt>
      <trkpt lat="44.61532" lon="3.26548">
        <ele>1022</ele>
        <time>2019-06-02T08:51:45.540Z</time>
      </trkpt>
      <trkpt lat="44.61536" lon="3.26544">
        <ele>1022</ele>
        <time>2019-06-02T08:51:50.540Z</time>
      </trkpt>
      <trkpt lat="44.61542" lon="3.26539">
        <ele>1020</ele>
        <time>2019-06-02T08:51:55.540Z</time>
      </trkpt>
      <trkpt lat="44.61547" lon="3.26534">
        <ele>1020</ele>
        <time>2019-06-02T08:52:00.542Z</time>
      </trkpt>
      <trkpt lat="44.6155" lon="3.26531">
        <ele>1020</ele>
        <time>2019-06-02T08:52:04.548Z</time>
      </trkpt>
      <trkpt lat="44.61554" lon="3.26527">
        <ele>1020</ele>
        <time>2019-06-02T08:52:09.546Z</time>
      </trkpt>
      <trkpt lat="44.61559" lon="3.26523">
        <ele>1020</ele>
        <time>2019-06-02T08:52:14.547Z</time>
      </trkpt>
      <trkpt lat="44.61564" lon="3.26519">
        <ele>1020</ele>
        <time>2019-06-02T08:52:19.546Z</time>
      </trkpt>
      <trkpt lat="44.61568" lon="3.26515">
        <ele>1020</ele>
        <time>2019-06-02T08:52:24.534Z</time>
      </trkpt>
      <trkpt lat="44.61573" lon="3.26512">
        <ele>1018</ele>
        <time>2019-06-02T08:52:29.562Z</time>
      </trkpt>
      <trkpt lat="44.61578" lon="3.26509">
        <ele>1018</ele>
        <time>2019-06-02T08:52:34.515Z</time>
      </trkpt>
      <trkpt lat="44.61582" lon="3.26507">
        <ele>1018</ele>
        <time>2019-06-02T08:52:38.544Z</time>
      </trkpt>
      <trkpt lat="44.61586" lon="3.26504">
        <ele>1018</ele>
        <time>2019-06-02T08:52:42.548Z</time>
      </trkpt>
      <trkpt lat="44.61592" lon="3.26501">
        <ele>1018</ele>
        <time>2019-06-02T08:52:47.541Z</time>
      </trkpt>
      <trkpt lat="44.61597" lon="3.26498">
        <ele>1020</ele>
        <time>2019-06-02T08:52:51.538Z</time>
      </trkpt>
      <trkpt lat="44.61603" lon="3.26496">
        <ele>1020</ele>
        <time>2019-06-02T08:52:56.543Z</time>
      </trkpt>
      <trkpt lat="44.61603" lon="3.26495">
        <ele>1020</ele>
        <time>2019-06-02T08:53:01.538Z</time>
      </trkpt>
      <trkpt lat="44.61609" lon="3.26493">
        <ele>1020</ele>
        <time>2019-06-02T08:53:06.537Z</time>
      </trkpt>
      <trkpt lat="44.61612" lon="3.2649">
        <ele>1020</ele>
        <time>2019-06-02T08:53:11.533Z</time>
      </trkpt>
      <trkpt lat="44.61617" lon="3.26487">
        <ele>1020</ele>
        <time>2019-06-02T08:53:15.542Z</time>
      </trkpt>
      <trkpt lat="44.61621" lon="3.26486">
        <ele>1016</ele>
        <time>2019-06-02T08:53:19.576Z</time>
      </trkpt>
      <trkpt lat="44.61627" lon="3.26485">
        <ele>1017</ele>
        <time>2019-06-02T08:53:24.559Z</time>
      </trkpt>
      <trkpt lat="44.61633" lon="3.26483">
        <ele>1017</ele>
        <time>2019-06-02T08:53:29.541Z</time>
      </trkpt>
      <trkpt lat="44.61638" lon="3.2648">
        <ele>1017</ele>
        <time>2019-06-02T08:53:34.542Z</time>
      </trkpt>
      <trkpt lat="44.61643" lon="3.26477">
        <ele>1017</ele>
        <time>2019-06-02T08:53:39.539Z</time>
      </trkpt>
      <trkpt lat="44.61648" lon="3.26474">
        <ele>1017</ele>
        <time>2019-06-02T08:53:44.529Z</time>
      </trkpt>
      <trkpt lat="44.61652" lon="3.26471">
        <ele>1017</ele>
        <time>2019-06-02T08:53:48.544Z</time>
      </trkpt>
      <trkpt lat="44.61655" lon="3.26468">
        <ele>1020</ele>
        <time>2019-06-02T08:53:52.563Z</time>
      </trkpt>
      <trkpt lat="44.61656" lon="3.26468">
        <ele>1020</ele>
        <time>2019-06-02T08:53:57.532Z</time>
      </trkpt>
      <trkpt lat="44.61661" lon="3.26465">
        <ele>1020</ele>
        <time>2019-06-02T08:54:06.542Z</time>
      </trkpt>
      <trkpt lat="44.61666" lon="3.26462">
        <ele>1020</ele>
        <time>2019-06-02T08:54:11.538Z</time>
      </trkpt>
      <trkpt lat="44.61672" lon="3.26461">
        <ele>1020</ele>
        <time>2019-06-02T08:54:16.539Z</time>
      </trkpt>
      <trkpt lat="44.61678" lon="3.26457">
        <ele>1016</ele>
        <time>2019-06-02T08:54:21.544Z</time>
      </trkpt>
      <trkpt lat="44.61683" lon="3.26453">
        <ele>1018</ele>
        <time>2019-06-02T08:54:26.541Z</time>
      </trkpt>
      <trkpt lat="44.61686" lon="3.2645">
        <ele>1018</ele>
        <time>2019-06-02T08:54:30.566Z</time>
      </trkpt>
      <trkpt lat="44.61691" lon="3.26447">
        <ele>1018</ele>
        <time>2019-06-02T08:54:35.538Z</time>
      </trkpt>
      <trkpt lat="44.61696" lon="3.26444">
        <ele>1018</ele>
        <time>2019-06-02T08:54:40.543Z</time>
      </trkpt>
      <trkpt lat="44.61699" lon="3.26443">
        <ele>1018</ele>
        <time>2019-06-02T08:54:44.539Z</time>
      </trkpt>
      <trkpt lat="44.61705" lon="3.26439">
        <ele>1018</ele>
        <time>2019-06-02T08:54:49.542Z</time>
      </trkpt>
      <trkpt lat="44.6171" lon="3.26436">
        <ele>1020</ele>
        <time>2019-06-02T08:54:54.564Z</time>
      </trkpt>
      <trkpt lat="44.61717" lon="3.26432">
        <ele>1020</ele>
        <time>2019-06-02T08:54:59.556Z</time>
      </trkpt>
      <trkpt lat="44.61721" lon="3.26428">
        <ele>1017</ele>
        <time>2019-06-02T08:55:04.533Z</time>
      </trkpt>
      <trkpt lat="44.61725" lon="3.26425">
        <ele>1017</ele>
        <time>2019-06-02T08:55:09.546Z</time>
      </trkpt>
      <trkpt lat="44.6173" lon="3.26422">
        <ele>1017</ele>
        <time>2019-06-02T08:55:14.538Z</time>
      </trkpt>
      <trkpt lat="44.61734" lon="3.2642">
        <ele>1017</ele>
        <time>2019-06-02T08:55:18.555Z</time>
      </trkpt>
      <trkpt lat="44.6174" lon="3.26417">
        <ele>1018</ele>
        <time>2019-06-02T08:55:23.553Z</time>
      </trkpt>
      <trkpt lat="44.61744" lon="3.26413">
        <ele>1018</ele>
        <time>2019-06-02T08:55:28.571Z</time>
      </trkpt>
      <trkpt lat="44.61748" lon="3.2641">
        <ele>1018</ele>
        <time>2019-06-02T08:55:33.538Z</time>
      </trkpt>
      <trkpt lat="44.61754" lon="3.26408">
        <ele>1018</ele>
        <time>2019-06-02T08:55:38.537Z</time>
      </trkpt>
      <trkpt lat="44.61759" lon="3.26406">
        <ele>1018</ele>
        <time>2019-06-02T08:55:43.539Z</time>
      </trkpt>
      <trkpt lat="44.61765" lon="3.26403">
        <ele>1020</ele>
        <time>2019-06-02T08:55:48.564Z</time>
      </trkpt>
      <trkpt lat="44.6177" lon="3.264">
        <ele>1016</ele>
        <time>2019-06-02T08:55:53.536Z</time>
      </trkpt>
      <trkpt lat="44.61774" lon="3.26395">
        <ele>1016</ele>
        <time>2019-06-02T08:55:58.539Z</time>
      </trkpt>
      <trkpt lat="44.61779" lon="3.26393">
        <ele>1016</ele>
        <time>2019-06-02T08:56:03.547Z</time>
      </trkpt>
      <trkpt lat="44.61784" lon="3.26391">
        <ele>1016</ele>
        <time>2019-06-02T08:56:07.545Z</time>
      </trkpt>
      <trkpt lat="44.6179" lon="3.26388">
        <ele>1016</ele>
        <time>2019-06-02T08:56:12.548Z</time>
      </trkpt>
      <trkpt lat="44.61795" lon="3.26385">
        <ele>1020</ele>
        <time>2019-06-02T08:56:17.567Z</time>
      </trkpt>
      <trkpt lat="44.618" lon="3.26382">
        <ele>1020</ele>
        <time>2019-06-02T08:56:22.566Z</time>
      </trkpt>
      <trkpt lat="44.61808" lon="3.26381">
        <ele>1020</ele>
        <time>2019-06-02T08:56:27.540Z</time>
      </trkpt>
      <trkpt lat="44.61814" lon="3.26378">
        <ele>1020</ele>
        <time>2019-06-02T08:56:32.542Z</time>
      </trkpt>
      <trkpt lat="44.6182" lon="3.26375">
        <ele>1019</ele>
        <time>2019-06-02T08:56:37.566Z</time>
      </trkpt>
      <trkpt lat="44.61824" lon="3.26372">
        <ele>1019</ele>
        <time>2019-06-02T08:56:42.543Z</time>
      </trkpt>
      <trkpt lat="44.61829" lon="3.26368">
        <ele>1019</ele>
        <time>2019-06-02T08:56:47.540Z</time>
      </trkpt>
      <trkpt lat="44.61834" lon="3.26364">
        <ele>1019</ele>
        <time>2019-06-02T08:56:52.538Z</time>
      </trkpt>
      <trkpt lat="44.61837" lon="3.26363">
        <ele>1019</ele>
        <time>2019-06-02T08:56:56.540Z</time>
      </trkpt>
      <trkpt lat="44.61843" lon="3.26361">
        <ele>1019</ele>
        <time>2019-06-02T08:57:01.576Z</time>
      </trkpt>
      <trkpt lat="44.61848" lon="3.2636">
        <ele>1021</ele>
        <time>2019-06-02T08:57:06.541Z</time>
      </trkpt>
      <trkpt lat="44.61854" lon="3.26358">
        <ele>1021</ele>
        <time>2019-06-02T08:57:11.538Z</time>
      </trkpt>
      <trkpt lat="44.6186" lon="3.26355">
        <ele>1021</ele>
        <time>2019-06-02T08:57:16.534Z</time>
      </trkpt>
      <trkpt lat="44.61864" lon="3.26354">
        <ele>1021</ele>
        <time>2019-06-02T08:57:20.572Z</time>
      </trkpt>
      <trkpt lat="44.6187" lon="3.26352">
        <ele>1021</ele>
        <time>2019-06-02T08:57:25.550Z</time>
      </trkpt>
      <trkpt lat="44.61875" lon="3.26351">
        <ele>1022</ele>
        <time>2019-06-02T08:57:29.543Z</time>
      </trkpt>
      <trkpt lat="44.6188" lon="3.2635">
        <ele>1022</ele>
        <time>2019-06-02T08:57:33.575Z</time>
      </trkpt>
      <trkpt lat="44.61886" lon="3.26351">
        <ele>1022</ele>
        <time>2019-06-02T08:57:38.556Z</time>
      </trkpt>
      <trkpt lat="44.61892" lon="3.26351">
        <ele>1022</ele>
        <time>2019-06-02T08:57:43.535Z</time>
      </trkpt>
      <trkpt lat="44.61898" lon="3.26352">
        <ele>1022</ele>
        <time>2019-06-02T08:57:48.542Z</time>
      </trkpt>
      <trkpt lat="44.61903" lon="3.26353">
        <ele>1022</ele>
        <time>2019-06-02T08:57:52.545Z</time>
      </trkpt>
      <trkpt lat="44.61909" lon="3.26351">
        <ele>1024</ele>
        <time>2019-06-02T08:57:57.539Z</time>
      </trkpt>
      <trkpt lat="44.61914" lon="3.26344">
        <ele>1022</ele>
        <time>2019-06-02T08:58:02.564Z</time>
      </trkpt>
      <trkpt lat="44.61914" lon="3.26334">
        <ele>1022</ele>
        <time>2019-06-02T08:58:07.536Z</time>
      </trkpt>
      <trkpt lat="44.61911" lon="3.26326">
        <ele>1022</ele>
        <time>2019-06-02T08:58:12.537Z</time>
      </trkpt>
      <trkpt lat="44.61907" lon="3.26319">
        <ele>1021</ele>
        <time>2019-06-02T08:58:17.541Z</time>
      </trkpt>
      <trkpt lat="44.61904" lon="3.26312">
        <ele>1021</ele>
        <time>2019-06-02T08:58:21.559Z</time>
      </trkpt>
      <trkpt lat="44.61903" lon="3.26306">
        <ele>1021</ele>
        <time>2019-06-02T08:58:26.557Z</time>
      </trkpt>
      <trkpt lat="44.61903" lon="3.26303">
        <ele>1021</ele>
        <time>2019-06-02T08:58:31.536Z</time>
      </trkpt>
      <trkpt lat="44.61905" lon="3.26296">
        <ele>1021</ele>
        <time>2019-06-02T08:58:36.539Z</time>
      </trkpt>
      <trkpt lat="44.61907" lon="3.26291">
        <ele>1021</ele>
        <time>2019-06-02T08:58:40.562Z</time>
      </trkpt>
      <trkpt lat="44.61907" lon="3.2629">
        <ele>1021</ele>
        <time>2019-06-02T08:58:45.543Z</time>
      </trkpt>
      <trkpt lat="44.61911" lon="3.26286">
        <ele>1021</ele>
        <time>2019-06-02T08:58:50.540Z</time>
      </trkpt>
      <trkpt lat="44.61911" lon="3.26285">
        <ele>1021</ele>
        <time>2019-06-02T08:58:55.538Z</time>
      </trkpt>
      <trkpt lat="44.61908" lon="3.2628">
        <ele>1021</ele>
        <time>2019-06-02T08:59:00.518Z</time>
      </trkpt>
      <trkpt lat="44.61907" lon="3.26273">
        <ele>1021</ele>
        <time>2019-06-02T08:59:04.541Z</time>
      </trkpt>
      <trkpt lat="44.61911" lon="3.26265">
        <ele>1021</ele>
        <time>2019-06-02T08:59:09.549Z</time>
      </trkpt>
      <trkpt lat="44.61912" lon="3.26261">
        <ele>1021</ele>
        <time>2019-06-02T08:59:12.517Z</time>
      </trkpt>
      <trkpt lat="44.61915" lon="3.26252">
        <ele>1021</ele>
        <time>2019-06-02T08:59:18.515Z</time>
      </trkpt>
      <trkpt lat="44.61916" lon="3.26247">
        <ele>1021</ele>
        <time>2019-06-02T08:59:22.516Z</time>
      </trkpt>
      <trkpt lat="44.61918" lon="3.26242">
        <ele>1021</ele>
        <time>2019-06-02T08:59:26.541Z</time>
      </trkpt>
      <trkpt lat="44.6192" lon="3.26234">
        <ele>1019</ele>
        <time>2019-06-02T08:59:31.542Z</time>
      </trkpt>
      <trkpt lat="44.61923" lon="3.26228">
        <ele>1019</ele>
        <time>2019-06-02T08:59:36.564Z</time>
      </trkpt>
      <trkpt lat="44.61924" lon="3.26221">
        <ele>1019</ele>
        <time>2019-06-02T08:59:40.568Z</time>
      </trkpt>
      <trkpt lat="44.61927" lon="3.26212">
        <ele>1019</ele>
        <time>2019-06-02T08:59:45.528Z</time>
      </trkpt>
      <trkpt lat="44.6193" lon="3.26206">
        <ele>1017</ele>
        <time>2019-06-02T08:59:49.532Z</time>
      </trkpt>
      <trkpt lat="44.6193" lon="3.26198">
        <ele>1017</ele>
        <time>2019-06-02T08:59:54.537Z</time>
      </trkpt>
      <trkpt lat="44.61931" lon="3.26191">
        <ele>1022</ele>
        <time>2019-06-02T08:59:59.537Z</time>
      </trkpt>
      <trkpt lat="44.61934" lon="3.26185">
        <ele>1022</ele>
        <time>2019-06-02T09:00:04.539Z</time>
      </trkpt>
      <trkpt lat="44.61937" lon="3.26178">
        <ele>1020</ele>
        <time>2019-06-02T09:00:09.537Z</time>
      </trkpt>
      <trkpt lat="44.61939" lon="3.26172">
        <ele>1020</ele>
        <time>2019-06-02T09:00:14.539Z</time>
      </trkpt>
      <trkpt lat="44.61942" lon="3.26166">
        <ele>1020</ele>
        <time>2019-06-02T09:00:18.562Z</time>
      </trkpt>
      <trkpt lat="44.61945" lon="3.2616">
        <ele>1020</ele>
        <time>2019-06-02T09:00:23.564Z</time>
      </trkpt>
      <trkpt lat="44.61948" lon="3.26154">
        <ele>1020</ele>
        <time>2019-06-02T09:00:28.565Z</time>
      </trkpt>
      <trkpt lat="44.61951" lon="3.26147">
        <ele>1019</ele>
        <time>2019-06-02T09:00:33.532Z</time>
      </trkpt>
      <trkpt lat="44.61955" lon="3.26143">
        <ele>1019</ele>
        <time>2019-06-02T09:00:37.548Z</time>
      </trkpt>
      <trkpt lat="44.61959" lon="3.26139">
        <ele>1021</ele>
        <time>2019-06-02T09:00:42.537Z</time>
      </trkpt>
      <trkpt lat="44.61963" lon="3.26134">
        <ele>1021</ele>
        <time>2019-06-02T09:00:46.540Z</time>
      </trkpt>
      <trkpt lat="44.61966" lon="3.26129">
        <ele>1021</ele>
        <time>2019-06-02T09:00:50.570Z</time>
      </trkpt>
      <trkpt lat="44.6197" lon="3.26124">
        <ele>1018</ele>
        <time>2019-06-02T09:00:55.532Z</time>
      </trkpt>
      <trkpt lat="44.61976" lon="3.26118">
        <ele>1018</ele>
        <time>2019-06-02T09:01:00.540Z</time>
      </trkpt>
      <trkpt lat="44.61979" lon="3.26112">
        <ele>1018</ele>
        <time>2019-06-02T09:01:04.539Z</time>
      </trkpt>
      <trkpt lat="44.61982" lon="3.26108">
        <ele>1018</ele>
        <time>2019-06-02T09:01:08.576Z</time>
      </trkpt>
      <trkpt lat="44.61987" lon="3.26101">
        <ele>1019</ele>
        <time>2019-06-02T09:01:13.564Z</time>
      </trkpt>
      <trkpt lat="44.61991" lon="3.26096">
        <ele>1017</ele>
        <time>2019-06-02T09:01:18.542Z</time>
      </trkpt>
      <trkpt lat="44.61995" lon="3.2609">
        <ele>1017</ele>
        <time>2019-06-02T09:01:23.535Z</time>
      </trkpt>
      <trkpt lat="44.61999" lon="3.26087">
        <ele>1017</ele>
        <time>2019-06-02T09:01:27.564Z</time>
      </trkpt>
      <trkpt lat="44.62004" lon="3.26083">
        <ele>1017</ele>
        <time>2019-06-02T09:01:32.541Z</time>
      </trkpt>
      <trkpt lat="44.62008" lon="3.26079">
        <ele>1017</ele>
        <time>2019-06-02T09:01:36.541Z</time>
      </trkpt>
      <trkpt lat="44.62013" lon="3.26074">
        <ele>1017</ele>
        <time>2019-06-02T09:01:41.536Z</time>
      </trkpt>
      <trkpt lat="44.62016" lon="3.26068">
        <ele>1018</ele>
        <time>2019-06-02T09:01:45.563Z</time>
      </trkpt>
      <trkpt lat="44.62021" lon="3.26061">
        <ele>1018</ele>
        <time>2019-06-02T09:01:50.533Z</time>
      </trkpt>
      <trkpt lat="44.62025" lon="3.26056">
        <ele>1018</ele>
        <time>2019-06-02T09:01:54.564Z</time>
      </trkpt>
      <trkpt lat="44.62027" lon="3.26051">
        <ele>1018</ele>
        <time>2019-06-02T09:01:58.573Z</time>
      </trkpt>
      <trkpt lat="44.6203" lon="3.26043">
        <ele>1018</ele>
        <time>2019-06-02T09:02:03.532Z</time>
      </trkpt>
      <trkpt lat="44.62032" lon="3.26036">
        <ele>1018</ele>
        <time>2019-06-02T09:02:07.564Z</time>
      </trkpt>
      <trkpt lat="44.62034" lon="3.26027">
        <ele>1018</ele>
        <time>2019-06-02T09:02:12.570Z</time>
      </trkpt>
      <trkpt lat="44.62033" lon="3.26018">
        <ele>1018</ele>
        <time>2019-06-02T09:02:17.534Z</time>
      </trkpt>
      <trkpt lat="44.62033" lon="3.26012">
        <ele>1018</ele>
        <time>2019-06-02T09:02:21.566Z</time>
      </trkpt>
      <trkpt lat="44.62031" lon="3.26003">
        <ele>1018</ele>
        <time>2019-06-02T09:02:26.539Z</time>
      </trkpt>
      <trkpt lat="44.62031" lon="3.25996">
        <ele>1018</ele>
        <time>2019-06-02T09:02:30.542Z</time>
      </trkpt>
      <trkpt lat="44.6203" lon="3.25987">
        <ele>1018</ele>
        <time>2019-06-02T09:02:35.538Z</time>
      </trkpt>
      <trkpt lat="44.6203" lon="3.25979">
        <ele>1020</ele>
        <time>2019-06-02T09:02:40.540Z</time>
      </trkpt>
      <trkpt lat="44.62029" lon="3.25972">
        <ele>1020</ele>
        <time>2019-06-02T09:02:45.562Z</time>
      </trkpt>
      <trkpt lat="44.62027" lon="3.25966">
        <ele>1020</ele>
        <time>2019-06-02T09:02:49.570Z</time>
      </trkpt>
      <trkpt lat="44.62025" lon="3.25959">
        <ele>1020</ele>
        <time>2019-06-02T09:02:54.562Z</time>
      </trkpt>
      <trkpt lat="44.62024" lon="3.25953">
        <ele>1021</ele>
        <time>2019-06-02T09:02:58.569Z</time>
      </trkpt>
      <trkpt lat="44.62023" lon="3.25944">
        <ele>1021</ele>
        <time>2019-06-02T09:03:03.535Z</time>
      </trkpt>
      <trkpt lat="44.62022" lon="3.25937">
        <ele>1021</ele>
        <time>2019-06-02T09:03:08.536Z</time>
      </trkpt>
      <trkpt lat="44.62023" lon="3.25931">
        <ele>1021</ele>
        <time>2019-06-02T09:03:12.549Z</time>
      </trkpt>
      <trkpt lat="44.62023" lon="3.25925">
        <ele>1022</ele>
        <time>2019-06-02T09:03:16.573Z</time>
      </trkpt>
      <trkpt lat="44.62022" lon="3.25918">
        <ele>1022</ele>
        <time>2019-06-02T09:03:21.539Z</time>
      </trkpt>
      <trkpt lat="44.62023" lon="3.2591">
        <ele>1022</ele>
        <time>2019-06-02T09:03:26.566Z</time>
      </trkpt>
      <trkpt lat="44.62025" lon="3.25902">
        <ele>1023</ele>
        <time>2019-06-02T09:03:31.539Z</time>
      </trkpt>
      <trkpt lat="44.62025" lon="3.25893">
        <ele>1023</ele>
        <time>2019-06-02T09:03:36.536Z</time>
      </trkpt>
      <trkpt lat="44.62025" lon="3.25885">
        <ele>1023</ele>
        <time>2019-06-02T09:03:41.540Z</time>
      </trkpt>
      <trkpt lat="44.62026" lon="3.25877">
        <ele>1023</ele>
        <time>2019-06-02T09:03:46.532Z</time>
      </trkpt>
      <trkpt lat="44.62027" lon="3.25869">
        <ele>1024</ele>
        <time>2019-06-02T09:03:51.536Z</time>
      </trkpt>
      <trkpt lat="44.62029" lon="3.25861">
        <ele>1024</ele>
        <time>2019-06-02T09:03:56.537Z</time>
      </trkpt>
      <trkpt lat="44.62031" lon="3.25855">
        <ele>1024</ele>
        <time>2019-06-02T09:04:01.542Z</time>
      </trkpt>
      <trkpt lat="44.62035" lon="3.25846">
        <ele>1024</ele>
        <time>2019-06-02T09:04:06.540Z</time>
      </trkpt>
      <trkpt lat="44.62037" lon="3.2584">
        <ele>1024</ele>
        <time>2019-06-02T09:04:11.540Z</time>
      </trkpt>
      <trkpt lat="44.6204" lon="3.25834">
        <ele>1024</ele>
        <time>2019-06-02T09:04:15.567Z</time>
      </trkpt>
      <trkpt lat="44.62043" lon="3.25828">
        <ele>1029</ele>
        <time>2019-06-02T09:04:20.539Z</time>
      </trkpt>
      <trkpt lat="44.62045" lon="3.25821">
        <ele>1029</ele>
        <time>2019-06-02T09:04:25.542Z</time>
      </trkpt>
      <trkpt lat="44.62048" lon="3.25813">
        <ele>1028</ele>
        <time>2019-06-02T09:04:30.531Z</time>
      </trkpt>
      <trkpt lat="44.62049" lon="3.25807">
        <ele>1028</ele>
        <time>2019-06-02T09:04:34.540Z</time>
      </trkpt>
      <trkpt lat="44.62051" lon="3.258">
        <ele>1028</ele>
        <time>2019-06-02T09:04:39.576Z</time>
      </trkpt>
      <trkpt lat="44.62053" lon="3.25793">
        <ele>1028</ele>
        <time>2019-06-02T09:04:44.542Z</time>
      </trkpt>
      <trkpt lat="44.62056" lon="3.25788">
        <ele>1028</ele>
        <time>2019-06-02T09:04:48.564Z</time>
      </trkpt>
      <trkpt lat="44.6206" lon="3.25781">
        <ele>1028</ele>
        <time>2019-06-02T09:04:53.551Z</time>
      </trkpt>
      <trkpt lat="44.62062" lon="3.25772">
        <ele>1028</ele>
        <time>2019-06-02T09:04:58.537Z</time>
      </trkpt>
      <trkpt lat="44.62063" lon="3.25765">
        <ele>1028</ele>
        <time>2019-06-02T09:05:02.538Z</time>
      </trkpt>
      <trkpt lat="44.62063" lon="3.25758">
        <ele>1027</ele>
        <time>2019-06-02T09:05:06.551Z</time>
      </trkpt>
      <trkpt lat="44.62064" lon="3.25751">
        <ele>1027</ele>
        <time>2019-06-02T09:05:11.539Z</time>
      </trkpt>
      <trkpt lat="44.62064" lon="3.25742">
        <ele>1027</ele>
        <time>2019-06-02T09:05:16.554Z</time>
      </trkpt>
      <trkpt lat="44.62064" lon="3.25734">
        <ele>1027</ele>
        <time>2019-06-02T09:05:21.540Z</time>
      </trkpt>
      <trkpt lat="44.62065" lon="3.25727">
        <ele>1027</ele>
        <time>2019-06-02T09:05:26.538Z</time>
      </trkpt>
      <trkpt lat="44.62067" lon="3.25719">
        <ele>1027</ele>
        <time>2019-06-02T09:05:31.539Z</time>
      </trkpt>
      <trkpt lat="44.6207" lon="3.25712">
        <ele>1030</ele>
        <time>2019-06-02T09:05:36.536Z</time>
      </trkpt>
      <trkpt lat="44.62072" lon="3.25705">
        <ele>1028</ele>
        <time>2019-06-02T09:05:41.535Z</time>
      </trkpt>
      <trkpt lat="44.62077" lon="3.257">
        <ele>1028</ele>
        <time>2019-06-02T09:05:46.538Z</time>
      </trkpt>
      <trkpt lat="44.62081" lon="3.25695">
        <ele>1028</ele>
        <time>2019-06-02T09:05:51.539Z</time>
      </trkpt>
      <trkpt lat="44.62086" lon="3.25691">
        <ele>1028</ele>
        <time>2019-06-02T09:05:56.534Z</time>
      </trkpt>
      <trkpt lat="44.6209" lon="3.25687">
        <ele>1028</ele>
        <time>2019-06-02T09:06:00.561Z</time>
      </trkpt>
      <trkpt lat="44.62095" lon="3.25684">
        <ele>1028</ele>
        <time>2019-06-02T09:06:05.545Z</time>
      </trkpt>
      <trkpt lat="44.621" lon="3.2568">
        <ele>1029</ele>
        <time>2019-06-02T09:06:10.537Z</time>
      </trkpt>
      <trkpt lat="44.62105" lon="3.25675">
        <ele>1029</ele>
        <time>2019-06-02T09:06:15.532Z</time>
      </trkpt>
      <trkpt lat="44.6211" lon="3.25668">
        <ele>1029</ele>
        <time>2019-06-02T09:06:20.552Z</time>
      </trkpt>
      <trkpt lat="44.62114" lon="3.2566">
        <ele>1029</ele>
        <time>2019-06-02T09:06:25.538Z</time>
      </trkpt>
      <trkpt lat="44.62117" lon="3.25652">
        <ele>1028</ele>
        <time>2019-06-02T09:06:30.551Z</time>
      </trkpt>
      <trkpt lat="44.6212" lon="3.25645">
        <ele>1028</ele>
        <time>2019-06-02T09:06:34.567Z</time>
      </trkpt>
      <trkpt lat="44.62123" lon="3.25637">
        <ele>1028</ele>
        <time>2019-06-02T09:06:39.533Z</time>
      </trkpt>
      <trkpt lat="44.62127" lon="3.25631">
        <ele>1031</ele>
        <time>2019-06-02T09:06:43.539Z</time>
      </trkpt>
      <trkpt lat="44.6213" lon="3.25626">
        <ele>1031</ele>
        <time>2019-06-02T09:06:47.566Z</time>
      </trkpt>
      <trkpt lat="44.62133" lon="3.25619">
        <ele>1030</ele>
        <time>2019-06-02T09:06:52.537Z</time>
      </trkpt>
      <trkpt lat="44.62137" lon="3.25612">
        <ele>1030</ele>
        <time>2019-06-02T09:06:57.538Z</time>
      </trkpt>
      <trkpt lat="44.6214" lon="3.25607">
        <ele>1030</ele>
        <time>2019-06-02T09:07:01.539Z</time>
      </trkpt>
      <trkpt lat="44.62143" lon="3.25599">
        <ele>1030</ele>
        <time>2019-06-02T09:07:06.539Z</time>
      </trkpt>
      <trkpt lat="44.62147" lon="3.25592">
        <ele>1028</ele>
        <time>2019-06-02T09:07:11.530Z</time>
      </trkpt>
      <trkpt lat="44.62151" lon="3.25585">
        <ele>1028</ele>
        <time>2019-06-02T09:07:16.561Z</time>
      </trkpt>
      <trkpt lat="44.62154" lon="3.25579">
        <ele>1032</ele>
        <time>2019-06-02T09:07:21.538Z</time>
      </trkpt>
      <trkpt lat="44.62157" lon="3.25572">
        <ele>1032</ele>
        <time>2019-06-02T09:07:26.534Z</time>
      </trkpt>
      <trkpt lat="44.62161" lon="3.25567">
        <ele>1030</ele>
        <time>2019-06-02T09:07:31.537Z</time>
      </trkpt>
      <trkpt lat="44.62166" lon="3.25561">
        <ele>1030</ele>
        <time>2019-06-02T09:07:36.539Z</time>
      </trkpt>
      <trkpt lat="44.62169" lon="3.25557">
        <ele>1030</ele>
        <time>2019-06-02T09:07:40.560Z</time>
      </trkpt>
      <trkpt lat="44.62173" lon="3.25552">
        <ele>1030</ele>
        <time>2019-06-02T09:07:45.539Z</time>
      </trkpt>
      <trkpt lat="44.62178" lon="3.25547">
        <ele>1030</ele>
        <time>2019-06-02T09:07:50.561Z</time>
      </trkpt>
      <trkpt lat="44.62182" lon="3.25543">
        <ele>1035</ele>
        <time>2019-06-02T09:07:54.571Z</time>
      </trkpt>
      <trkpt lat="44.62186" lon="3.25538">
        <ele>1033</ele>
        <time>2019-06-02T09:07:59.533Z</time>
      </trkpt>
      <trkpt lat="44.6219" lon="3.25534">
        <ele>1033</ele>
        <time>2019-06-02T09:08:03.539Z</time>
      </trkpt>
      <trkpt lat="44.62194" lon="3.25528">
        <ele>1033</ele>
        <time>2019-06-02T09:08:08.536Z</time>
      </trkpt>
      <trkpt lat="44.62198" lon="3.25523">
        <ele>1033</ele>
        <time>2019-06-02T09:08:13.539Z</time>
      </trkpt>
      <trkpt lat="44.62203" lon="3.25516">
        <ele>1033</ele>
        <time>2019-06-02T09:08:18.541Z</time>
      </trkpt>
      <trkpt lat="44.62206" lon="3.25511">
        <ele>1030</ele>
        <time>2019-06-02T09:08:23.541Z</time>
      </trkpt>
      <trkpt lat="44.6221" lon="3.25504">
        <ele>1032</ele>
        <time>2019-06-02T09:08:28.539Z</time>
      </trkpt>
      <trkpt lat="44.62213" lon="3.255">
        <ele>1032</ele>
        <time>2019-06-02T09:08:33.516Z</time>
      </trkpt>
      <trkpt lat="44.62213" lon="3.255">
        <ele>1032</ele>
        <time>2019-06-02T09:08:38.520Z</time>
      </trkpt>
      <trkpt lat="44.62213" lon="3.25498">
        <ele>1032</ele>
        <time>2019-06-02T09:08:56.527Z</time>
      </trkpt>
      <trkpt lat="44.62218" lon="3.25492">
        <ele>1032</ele>
        <time>2019-06-02T09:09:01.563Z</time>
      </trkpt>
      <trkpt lat="44.62221" lon="3.25487">
        <ele>1032</ele>
        <time>2019-06-02T09:09:06.531Z</time>
      </trkpt>
      <trkpt lat="44.62224" lon="3.25481">
        <ele>1030</ele>
        <time>2019-06-02T09:09:10.529Z</time>
      </trkpt>
      <trkpt lat="44.62227" lon="3.25473">
        <ele>1030</ele>
        <time>2019-06-02T09:09:15.529Z</time>
      </trkpt>
      <trkpt lat="44.62228" lon="3.25466">
        <ele>1030</ele>
        <time>2019-06-02T09:09:20.529Z</time>
      </trkpt>
      <trkpt lat="44.62228" lon="3.25458">
        <ele>1030</ele>
        <time>2019-06-02T09:09:25.529Z</time>
      </trkpt>
      <trkpt lat="44.62224" lon="3.25448">
        <ele>1030</ele>
        <time>2019-06-02T09:09:35.557Z</time>
      </trkpt>
      <trkpt lat="44.62223" lon="3.25447">
        <ele>1030</ele>
        <time>2019-06-02T09:09:40.556Z</time>
      </trkpt>
      <trkpt lat="44.62222" lon="3.25445">
        <ele>1030</ele>
        <time>2019-06-02T09:09:45.517Z</time>
      </trkpt>
      <trkpt lat="44.62222" lon="3.25445">
        <ele>1030</ele>
        <time>2019-06-02T09:10:13.522Z</time>
      </trkpt>
      <trkpt lat="44.6222" lon="3.25442">
        <ele>1030</ele>
        <time>2019-06-02T09:10:17.518Z</time>
      </trkpt>
    </trkseg>
  </trk>
</gpx>